<?xml version='1.0' encoding='UTF-8'?><gpx version="1.1" creator="JPX - https://github.com/jenetics/jpx" xmlns="http://www.topografix.com/GPX/1/1"><trk><trkseg><trkpt lat="44.1554219" lon="12.0829176"><ele>39.0</ele><time>2026-04-03T10:25:09.173Z</time></trkpt><trkpt lat="44.1553234" lon="12.0827975"><ele>39.0</ele><time>2026-04-03T10:25:10.175Z</time></trkpt><trkpt lat="44.1552228" lon="12.0826756"><ele>39.0</ele><time>2026-04-03T10:25:11.175Z</time></trkpt><trkpt lat="44.1551178" lon="12.0825486"><ele>39.0</ele><time>2026-04-03T10:25:12.174Z</time></trkpt><trkpt lat="44.1550183" lon="12.0824293"><ele>39.0</ele><time>2026-04-03T10:25:13.173Z</time></trkpt><trkpt lat="44.154917" lon="12.0823058"><ele>39.0</ele><time>2026-04-03T10:25:14.173Z</time></trkpt><trkpt lat="44.15481" lon="12.0821787"><ele>39.0</ele><time>2026-04-03T10:25:15.174Z</time></trkpt><trkpt lat="44.1547038" lon="12.0820532"><ele>39.0</ele><time>2026-04-03T10:25:16.173Z</time></trkpt><trkpt lat="44.1545993" lon="12.0819302"><ele>39.25</ele><time>2026-04-03T10:25:17.173Z</time></trkpt><trkpt lat="44.1544895" lon="12.0818024"><ele>39.5</ele><time>2026-04-03T10:25:18.174Z</time></trkpt><trkpt lat="44.15438" lon="12.0816723"><ele>39.75</ele><time>2026-04-03T10:25:19.174Z</time></trkpt><trkpt lat="44.1542651" lon="12.081533"><ele>40.0</ele><time>2026-04-03T10:25:20.173Z</time></trkpt><trkpt lat="44.1541556" lon="12.0813987"><ele>40.0</ele><time>2026-04-03T10:25:21.174Z</time></trkpt><trkpt lat="44.1540438" lon="12.0812588"><ele>40.0</ele><time>2026-04-03T10:25:22.174Z</time></trkpt><trkpt lat="44.1539309" lon="12.0811136"><ele>40.0</ele><time>2026-04-03T10:25:23.174Z</time></trkpt><trkpt lat="44.1538252" lon="12.080973"><ele>40.0</ele><time>2026-04-03T10:25:24.174Z</time></trkpt><trkpt lat="44.1537275" lon="12.0808382"><ele>40.0</ele><time>2026-04-03T10:25:25.174Z</time></trkpt><trkpt lat="44.1536307" lon="12.0807004"><ele>40.0</ele><time>2026-04-03T10:25:26.174Z</time></trkpt><trkpt lat="44.1535365" lon="12.0805642"><ele>40.0</ele><time>2026-04-03T10:25:27.173Z</time></trkpt><trkpt lat="44.1534437" lon="12.0804271"><ele>39.75</ele><time>2026-04-03T10:25:28.173Z</time></trkpt><trkpt lat="44.1533572" lon="12.0803014"><ele>39.5</ele><time>2026-04-03T10:25:29.175Z</time></trkpt><trkpt lat="44.1532765" lon="12.0801856"><ele>39.25</ele><time>2026-04-03T10:25:30.173Z</time></trkpt><trkpt lat="44.1532" lon="12.0800758"><ele>39.0</ele><time>2026-04-03T10:25:31.174Z</time></trkpt><trkpt lat="44.1531296" lon="12.0799743"><ele>39.5</ele><time>2026-04-03T10:25:32.174Z</time></trkpt><trkpt lat="44.1530645" lon="12.0798782"><ele>40.0</ele><time>2026-04-03T10:25:33.173Z</time></trkpt><trkpt lat="44.1530022" lon="12.0797847"><ele>40.5</ele><time>2026-04-03T10:25:34.174Z</time></trkpt><trkpt lat="44.1529454" lon="12.0797065"><ele>41.0</ele><time>2026-04-03T10:25:35.173Z</time></trkpt><trkpt lat="44.1528892" lon="12.0796565"><ele>41.5</ele><time>2026-04-03T10:25:36.174Z</time></trkpt><trkpt lat="44.1527869" lon="12.0796793"><ele>42.0</ele><time>2026-04-03T10:25:38.173Z</time></trkpt><trkpt lat="44.1527011" lon="12.0798171"><ele>42.0</ele><time>2026-04-03T10:25:40.175Z</time></trkpt><trkpt lat="44.1526539" lon="12.0799078"><ele>42.0</ele><time>2026-04-03T10:25:41.173Z</time></trkpt><trkpt lat="44.1526011" lon="12.080009"><ele>42.0</ele><time>2026-04-03T10:25:42.174Z</time></trkpt><trkpt lat="44.1525431" lon="12.0801193"><ele>42.0</ele><time>2026-04-03T10:25:43.173Z</time></trkpt><trkpt lat="44.152479" lon="12.0802414"><ele>42.0</ele><time>2026-04-03T10:25:44.174Z</time></trkpt><trkpt lat="44.1524157" lon="12.0803615"><ele>41.75</ele><time>2026-04-03T10:25:45.173Z</time></trkpt><trkpt lat="44.1523464" lon="12.0804911"><ele>41.5</ele><time>2026-04-03T10:25:46.174Z</time></trkpt><trkpt lat="44.1522747" lon="12.080634"><ele>41.25</ele><time>2026-04-03T10:25:47.173Z</time></trkpt><trkpt lat="44.1522069" lon="12.0807808"><ele>41.0</ele><time>2026-04-03T10:25:48.173Z</time></trkpt><trkpt lat="44.1521463" lon="12.0809343"><ele>40.75</ele><time>2026-04-03T10:25:49.173Z</time></trkpt><trkpt lat="44.1520861" lon="12.0811011"><ele>40.5</ele><time>2026-04-03T10:25:50.173Z</time></trkpt><trkpt lat="44.1520258" lon="12.0812728"><ele>40.25</ele><time>2026-04-03T10:25:51.174Z</time></trkpt><trkpt lat="44.151961" lon="12.0814543"><ele>40.0</ele><time>2026-04-03T10:25:52.173Z</time></trkpt><trkpt lat="44.1519002" lon="12.0816293"><ele>39.75</ele><time>2026-04-03T10:25:53.174Z</time></trkpt><trkpt lat="44.1518374" lon="12.0818097"><ele>39.5</ele><time>2026-04-03T10:25:54.173Z</time></trkpt><trkpt lat="44.1517734" lon="12.0819949"><ele>39.25</ele><time>2026-04-03T10:25:55.174Z</time></trkpt><trkpt lat="44.1517133" lon="12.0821716"><ele>39.0</ele><time>2026-04-03T10:25:56.173Z</time></trkpt><trkpt lat="44.1516565" lon="12.0823421"><ele>39.5</ele><time>2026-04-03T10:25:57.175Z</time></trkpt><trkpt lat="44.1515981" lon="12.082515"><ele>40.0</ele><time>2026-04-03T10:25:58.175Z</time></trkpt><trkpt lat="44.1515389" lon="12.0826812"><ele>40.5</ele><time>2026-04-03T10:25:59.174Z</time></trkpt><trkpt lat="44.1514783" lon="12.082849"><ele>41.0</ele><time>2026-04-03T10:26:00.173Z</time></trkpt><trkpt lat="44.151423" lon="12.0830029"><ele>41.0</ele><time>2026-04-03T10:26:01.173Z</time></trkpt><trkpt lat="44.1513684" lon="12.0831559"><ele>41.0</ele><time>2026-04-03T10:26:02.174Z</time></trkpt><trkpt lat="44.1513138" lon="12.0833086"><ele>41.0</ele><time>2026-04-03T10:26:03.173Z</time></trkpt><trkpt lat="44.1512621" lon="12.0834531"><ele>41.0</ele><time>2026-04-03T10:26:04.173Z</time></trkpt><trkpt lat="44.1512149" lon="12.0835875"><ele>41.0</ele><time>2026-04-03T10:26:05.174Z</time></trkpt><trkpt lat="44.1511677" lon="12.0837224"><ele>41.0</ele><time>2026-04-03T10:26:06.173Z</time></trkpt><trkpt lat="44.151122" lon="12.0838471"><ele>41.0</ele><time>2026-04-03T10:26:07.173Z</time></trkpt><trkpt lat="44.1510741" lon="12.0839602"><ele>41.0</ele><time>2026-04-03T10:26:08.174Z</time></trkpt><trkpt lat="44.1510229" lon="12.0840516"><ele>41.0</ele><time>2026-04-03T10:26:09.174Z</time></trkpt><trkpt lat="44.1509676" lon="12.0841201"><ele>41.199999999999996</ele><time>2026-04-03T10:26:10.173Z</time></trkpt><trkpt lat="44.1509077" lon="12.084166"><ele>41.4</ele><time>2026-04-03T10:26:11.174Z</time></trkpt><trkpt lat="44.1507916" lon="12.0841905"><ele>41.6</ele><time>2026-04-03T10:26:13.173Z</time></trkpt><trkpt lat="44.1506745" lon="12.084213"><ele>41.8</ele><time>2026-04-03T10:26:15.173Z</time></trkpt><trkpt lat="44.1506189" lon="12.0842543"><ele>42.0</ele><time>2026-04-03T10:26:16.174Z</time></trkpt><trkpt lat="44.1505512" lon="12.0843998"><ele>42.0</ele><time>2026-04-03T10:26:18.173Z</time></trkpt><trkpt lat="44.1505488" lon="12.0844941"><ele>42.0</ele><time>2026-04-03T10:26:19.174Z</time></trkpt><trkpt lat="44.1505716" lon="12.0845847"><ele>42.0</ele><time>2026-04-03T10:26:20.174Z</time></trkpt><trkpt lat="44.1506152" lon="12.0846564"><ele>42.0</ele><time>2026-04-03T10:26:21.173Z</time></trkpt><trkpt lat="44.1506781" lon="12.0847106"><ele>42.0</ele><time>2026-04-03T10:26:22.174Z</time></trkpt><trkpt lat="44.1507512" lon="12.0847639"><ele>42.0</ele><time>2026-04-03T10:26:23.173Z</time></trkpt><trkpt lat="44.1508279" lon="12.0848418"><ele>42.0</ele><time>2026-04-03T10:26:24.174Z</time></trkpt><trkpt lat="44.1508961" lon="12.0849417"><ele>42.0</ele><time>2026-04-03T10:26:25.173Z</time></trkpt><trkpt lat="44.1509693" lon="12.0850603"><ele>42.0</ele><time>2026-04-03T10:26:26.174Z</time></trkpt><trkpt lat="44.1510507" lon="12.0851987"><ele>42.0</ele><time>2026-04-03T10:26:27.174Z</time></trkpt><trkpt lat="44.151135" lon="12.0853428"><ele>42.0</ele><time>2026-04-03T10:26:28.173Z</time></trkpt><trkpt lat="44.1512234" lon="12.0854934"><ele>42.0</ele><time>2026-04-03T10:26:29.174Z</time></trkpt><trkpt lat="44.1513191" lon="12.0856582"><ele>42.0</ele><time>2026-04-03T10:26:30.173Z</time></trkpt><trkpt lat="44.151423" lon="12.0858322"><ele>41.0</ele><time>2026-04-03T10:26:31.174Z</time></trkpt><trkpt lat="44.1515368" lon="12.0860171"><ele>40.0</ele><time>2026-04-03T10:26:32.174Z</time></trkpt><trkpt lat="44.1516514" lon="12.0862005"><ele>39.0</ele><time>2026-04-03T10:26:33.174Z</time></trkpt><trkpt lat="44.1517699" lon="12.0863878"><ele>39.0</ele><time>2026-04-03T10:26:34.173Z</time></trkpt><trkpt lat="44.1518994" lon="12.0865916"><ele>39.0</ele><time>2026-04-03T10:26:35.174Z</time></trkpt><trkpt lat="44.1520277" lon="12.0867932"><ele>39.0</ele><time>2026-04-03T10:26:36.174Z</time></trkpt><trkpt lat="44.1521573" lon="12.0869981"><ele>38.0</ele><time>2026-04-03T10:26:37.174Z</time></trkpt><trkpt lat="44.1522859" lon="12.0872004"><ele>37.0</ele><time>2026-04-03T10:26:38.174Z</time></trkpt><trkpt lat="44.1524212" lon="12.0874154"><ele>36.0</ele><time>2026-04-03T10:26:39.173Z</time></trkpt><trkpt lat="44.1525607" lon="12.0876353"><ele>35.666666666666664</ele><time>2026-04-03T10:26:40.174Z</time></trkpt><trkpt lat="44.1526958" lon="12.0878464"><ele>35.33333333333333</ele><time>2026-04-03T10:26:41.173Z</time></trkpt><trkpt lat="44.152834" lon="12.0880638"><ele>35.0</ele><time>2026-04-03T10:26:42.173Z</time></trkpt><trkpt lat="44.1529794" lon="12.0882921"><ele>35.0</ele><time>2026-04-03T10:26:43.174Z</time></trkpt><trkpt lat="44.1531199" lon="12.0885122"><ele>35.0</ele><time>2026-04-03T10:26:44.173Z</time></trkpt><trkpt lat="44.1532561" lon="12.0887275"><ele>35.0</ele><time>2026-04-03T10:26:45.173Z</time></trkpt><trkpt lat="44.1533974" lon="12.0889491"><ele>34.0</ele><time>2026-04-03T10:26:46.173Z</time></trkpt><trkpt lat="44.1535389" lon="12.0891726"><ele>33.0</ele><time>2026-04-03T10:26:47.173Z</time></trkpt><trkpt lat="44.1536849" lon="12.0894009"><ele>32.0</ele><time>2026-04-03T10:26:48.173Z</time></trkpt><trkpt lat="44.1538227" lon="12.089616"><ele>32.0</ele><time>2026-04-03T10:26:49.173Z</time></trkpt><trkpt lat="44.1539662" lon="12.0898393"><ele>32.0</ele><time>2026-04-03T10:26:50.174Z</time></trkpt><trkpt lat="44.1541129" lon="12.0900687"><ele>32.0</ele><time>2026-04-03T10:26:51.173Z</time></trkpt><trkpt lat="44.1542539" lon="12.0902911"><ele>32.33333333333333</ele><time>2026-04-03T10:26:52.173Z</time></trkpt><trkpt lat="44.1543918" lon="12.0905105"><ele>32.666666666666664</ele><time>2026-04-03T10:26:53.174Z</time></trkpt><trkpt lat="44.1545243" lon="12.0907214"><ele>33.0</ele><time>2026-04-03T10:26:54.173Z</time></trkpt><trkpt lat="44.1546598" lon="12.0909359"><ele>33.333333333333336</ele><time>2026-04-03T10:26:55.173Z</time></trkpt><trkpt lat="44.1547984" lon="12.0911491"><ele>33.66666666666667</ele><time>2026-04-03T10:26:56.172Z</time></trkpt><trkpt lat="44.1549314" lon="12.0913443"><ele>34.0</ele><time>2026-04-03T10:26:57.173Z</time></trkpt><trkpt lat="44.1550727" lon="12.0915401"><ele>34.0</ele><time>2026-04-03T10:26:58.172Z</time></trkpt><trkpt lat="44.1552208" lon="12.0917356"><ele>34.0</ele><time>2026-04-03T10:26:59.172Z</time></trkpt><trkpt lat="44.1553691" lon="12.0919204"><ele>34.0</ele><time>2026-04-03T10:27:00.173Z</time></trkpt><trkpt lat="44.1555176" lon="12.0920936"><ele>34.0</ele><time>2026-04-03T10:27:01.172Z</time></trkpt><trkpt lat="44.1556732" lon="12.0922649"><ele>34.0</ele><time>2026-04-03T10:27:02.172Z</time></trkpt><trkpt lat="44.1558299" lon="12.0924278"><ele>34.0</ele><time>2026-04-03T10:27:03.172Z</time></trkpt><trkpt lat="44.1559894" lon="12.0925846"><ele>34.0</ele><time>2026-04-03T10:27:04.172Z</time></trkpt><trkpt lat="44.1561483" lon="12.0927301"><ele>34.0</ele><time>2026-04-03T10:27:05.172Z</time></trkpt><trkpt lat="44.1563026" lon="12.0928628"><ele>34.0</ele><time>2026-04-03T10:27:06.172Z</time></trkpt><trkpt lat="44.1564559" lon="12.092986"><ele>33.333333333333336</ele><time>2026-04-03T10:27:07.173Z</time></trkpt><trkpt lat="44.1565983" lon="12.093096"><ele>32.666666666666664</ele><time>2026-04-03T10:27:08.172Z</time></trkpt><trkpt lat="44.1567289" lon="12.0931938"><ele>32.0</ele><time>2026-04-03T10:27:09.172Z</time></trkpt><trkpt lat="44.1568586" lon="12.0932902"><ele>32.0</ele><time>2026-04-03T10:27:10.172Z</time></trkpt><trkpt lat="44.156984" lon="12.0933829"><ele>32.0</ele><time>2026-04-03T10:27:11.173Z</time></trkpt><trkpt lat="44.1571129" lon="12.0934773"><ele>32.0</ele><time>2026-04-03T10:27:12.172Z</time></trkpt><trkpt lat="44.1572361" lon="12.0935665"><ele>32.0</ele><time>2026-04-03T10:27:13.172Z</time></trkpt><trkpt lat="44.1573632" lon="12.0936574"><ele>31.75</ele><time>2026-04-03T10:27:14.173Z</time></trkpt><trkpt lat="44.1574979" lon="12.0937536"><ele>31.5</ele><time>2026-04-03T10:27:15.173Z</time></trkpt><trkpt lat="44.1576287" lon="12.0938474"><ele>31.25</ele><time>2026-04-03T10:27:16.172Z</time></trkpt><trkpt lat="44.1577574" lon="12.09394"><ele>31.0</ele><time>2026-04-03T10:27:17.172Z</time></trkpt><trkpt lat="44.1578896" lon="12.0940352"><ele>31.333333333333336</ele><time>2026-04-03T10:27:18.172Z</time></trkpt><trkpt lat="44.1580243" lon="12.0941323"><ele>31.666666666666664</ele><time>2026-04-03T10:27:19.172Z</time></trkpt><trkpt lat="44.1581653" lon="12.0942341"><ele>32.0</ele><time>2026-04-03T10:27:20.172Z</time></trkpt><trkpt lat="44.1583011" lon="12.0943328"><ele>32.0</ele><time>2026-04-03T10:27:21.172Z</time></trkpt><trkpt lat="44.1584431" lon="12.0944349"><ele>32.0</ele><time>2026-04-03T10:27:22.173Z</time></trkpt><trkpt lat="44.1585943" lon="12.0945413"><ele>32.0</ele><time>2026-04-03T10:27:23.173Z</time></trkpt><trkpt lat="44.1587411" lon="12.0946428"><ele>32.0</ele><time>2026-04-03T10:27:24.172Z</time></trkpt><trkpt lat="44.1588864" lon="12.0947426"><ele>32.0</ele><time>2026-04-03T10:27:25.173Z</time></trkpt><trkpt lat="44.1590371" lon="12.0948466"><ele>32.0</ele><time>2026-04-03T10:27:26.172Z</time></trkpt><trkpt lat="44.1591899" lon="12.0949559"><ele>32.0</ele><time>2026-04-03T10:27:27.172Z</time></trkpt><trkpt lat="44.1593472" lon="12.0950722"><ele>32.0</ele><time>2026-04-03T10:27:28.173Z</time></trkpt><trkpt lat="44.1594964" lon="12.0951852"><ele>32.0</ele><time>2026-04-03T10:27:29.173Z</time></trkpt><trkpt lat="44.159655" lon="12.0953066"><ele>32.0</ele><time>2026-04-03T10:27:30.172Z</time></trkpt><trkpt lat="44.1598211" lon="12.0954344"><ele>32.0</ele><time>2026-04-03T10:27:31.173Z</time></trkpt><trkpt lat="44.1599817" lon="12.0955577"><ele>32.0</ele><time>2026-04-03T10:27:32.172Z</time></trkpt><trkpt lat="44.1601373" lon="12.095676"><ele>32.0</ele><time>2026-04-03T10:27:33.172Z</time></trkpt><trkpt lat="44.1602969" lon="12.0957969"><ele>32.0</ele><time>2026-04-03T10:27:34.173Z</time></trkpt><trkpt lat="44.1604563" lon="12.0959165"><ele>32.0</ele><time>2026-04-03T10:27:35.173Z</time></trkpt><trkpt lat="44.1606127" lon="12.096034"><ele>31.333333333333332</ele><time>2026-04-03T10:27:36.173Z</time></trkpt><trkpt lat="44.1607664" lon="12.0961492"><ele>30.666666666666664</ele><time>2026-04-03T10:27:37.172Z</time></trkpt><trkpt lat="44.1609186" lon="12.0962613"><ele>30.0</ele><time>2026-04-03T10:27:38.173Z</time></trkpt><trkpt lat="44.1610741" lon="12.0963756"><ele>30.0</ele><time>2026-04-03T10:27:39.172Z</time></trkpt><trkpt lat="44.1612227" lon="12.096484"><ele>30.0</ele><time>2026-04-03T10:27:40.173Z</time></trkpt><trkpt lat="44.1613641" lon="12.0965876"><ele>30.0</ele><time>2026-04-03T10:27:41.173Z</time></trkpt><trkpt lat="44.1615085" lon="12.0966938"><ele>30.666666666666664</ele><time>2026-04-03T10:27:42.172Z</time></trkpt><trkpt lat="44.1616487" lon="12.0967969"><ele>31.333333333333332</ele><time>2026-04-03T10:27:43.173Z</time></trkpt><trkpt lat="44.1617907" lon="12.0969011"><ele>32.0</ele><time>2026-04-03T10:27:44.172Z</time></trkpt><trkpt lat="44.1619252" lon="12.0970005"><ele>32.0</ele><time>2026-04-03T10:27:45.173Z</time></trkpt><trkpt lat="44.1620543" lon="12.0970966"><ele>32.0</ele><time>2026-04-03T10:27:46.172Z</time></trkpt><trkpt lat="44.1621917" lon="12.0971978"><ele>32.0</ele><time>2026-04-03T10:27:47.172Z</time></trkpt><trkpt lat="44.1623233" lon="12.0972946"><ele>31.666666666666664</ele><time>2026-04-03T10:27:48.174Z</time></trkpt><trkpt lat="44.1624528" lon="12.0973898"><ele>31.333333333333336</ele><time>2026-04-03T10:27:49.172Z</time></trkpt><trkpt lat="44.1625887" lon="12.0974894"><ele>31.0</ele><time>2026-04-03T10:27:50.172Z</time></trkpt><trkpt lat="44.1627252" lon="12.0975891"><ele>31.0</ele><time>2026-04-03T10:27:51.172Z</time></trkpt><trkpt lat="44.1628662" lon="12.0976929"><ele>31.0</ele><time>2026-04-03T10:27:52.173Z</time></trkpt><trkpt lat="44.1629997" lon="12.0977909"><ele>31.0</ele><time>2026-04-03T10:27:53.172Z</time></trkpt><trkpt lat="44.1631398" lon="12.0978936"><ele>30.0</ele><time>2026-04-03T10:27:54.173Z</time></trkpt><trkpt lat="44.1632836" lon="12.0979993"><ele>29.0</ele><time>2026-04-03T10:27:55.172Z</time></trkpt><trkpt lat="44.1634207" lon="12.0980993"><ele>28.0</ele><time>2026-04-03T10:27:56.173Z</time></trkpt><trkpt lat="44.163553" lon="12.0981958"><ele>28.666666666666668</ele><time>2026-04-03T10:27:57.173Z</time></trkpt><trkpt lat="44.1636909" lon="12.0982978"><ele>29.333333333333336</ele><time>2026-04-03T10:27:58.172Z</time></trkpt><trkpt lat="44.1638292" lon="12.0983996"><ele>30.0</ele><time>2026-04-03T10:27:59.173Z</time></trkpt><trkpt lat="44.1639744" lon="12.0985066"><ele>29.666666666666664</ele><time>2026-04-03T10:28:00.172Z</time></trkpt><trkpt lat="44.1641136" lon="12.0986086"><ele>29.333333333333332</ele><time>2026-04-03T10:28:01.173Z</time></trkpt><trkpt lat="44.1642587" lon="12.0987154"><ele>29.0</ele><time>2026-04-03T10:28:02.174Z</time></trkpt><trkpt lat="44.1644105" lon="12.0988259"><ele>29.0</ele><time>2026-04-03T10:28:03.172Z</time></trkpt><trkpt lat="44.1645596" lon="12.098935"><ele>29.0</ele><time>2026-04-03T10:28:04.172Z</time></trkpt><trkpt lat="44.1647052" lon="12.0990415"><ele>29.0</ele><time>2026-04-03T10:28:05.173Z</time></trkpt><trkpt lat="44.1648542" lon="12.0991496"><ele>29.0</ele><time>2026-04-03T10:28:06.172Z</time></trkpt><trkpt lat="44.1649992" lon="12.099255"><ele>29.0</ele><time>2026-04-03T10:28:07.173Z</time></trkpt><trkpt lat="44.1651428" lon="12.0993606"><ele>29.0</ele><time>2026-04-03T10:28:08.173Z</time></trkpt><trkpt lat="44.1652817" lon="12.0994628"><ele>29.0</ele><time>2026-04-03T10:28:09.173Z</time></trkpt><trkpt lat="44.165418" lon="12.0995625"><ele>29.0</ele><time>2026-04-03T10:28:10.172Z</time></trkpt><trkpt lat="44.1655565" lon="12.0996623"><ele>29.0</ele><time>2026-04-03T10:28:11.173Z</time></trkpt><trkpt lat="44.1656849" lon="12.0997535"><ele>29.5</ele><time>2026-04-03T10:28:12.173Z</time></trkpt><trkpt lat="44.1658067" lon="12.0998397"><ele>30.0</ele><time>2026-04-03T10:28:13.172Z</time></trkpt><trkpt lat="44.1659231" lon="12.0999216"><ele>30.5</ele><time>2026-04-03T10:28:14.172Z</time></trkpt><trkpt lat="44.1660324" lon="12.0999986"><ele>31.0</ele><time>2026-04-03T10:28:15.173Z</time></trkpt><trkpt lat="44.1661358" lon="12.1000722"><ele>31.333333333333336</ele><time>2026-04-03T10:28:16.172Z</time></trkpt><trkpt lat="44.1662194" lon="12.1001334"><ele>31.666666666666668</ele><time>2026-04-03T10:28:17.172Z</time></trkpt><trkpt lat="44.16629" lon="12.1001854"><ele>32.0</ele><time>2026-04-03T10:28:18.173Z</time></trkpt><trkpt lat="44.1663807" lon="12.1002534"><ele>32.333333333333336</ele><time>2026-04-03T10:28:20.172Z</time></trkpt><trkpt lat="44.1664541" lon="12.1003135"><ele>32.666666666666664</ele><time>2026-04-03T10:28:23.173Z</time></trkpt><trkpt lat="44.1665104" lon="12.1003798"><ele>33.0</ele><time>2026-04-03T10:28:25.173Z</time></trkpt><trkpt lat="44.166561" lon="12.1005039"><ele>33.5</ele><time>2026-04-03T10:28:27.172Z</time></trkpt><trkpt lat="44.1666098" lon="12.1006679"><ele>34.0</ele><time>2026-04-03T10:28:29.173Z</time></trkpt><trkpt lat="44.166653" lon="12.1007397"><ele>34.5</ele><time>2026-04-03T10:28:30.173Z</time></trkpt><trkpt lat="44.1667157" lon="12.1007939"><ele>35.0</ele><time>2026-04-03T10:28:31.172Z</time></trkpt><trkpt lat="44.1667947" lon="12.1008202"><ele>35.5</ele><time>2026-04-03T10:28:32.172Z</time></trkpt><trkpt lat="44.1668786" lon="12.1008262"><ele>36.0</ele><time>2026-04-03T10:28:33.173Z</time></trkpt><trkpt lat="44.1669721" lon="12.1008445"><ele>36.0</ele><time>2026-04-03T10:28:34.172Z</time></trkpt><trkpt lat="44.1670715" lon="12.1008884"><ele>36.0</ele><time>2026-04-03T10:28:35.173Z</time></trkpt><trkpt lat="44.1671701" lon="12.1009579"><ele>36.0</ele><time>2026-04-03T10:28:36.173Z</time></trkpt><trkpt lat="44.1672653" lon="12.1010451"><ele>36.0</ele><time>2026-04-03T10:28:37.172Z</time></trkpt><trkpt lat="44.1673676" lon="12.1011517"><ele>36.0</ele><time>2026-04-03T10:28:38.172Z</time></trkpt><trkpt lat="44.1674727" lon="12.1012702"><ele>36.0</ele><time>2026-04-03T10:28:39.174Z</time></trkpt><trkpt lat="44.1675855" lon="12.1014014"><ele>36.0</ele><time>2026-04-03T10:28:40.174Z</time></trkpt><trkpt lat="44.1676918" lon="12.1015294"><ele>36.0</ele><time>2026-04-03T10:28:41.174Z</time></trkpt><trkpt lat="44.1678011" lon="12.1016643"><ele>36.0</ele><time>2026-04-03T10:28:42.174Z</time></trkpt><trkpt lat="44.1679143" lon="12.101806"><ele>36.0</ele><time>2026-04-03T10:28:43.172Z</time></trkpt><trkpt lat="44.1680237" lon="12.101944"><ele>36.0</ele><time>2026-04-03T10:28:44.174Z</time></trkpt><trkpt lat="44.1681311" lon="12.1020818"><ele>36.0</ele><time>2026-04-03T10:28:45.172Z</time></trkpt><trkpt lat="44.1682418" lon="12.1022246"><ele>36.0</ele><time>2026-04-03T10:28:46.172Z</time></trkpt><trkpt lat="44.1683548" lon="12.1023704"><ele>36.0</ele><time>2026-04-03T10:28:47.173Z</time></trkpt><trkpt lat="44.1684725" lon="12.1025221"><ele>36.0</ele><time>2026-04-03T10:28:48.173Z</time></trkpt><trkpt lat="44.1685852" lon="12.1026686"><ele>36.333333333333336</ele><time>2026-04-03T10:28:49.173Z</time></trkpt><trkpt lat="44.1687024" lon="12.1028217"><ele>36.66666666666667</ele><time>2026-04-03T10:28:50.172Z</time></trkpt><trkpt lat="44.1688246" lon="12.1029783"><ele>37.0</ele><time>2026-04-03T10:28:51.172Z</time></trkpt><trkpt lat="44.168944" lon="12.1031311"><ele>37.0</ele><time>2026-04-03T10:28:52.173Z</time></trkpt><trkpt lat="44.1690597" lon="12.1032773"><ele>37.0</ele><time>2026-04-03T10:28:53.173Z</time></trkpt><trkpt lat="44.1691773" lon="12.1034265"><ele>37.0</ele><time>2026-04-03T10:28:54.172Z</time></trkpt><trkpt lat="44.1692931" lon="12.1035715"><ele>37.0</ele><time>2026-04-03T10:28:55.174Z</time></trkpt><trkpt lat="44.1694158" lon="12.1037157"><ele>37.0</ele><time>2026-04-03T10:28:56.172Z</time></trkpt><trkpt lat="44.1695332" lon="12.103843"><ele>37.0</ele><time>2026-04-03T10:28:57.173Z</time></trkpt><trkpt lat="44.1696571" lon="12.1039665"><ele>36.75</ele><time>2026-04-03T10:28:58.172Z</time></trkpt><trkpt lat="44.1697877" lon="12.1040824"><ele>36.5</ele><time>2026-04-03T10:28:59.172Z</time></trkpt><trkpt lat="44.169915" lon="12.1041842"><ele>36.25</ele><time>2026-04-03T10:29:00.172Z</time></trkpt><trkpt lat="44.1700409" lon="12.1042745"><ele>36.0</ele><time>2026-04-03T10:29:01.173Z</time></trkpt><trkpt lat="44.1701721" lon="12.1043599"><ele>36.0</ele><time>2026-04-03T10:29:02.172Z</time></trkpt><trkpt lat="44.1703014" lon="12.1044351"><ele>36.0</ele><time>2026-04-03T10:29:03.172Z</time></trkpt><trkpt lat="44.1704282" lon="12.1045038"><ele>36.0</ele><time>2026-04-03T10:29:04.174Z</time></trkpt><trkpt lat="44.1705356" lon="12.1045609"><ele>36.0</ele><time>2026-04-03T10:29:05.173Z</time></trkpt><trkpt lat="44.1706313" lon="12.1046109"><ele>35.833333333333336</ele><time>2026-04-03T10:29:06.172Z</time></trkpt><trkpt lat="44.1707161" lon="12.1046559"><ele>35.666666666666664</ele><time>2026-04-03T10:29:07.172Z</time></trkpt><trkpt lat="44.1707868" lon="12.1046936"><ele>35.5</ele><time>2026-04-03T10:29:08.172Z</time></trkpt><trkpt lat="44.1708463" lon="12.1047281"><ele>35.33333333333333</ele><time>2026-04-03T10:29:09.172Z</time></trkpt><trkpt lat="44.1709519" lon="12.1048254"><ele>35.166666666666664</ele><time>2026-04-03T10:29:11.172Z</time></trkpt><trkpt lat="44.1710011" lon="12.1048995"><ele>35.0</ele><time>2026-04-03T10:29:12.173Z</time></trkpt><trkpt lat="44.1710467" lon="12.1049824"><ele>35.0</ele><time>2026-04-03T10:29:13.173Z</time></trkpt><trkpt lat="44.1710913" lon="12.1050802"><ele>35.0</ele><time>2026-04-03T10:29:14.172Z</time></trkpt><trkpt lat="44.1711281" lon="12.1051964"><ele>35.0</ele><time>2026-04-03T10:29:15.173Z</time></trkpt><trkpt lat="44.1711478" lon="12.1053157"><ele>35.0</ele><time>2026-04-03T10:29:16.173Z</time></trkpt><trkpt lat="44.1711568" lon="12.1054486"><ele>35.0</ele><time>2026-04-03T10:29:17.172Z</time></trkpt><trkpt lat="44.1711684" lon="12.105578"><ele>35.0</ele><time>2026-04-03T10:29:18.173Z</time></trkpt><trkpt lat="44.1711888" lon="12.1057149"><ele>35.0</ele><time>2026-04-03T10:29:19.173Z</time></trkpt><trkpt lat="44.1712196" lon="12.1058566"><ele>35.0</ele><time>2026-04-03T10:29:20.173Z</time></trkpt><trkpt lat="44.1712618" lon="12.1059893"><ele>35.0</ele><time>2026-04-03T10:29:21.172Z</time></trkpt><trkpt lat="44.1713183" lon="12.106122"><ele>35.0</ele><time>2026-04-03T10:29:22.172Z</time></trkpt><trkpt lat="44.1713922" lon="12.1062537"><ele>35.0</ele><time>2026-04-03T10:29:23.174Z</time></trkpt><trkpt lat="44.1714759" lon="12.106375"><ele>35.0</ele><time>2026-04-03T10:29:24.173Z</time></trkpt><trkpt lat="44.171563" lon="12.1064906"><ele>35.0</ele><time>2026-04-03T10:29:25.172Z</time></trkpt><trkpt lat="44.1716555" lon="12.1066123"><ele>35.0</ele><time>2026-04-03T10:29:26.172Z</time></trkpt><trkpt lat="44.1717473" lon="12.1067331"><ele>35.0</ele><time>2026-04-03T10:29:27.173Z</time></trkpt><trkpt lat="44.1718401" lon="12.1068554"><ele>35.0</ele><time>2026-04-03T10:29:28.173Z</time></trkpt><trkpt lat="44.1719246" lon="12.1069673"><ele>35.0</ele><time>2026-04-03T10:29:29.174Z</time></trkpt><trkpt lat="44.1720044" lon="12.1070728"><ele>35.0</ele><time>2026-04-03T10:29:30.173Z</time></trkpt><trkpt lat="44.1720772" lon="12.1071676"><ele>35.0</ele><time>2026-04-03T10:29:31.172Z</time></trkpt><trkpt lat="44.1721363" lon="12.1072448"><ele>35.0</ele><time>2026-04-03T10:29:32.172Z</time></trkpt><trkpt lat="44.1721938" lon="12.1073203"><ele>35.0</ele><time>2026-04-03T10:29:33.173Z</time></trkpt><trkpt lat="44.1722519" lon="12.1073962"><ele>35.0</ele><time>2026-04-03T10:29:34.173Z</time></trkpt><trkpt lat="44.1723141" lon="12.1074779"><ele>35.0</ele><time>2026-04-03T10:29:35.172Z</time></trkpt><trkpt lat="44.172381" lon="12.1075648"><ele>35.0</ele><time>2026-04-03T10:29:36.173Z</time></trkpt><trkpt lat="44.1724443" lon="12.1076469"><ele>34.83333333333333</ele><time>2026-04-03T10:29:37.173Z</time></trkpt><trkpt lat="44.172507" lon="12.1077278"><ele>34.666666666666664</ele><time>2026-04-03T10:29:38.172Z</time></trkpt><trkpt lat="44.1725685" lon="12.1078073"><ele>34.5</ele><time>2026-04-03T10:29:39.173Z</time></trkpt><trkpt lat="44.1726297" lon="12.107888"><ele>34.333333333333336</ele><time>2026-04-03T10:29:40.173Z</time></trkpt><trkpt lat="44.1726929" lon="12.1079707"><ele>34.16666666666667</ele><time>2026-04-03T10:29:41.173Z</time></trkpt><trkpt lat="44.172762" lon="12.1080604"><ele>34.0</ele><time>2026-04-03T10:29:42.172Z</time></trkpt><trkpt lat="44.1728351" lon="12.1081564"><ele>34.2</ele><time>2026-04-03T10:29:43.173Z</time></trkpt><trkpt lat="44.1729132" lon="12.1082603"><ele>34.4</ele><time>2026-04-03T10:29:44.173Z</time></trkpt><trkpt lat="44.1729915" lon="12.1083611"><ele>34.6</ele><time>2026-04-03T10:29:45.172Z</time></trkpt><trkpt lat="44.1730718" lon="12.1084663"><ele>34.8</ele><time>2026-04-03T10:29:46.172Z</time></trkpt><trkpt lat="44.1731519" lon="12.1085703"><ele>35.0</ele><time>2026-04-03T10:29:47.174Z</time></trkpt><trkpt lat="44.1732287" lon="12.10867"><ele>35.0</ele><time>2026-04-03T10:29:48.173Z</time></trkpt><trkpt lat="44.1733003" lon="12.1087632"><ele>35.0</ele><time>2026-04-03T10:29:49.172Z</time></trkpt><trkpt lat="44.1733719" lon="12.108856"><ele>35.0</ele><time>2026-04-03T10:29:50.172Z</time></trkpt><trkpt lat="44.1734397" lon="12.1089435"><ele>35.0</ele><time>2026-04-03T10:29:51.173Z</time></trkpt><trkpt lat="44.1735091" lon="12.1090352"><ele>35.0</ele><time>2026-04-03T10:29:52.172Z</time></trkpt><trkpt lat="44.1735742" lon="12.109121"><ele>35.0</ele><time>2026-04-03T10:29:53.172Z</time></trkpt><trkpt lat="44.173641" lon="12.1092092"><ele>35.0</ele><time>2026-04-03T10:29:54.172Z</time></trkpt><trkpt lat="44.1737125" lon="12.1093032"><ele>35.0</ele><time>2026-04-03T10:29:55.172Z</time></trkpt><trkpt lat="44.1737843" lon="12.1093976"><ele>35.0</ele><time>2026-04-03T10:29:56.173Z</time></trkpt><trkpt lat="44.173856" lon="12.1094932"><ele>35.0</ele><time>2026-04-03T10:29:57.172Z</time></trkpt><trkpt lat="44.1739316" lon="12.1095942"><ele>35.0</ele><time>2026-04-03T10:29:58.172Z</time></trkpt><trkpt lat="44.1740097" lon="12.1096981"><ele>35.0</ele><time>2026-04-03T10:29:59.173Z</time></trkpt><trkpt lat="44.1740935" lon="12.1098086"><ele>35.0</ele><time>2026-04-03T10:30:00.172Z</time></trkpt><trkpt lat="44.1741703" lon="12.10991"><ele>35.0</ele><time>2026-04-03T10:30:01.172Z</time></trkpt><trkpt lat="44.1742474" lon="12.1100115"><ele>35.0</ele><time>2026-04-03T10:30:02.173Z</time></trkpt><trkpt lat="44.174324" lon="12.1101136"><ele>35.0</ele><time>2026-04-03T10:30:03.172Z</time></trkpt><trkpt lat="44.1743942" lon="12.110207"><ele>35.0</ele><time>2026-04-03T10:30:04.173Z</time></trkpt><trkpt lat="44.1744638" lon="12.1102987"><ele>35.0</ele><time>2026-04-03T10:30:05.172Z</time></trkpt><trkpt lat="44.1745306" lon="12.1103875"><ele>35.0</ele><time>2026-04-03T10:30:06.172Z</time></trkpt><trkpt lat="44.1745944" lon="12.110473"><ele>35.0</ele><time>2026-04-03T10:30:07.172Z</time></trkpt><trkpt lat="44.1746623" lon="12.1105624"><ele>35.0</ele><time>2026-04-03T10:30:08.172Z</time></trkpt><trkpt lat="44.1747319" lon="12.1106536"><ele>35.0</ele><time>2026-04-03T10:30:09.172Z</time></trkpt><trkpt lat="44.1748048" lon="12.1107486"><ele>35.0</ele><time>2026-04-03T10:30:10.173Z</time></trkpt><trkpt lat="44.1748847" lon="12.1108521"><ele>35.0</ele><time>2026-04-03T10:30:11.172Z</time></trkpt><trkpt lat="44.1749615" lon="12.1109527"><ele>35.0</ele><time>2026-04-03T10:30:12.172Z</time></trkpt><trkpt lat="44.1750429" lon="12.1110603"><ele>35.0</ele><time>2026-04-03T10:30:13.172Z</time></trkpt><trkpt lat="44.1751232" lon="12.1111672"><ele>35.0</ele><time>2026-04-03T10:30:14.172Z</time></trkpt><trkpt lat="44.1752027" lon="12.1112737"><ele>35.0</ele><time>2026-04-03T10:30:15.172Z</time></trkpt><trkpt lat="44.1752811" lon="12.1113815"><ele>35.0</ele><time>2026-04-03T10:30:16.173Z</time></trkpt><trkpt lat="44.175357" lon="12.1114941"><ele>35.0</ele><time>2026-04-03T10:30:17.172Z</time></trkpt><trkpt lat="44.1754327" lon="12.1116171"><ele>35.0</ele><time>2026-04-03T10:30:18.173Z</time></trkpt><trkpt lat="44.1755055" lon="12.1117518"><ele>35.0</ele><time>2026-04-03T10:30:19.174Z</time></trkpt><trkpt lat="44.1755732" lon="12.1118935"><ele>35.0</ele><time>2026-04-03T10:30:20.172Z</time></trkpt><trkpt lat="44.1756385" lon="12.1120389"><ele>35.0</ele><time>2026-04-03T10:30:21.172Z</time></trkpt><trkpt lat="44.1757055" lon="12.1121951"><ele>34.75</ele><time>2026-04-03T10:30:22.172Z</time></trkpt><trkpt lat="44.1757707" lon="12.112362"><ele>34.5</ele><time>2026-04-03T10:30:23.173Z</time></trkpt><trkpt lat="44.175838" lon="12.1125441"><ele>34.25</ele><time>2026-04-03T10:30:24.173Z</time></trkpt><trkpt lat="44.1759009" lon="12.1127239"><ele>34.0</ele><time>2026-04-03T10:30:25.172Z</time></trkpt><trkpt lat="44.1759639" lon="12.1129167"><ele>34.0</ele><time>2026-04-03T10:30:26.173Z</time></trkpt><trkpt lat="44.176027" lon="12.1131209"><ele>34.0</ele><time>2026-04-03T10:30:27.173Z</time></trkpt><trkpt lat="44.1760872" lon="12.1133224"><ele>34.0</ele><time>2026-04-03T10:30:28.173Z</time></trkpt><trkpt lat="44.1761484" lon="12.1135324"><ele>33.66666666666667</ele><time>2026-04-03T10:30:29.173Z</time></trkpt><trkpt lat="44.1762107" lon="12.1137489"><ele>33.333333333333336</ele><time>2026-04-03T10:30:30.172Z</time></trkpt><trkpt lat="44.1762736" lon="12.1139676"><ele>33.0</ele><time>2026-04-03T10:30:31.172Z</time></trkpt><trkpt lat="44.1763399" lon="12.1141953"><ele>33.0</ele><time>2026-04-03T10:30:32.172Z</time></trkpt><trkpt lat="44.1764038" lon="12.1144108"><ele>33.0</ele><time>2026-04-03T10:30:33.173Z</time></trkpt><trkpt lat="44.1764683" lon="12.1146312"><ele>33.0</ele><time>2026-04-03T10:30:34.172Z</time></trkpt><trkpt lat="44.1765343" lon="12.114855"><ele>33.0</ele><time>2026-04-03T10:30:35.172Z</time></trkpt><trkpt lat="44.1765975" lon="12.1150696"><ele>33.0</ele><time>2026-04-03T10:30:36.172Z</time></trkpt><trkpt lat="44.176657" lon="12.1152719"><ele>33.0</ele><time>2026-04-03T10:30:37.173Z</time></trkpt><trkpt lat="44.1767172" lon="12.1154765"><ele>33.0</ele><time>2026-04-03T10:30:38.172Z</time></trkpt><trkpt lat="44.1767762" lon="12.1156768"><ele>33.0</ele><time>2026-04-03T10:30:39.173Z</time></trkpt><trkpt lat="44.1768369" lon="12.1158833"><ele>33.0</ele><time>2026-04-03T10:30:40.172Z</time></trkpt><trkpt lat="44.1768944" lon="12.1160771"><ele>33.0</ele><time>2026-04-03T10:30:41.173Z</time></trkpt><trkpt lat="44.1769547" lon="12.1162771"><ele>33.0</ele><time>2026-04-03T10:30:42.172Z</time></trkpt><trkpt lat="44.1770188" lon="12.116481"><ele>33.0</ele><time>2026-04-03T10:30:43.172Z</time></trkpt><trkpt lat="44.1770829" lon="12.1166703"><ele>33.0</ele><time>2026-04-03T10:30:44.173Z</time></trkpt><trkpt lat="44.1771513" lon="12.1168588"><ele>33.0</ele><time>2026-04-03T10:30:45.172Z</time></trkpt><trkpt lat="44.1772235" lon="12.1170421"><ele>33.0</ele><time>2026-04-03T10:30:46.172Z</time></trkpt><trkpt lat="44.1773004" lon="12.1172214"><ele>32.75</ele><time>2026-04-03T10:30:47.172Z</time></trkpt><trkpt lat="44.1773829" lon="12.1173987"><ele>32.5</ele><time>2026-04-03T10:30:48.173Z</time></trkpt><trkpt lat="44.1774627" lon="12.1175583"><ele>32.25</ele><time>2026-04-03T10:30:49.173Z</time></trkpt><trkpt lat="44.1775496" lon="12.1177191"><ele>32.0</ele><time>2026-04-03T10:30:50.172Z</time></trkpt><trkpt lat="44.1776413" lon="12.1178788"><ele>32.0</ele><time>2026-04-03T10:30:51.172Z</time></trkpt><trkpt lat="44.1777333" lon="12.118026"><ele>32.0</ele><time>2026-04-03T10:30:52.172Z</time></trkpt><trkpt lat="44.1778267" lon="12.118171"><ele>32.0</ele><time>2026-04-03T10:30:53.173Z</time></trkpt><trkpt lat="44.1779204" lon="12.1183082"><ele>32.0</ele><time>2026-04-03T10:30:54.172Z</time></trkpt><trkpt lat="44.1780193" lon="12.1184459"><ele>32.25</ele><time>2026-04-03T10:30:55.172Z</time></trkpt><trkpt lat="44.1781217" lon="12.1185808"><ele>32.5</ele><time>2026-04-03T10:30:56.173Z</time></trkpt><trkpt lat="44.1782287" lon="12.1187087"><ele>32.75</ele><time>2026-04-03T10:30:57.172Z</time></trkpt><trkpt lat="44.1783406" lon="12.1188297"><ele>33.0</ele><time>2026-04-03T10:30:58.172Z</time></trkpt><trkpt lat="44.1784617" lon="12.1189471"><ele>33.0</ele><time>2026-04-03T10:30:59.173Z</time></trkpt><trkpt lat="44.178581" lon="12.1190569"><ele>33.0</ele><time>2026-04-03T10:31:00.173Z</time></trkpt><trkpt lat="44.1786951" lon="12.1191594"><ele>33.0</ele><time>2026-04-03T10:31:01.172Z</time></trkpt><trkpt lat="44.178811" lon="12.1192625"><ele>33.0</ele><time>2026-04-03T10:31:02.173Z</time></trkpt><trkpt lat="44.1789259" lon="12.1193633"><ele>32.75</ele><time>2026-04-03T10:31:03.172Z</time></trkpt><trkpt lat="44.1790426" lon="12.1194637"><ele>32.5</ele><time>2026-04-03T10:31:04.172Z</time></trkpt><trkpt lat="44.1791543" lon="12.1195574"><ele>32.25</ele><time>2026-04-03T10:31:05.174Z</time></trkpt><trkpt lat="44.1792706" lon="12.1196521"><ele>32.0</ele><time>2026-04-03T10:31:06.173Z</time></trkpt><trkpt lat="44.1793915" lon="12.119748"><ele>32.0</ele><time>2026-04-03T10:31:07.173Z</time></trkpt><trkpt lat="44.1795093" lon="12.1198394"><ele>32.0</ele><time>2026-04-03T10:31:08.172Z</time></trkpt><trkpt lat="44.1796222" lon="12.1199273"><ele>32.0</ele><time>2026-04-03T10:31:09.172Z</time></trkpt><trkpt lat="44.1797363" lon="12.1200148"><ele>32.0</ele><time>2026-04-03T10:31:10.173Z</time></trkpt><trkpt lat="44.179848" lon="12.1201005"><ele>32.0</ele><time>2026-04-03T10:31:11.172Z</time></trkpt><trkpt lat="44.1799609" lon="12.1201858"><ele>32.0</ele><time>2026-04-03T10:31:12.173Z</time></trkpt><trkpt lat="44.1800608" lon="12.120263"><ele>32.0</ele><time>2026-04-03T10:31:13.174Z</time></trkpt><trkpt lat="44.1801549" lon="12.1203348"><ele>32.0</ele><time>2026-04-03T10:31:14.172Z</time></trkpt><trkpt lat="44.1802363" lon="12.1204016"><ele>32.0</ele><time>2026-04-03T10:31:15.174Z</time></trkpt><trkpt lat="44.1802897" lon="12.1204621"><ele>32.0</ele><time>2026-04-03T10:31:16.173Z</time></trkpt><trkpt lat="44.1803389" lon="12.1206079"><ele>32.0</ele><time>2026-04-03T10:31:18.172Z</time></trkpt><trkpt lat="44.1804013" lon="12.1207001"><ele>32.0</ele><time>2026-04-03T10:31:20.172Z</time></trkpt><trkpt lat="44.1804908" lon="12.1206721"><ele>32.0</ele><time>2026-04-03T10:31:22.173Z</time></trkpt><trkpt lat="44.1806067" lon="12.1206832"><ele>32.0</ele><time>2026-04-03T10:31:24.172Z</time></trkpt><trkpt lat="44.1806709" lon="12.1207244"><ele>32.2</ele><time>2026-04-03T10:31:25.173Z</time></trkpt><trkpt lat="44.1807431" lon="12.1207771"><ele>32.400000000000006</ele><time>2026-04-03T10:31:26.172Z</time></trkpt><trkpt lat="44.1808211" lon="12.1208383"><ele>32.599999999999994</ele><time>2026-04-03T10:31:27.172Z</time></trkpt><trkpt lat="44.1809087" lon="12.1209099"><ele>32.8</ele><time>2026-04-03T10:31:28.172Z</time></trkpt><trkpt lat="44.1809979" lon="12.1209821"><ele>33.0</ele><time>2026-04-03T10:31:29.171Z</time></trkpt><trkpt lat="44.1810955" lon="12.1210595"><ele>33.0</ele><time>2026-04-03T10:31:30.172Z</time></trkpt><trkpt lat="44.1812018" lon="12.1211409"><ele>33.0</ele><time>2026-04-03T10:31:31.172Z</time></trkpt><trkpt lat="44.1813071" lon="12.1212207"><ele>33.0</ele><time>2026-04-03T10:31:32.172Z</time></trkpt><trkpt lat="44.1814177" lon="12.1213041"><ele>33.0</ele><time>2026-04-03T10:31:33.171Z</time></trkpt><trkpt lat="44.181531" lon="12.1213914"><ele>32.75</ele><time>2026-04-03T10:31:34.172Z</time></trkpt><trkpt lat="44.1816462" lon="12.1214795"><ele>32.5</ele><time>2026-04-03T10:31:35.172Z</time></trkpt><trkpt lat="44.1817623" lon="12.1215697"><ele>32.25</ele><time>2026-04-03T10:31:36.171Z</time></trkpt><trkpt lat="44.181878" lon="12.12166"><ele>32.0</ele><time>2026-04-03T10:31:37.172Z</time></trkpt><trkpt lat="44.1819969" lon="12.1217502"><ele>32.0</ele><time>2026-04-03T10:31:38.171Z</time></trkpt><trkpt lat="44.1821176" lon="12.1218412"><ele>32.0</ele><time>2026-04-03T10:31:39.171Z</time></trkpt><trkpt lat="44.1822398" lon="12.1219335"><ele>32.0</ele><time>2026-04-03T10:31:40.172Z</time></trkpt><trkpt lat="44.182362" lon="12.1220269"><ele>32.0</ele><time>2026-04-03T10:31:41.171Z</time></trkpt><trkpt lat="44.1824857" lon="12.122123"><ele>32.25</ele><time>2026-04-03T10:31:42.171Z</time></trkpt><trkpt lat="44.1826095" lon="12.12222"><ele>32.5</ele><time>2026-04-03T10:31:43.172Z</time></trkpt><trkpt lat="44.1827348" lon="12.1223196"><ele>32.75</ele><time>2026-04-03T10:31:44.171Z</time></trkpt><trkpt lat="44.182852" lon="12.1224114"><ele>33.0</ele><time>2026-04-03T10:31:45.172Z</time></trkpt><trkpt lat="44.1829695" lon="12.1225039"><ele>33.0</ele><time>2026-04-03T10:31:46.172Z</time></trkpt><trkpt lat="44.1830855" lon="12.1225949"><ele>33.0</ele><time>2026-04-03T10:31:47.172Z</time></trkpt><trkpt lat="44.183199" lon="12.1226854"><ele>33.0</ele><time>2026-04-03T10:31:48.172Z</time></trkpt><trkpt lat="44.183307" lon="12.1227732"><ele>33.0</ele><time>2026-04-03T10:31:49.172Z</time></trkpt><trkpt lat="44.1834201" lon="12.1228656"><ele>32.75</ele><time>2026-04-03T10:31:50.171Z</time></trkpt><trkpt lat="44.1835343" lon="12.1229609"><ele>32.5</ele><time>2026-04-03T10:31:51.171Z</time></trkpt><trkpt lat="44.183649" lon="12.1230571"><ele>32.25</ele><time>2026-04-03T10:31:52.172Z</time></trkpt><trkpt lat="44.1837637" lon="12.1231546"><ele>32.0</ele><time>2026-04-03T10:31:53.171Z</time></trkpt><trkpt lat="44.1838787" lon="12.1232536"><ele>32.0</ele><time>2026-04-03T10:31:54.171Z</time></trkpt><trkpt lat="44.1839953" lon="12.1233542"><ele>32.0</ele><time>2026-04-03T10:31:55.172Z</time></trkpt><trkpt lat="44.1841107" lon="12.1234556"><ele>32.0</ele><time>2026-04-03T10:31:56.171Z</time></trkpt><trkpt lat="44.1842265" lon="12.1235572"><ele>32.0</ele><time>2026-04-03T10:31:57.172Z</time></trkpt><trkpt lat="44.184341" lon="12.1236588"><ele>32.0</ele><time>2026-04-03T10:31:58.171Z</time></trkpt><trkpt lat="44.1844541" lon="12.1237593"><ele>32.0</ele><time>2026-04-03T10:31:59.172Z</time></trkpt><trkpt lat="44.1845679" lon="12.123861"><ele>32.0</ele><time>2026-04-03T10:32:00.171Z</time></trkpt><trkpt lat="44.1846793" lon="12.1239592"><ele>32.0</ele><time>2026-04-03T10:32:01.172Z</time></trkpt><trkpt lat="44.1847894" lon="12.1240578"><ele>32.5</ele><time>2026-04-03T10:32:02.172Z</time></trkpt><trkpt lat="44.1848996" lon="12.1241559"><ele>33.0</ele><time>2026-04-03T10:32:03.171Z</time></trkpt><trkpt lat="44.1850048" lon="12.1242488"><ele>33.5</ele><time>2026-04-03T10:32:04.172Z</time></trkpt><trkpt lat="44.1851082" lon="12.1243417"><ele>34.0</ele><time>2026-04-03T10:32:05.172Z</time></trkpt><trkpt lat="44.1852114" lon="12.1244337"><ele>34.0</ele><time>2026-04-03T10:32:06.172Z</time></trkpt><trkpt lat="44.1853076" lon="12.1245194"><ele>34.0</ele><time>2026-04-03T10:32:07.171Z</time></trkpt><trkpt lat="44.1854123" lon="12.1246122"><ele>34.0</ele><time>2026-04-03T10:32:08.172Z</time></trkpt><trkpt lat="44.1855099" lon="12.1246979"><ele>34.0</ele><time>2026-04-03T10:32:09.171Z</time></trkpt><trkpt lat="44.1856122" lon="12.1247883"><ele>33.5</ele><time>2026-04-03T10:32:10.172Z</time></trkpt><trkpt lat="44.1857147" lon="12.1248787"><ele>33.0</ele><time>2026-04-03T10:32:11.171Z</time></trkpt><trkpt lat="44.1858117" lon="12.1249638"><ele>32.5</ele><time>2026-04-03T10:32:12.172Z</time></trkpt><trkpt lat="44.1859098" lon="12.1250497"><ele>32.0</ele><time>2026-04-03T10:32:13.171Z</time></trkpt><trkpt lat="44.1860084" lon="12.1251354"><ele>32.0</ele><time>2026-04-03T10:32:14.172Z</time></trkpt><trkpt lat="44.1861022" lon="12.1252175"><ele>32.0</ele><time>2026-04-03T10:32:15.172Z</time></trkpt><trkpt lat="44.1861901" lon="12.1252943"><ele>32.0</ele><time>2026-04-03T10:32:16.171Z</time></trkpt><trkpt lat="44.186267" lon="12.1253626"><ele>32.0</ele><time>2026-04-03T10:32:17.171Z</time></trkpt><trkpt lat="44.1863279" lon="12.125418"><ele>32.0</ele><time>2026-04-03T10:32:18.172Z</time></trkpt><trkpt lat="44.1863984" lon="12.1254849"><ele>32.0</ele><time>2026-04-03T10:32:20.172Z</time></trkpt><trkpt lat="44.186458" lon="12.1255432"><ele>32.0</ele><time>2026-04-03T10:32:23.172Z</time></trkpt><trkpt lat="44.1865131" lon="12.1256249"><ele>32.0</ele><time>2026-04-03T10:32:25.171Z</time></trkpt><trkpt lat="44.1865486" lon="12.1257627"><ele>32.0</ele><time>2026-04-03T10:32:27.171Z</time></trkpt><trkpt lat="44.1865441" lon="12.1259101"><ele>32.0</ele><time>2026-04-03T10:32:29.171Z</time></trkpt><trkpt lat="44.1865276" lon="12.1260486"><ele>32.166666666666664</ele><time>2026-04-03T10:32:31.172Z</time></trkpt><trkpt lat="44.1864993" lon="12.1261906"><ele>32.33333333333333</ele><time>2026-04-03T10:32:33.173Z</time></trkpt><trkpt lat="44.1864351" lon="12.1263324"><ele>32.5</ele><time>2026-04-03T10:32:35.171Z</time></trkpt><trkpt lat="44.1863888" lon="12.1263954"><ele>32.666666666666664</ele><time>2026-04-03T10:32:36.172Z</time></trkpt><trkpt lat="44.1863347" lon="12.1264515"><ele>32.833333333333336</ele><time>2026-04-03T10:32:37.171Z</time></trkpt><trkpt lat="44.1862789" lon="12.1264978"><ele>33.0</ele><time>2026-04-03T10:32:38.172Z</time></trkpt><trkpt lat="44.1861766" lon="12.1265789"><ele>33.0</ele><time>2026-04-03T10:32:40.172Z</time></trkpt><trkpt lat="44.1861195" lon="12.1266256"><ele>33.0</ele><time>2026-04-03T10:32:42.171Z</time></trkpt><trkpt lat="44.1860609" lon="12.1266728"><ele>33.0</ele><time>2026-04-03T10:32:48.172Z</time></trkpt><trkpt lat="44.1860039" lon="12.1267186"><ele>33.0</ele><time>2026-04-03T10:32:50.171Z</time></trkpt><trkpt lat="44.1859335" lon="12.1267779"><ele>33.0</ele><time>2026-04-03T10:32:52.172Z</time></trkpt><trkpt lat="44.1858734" lon="12.1268343"><ele>33.0</ele><time>2026-04-03T10:32:55.171Z</time></trkpt><trkpt lat="44.1858066" lon="12.1269069"><ele>33.0</ele><time>2026-04-03T10:33:03.171Z</time></trkpt><trkpt lat="44.1857543" lon="12.1269827"><ele>33.0</ele><time>2026-04-03T10:33:05.171Z</time></trkpt><trkpt lat="44.185687" lon="12.1270879"><ele>33.0</ele><time>2026-04-03T10:33:07.173Z</time></trkpt><trkpt lat="44.1856078" lon="12.1272354"><ele>33.0</ele><time>2026-04-03T10:33:09.171Z</time></trkpt><trkpt lat="44.185565" lon="12.127331"><ele>33.0</ele><time>2026-04-03T10:33:10.173Z</time></trkpt><trkpt lat="44.1855199" lon="12.1274382"><ele>33.0</ele><time>2026-04-03T10:33:11.171Z</time></trkpt><trkpt lat="44.1854717" lon="12.1275574"><ele>32.8</ele><time>2026-04-03T10:33:12.172Z</time></trkpt><trkpt lat="44.1854262" lon="12.1276797"><ele>32.599999999999994</ele><time>2026-04-03T10:33:13.171Z</time></trkpt><trkpt lat="44.1853831" lon="12.1278084"><ele>32.400000000000006</ele><time>2026-04-03T10:33:14.171Z</time></trkpt><trkpt lat="44.1853399" lon="12.1279477"><ele>32.2</ele><time>2026-04-03T10:33:15.171Z</time></trkpt><trkpt lat="44.1852978" lon="12.128089"><ele>32.0</ele><time>2026-04-03T10:33:16.171Z</time></trkpt><trkpt lat="44.1852546" lon="12.1282343"><ele>31.75</ele><time>2026-04-03T10:33:17.172Z</time></trkpt><trkpt lat="44.185212" lon="12.1283797"><ele>31.5</ele><time>2026-04-03T10:33:18.171Z</time></trkpt><trkpt lat="44.185167" lon="12.1285294"><ele>31.25</ele><time>2026-04-03T10:33:19.172Z</time></trkpt><trkpt lat="44.1851218" lon="12.128676"><ele>31.0</ele><time>2026-04-03T10:33:20.173Z</time></trkpt><trkpt lat="44.1850783" lon="12.1288154"><ele>31.000000000000004</ele><time>2026-04-03T10:33:21.171Z</time></trkpt><trkpt lat="44.1850374" lon="12.1289453"><ele>31.0</ele><time>2026-04-03T10:33:22.172Z</time></trkpt><trkpt lat="44.1849986" lon="12.1290674"><ele>31.0</ele><time>2026-04-03T10:33:23.171Z</time></trkpt><trkpt lat="44.1849587" lon="12.129161"><ele>31.0</ele><time>2026-04-03T10:33:24.173Z</time></trkpt><trkpt lat="44.1849108" lon="12.1292367"><ele>31.000000000000004</ele><time>2026-04-03T10:33:25.171Z</time></trkpt><trkpt lat="44.1848697" lon="12.1293061"><ele>31.0</ele><time>2026-04-03T10:33:26.172Z</time></trkpt><trkpt lat="44.1848337" lon="12.1294764"><ele>31.000000000000004</ele><time>2026-04-03T10:33:28.172Z</time></trkpt><trkpt lat="44.1848271" lon="12.1295728"><ele>31.0</ele><time>2026-04-03T10:33:29.172Z</time></trkpt><trkpt lat="44.1848092" lon="12.1296806"><ele>31.0</ele><time>2026-04-03T10:33:30.172Z</time></trkpt><trkpt lat="44.1847796" lon="12.1297954"><ele>31.0</ele><time>2026-04-03T10:33:31.172Z</time></trkpt><trkpt lat="44.1847446" lon="12.1299171"><ele>31.000000000000004</ele><time>2026-04-03T10:33:32.172Z</time></trkpt><trkpt lat="44.1847047" lon="12.1300527"><ele>31.0</ele><time>2026-04-03T10:33:33.171Z</time></trkpt><trkpt lat="44.184664" lon="12.1301919"><ele>31.0</ele><time>2026-04-03T10:33:34.172Z</time></trkpt><trkpt lat="44.1846186" lon="12.1303437"><ele>31.0</ele><time>2026-04-03T10:33:35.171Z</time></trkpt><trkpt lat="44.1845714" lon="12.1305001"><ele>31.0</ele><time>2026-04-03T10:33:36.171Z</time></trkpt><trkpt lat="44.1845218" lon="12.1306593"><ele>31.0</ele><time>2026-04-03T10:33:37.171Z</time></trkpt><trkpt lat="44.1844742" lon="12.130814"><ele>31.0</ele><time>2026-04-03T10:33:38.172Z</time></trkpt><trkpt lat="44.1844252" lon="12.1309736"><ele>31.0</ele><time>2026-04-03T10:33:39.172Z</time></trkpt><trkpt lat="44.1843821" lon="12.1311168"><ele>31.0</ele><time>2026-04-03T10:33:40.171Z</time></trkpt><trkpt lat="44.1843407" lon="12.1312569"><ele>31.0</ele><time>2026-04-03T10:33:41.171Z</time></trkpt><trkpt lat="44.1843012" lon="12.131391"><ele>31.0</ele><time>2026-04-03T10:33:42.171Z</time></trkpt><trkpt lat="44.184263" lon="12.1315205"><ele>30.833333333333336</ele><time>2026-04-03T10:33:43.172Z</time></trkpt><trkpt lat="44.1842255" lon="12.1316474"><ele>30.666666666666668</ele><time>2026-04-03T10:33:44.171Z</time></trkpt><trkpt lat="44.1841886" lon="12.1317704"><ele>30.5</ele><time>2026-04-03T10:33:45.172Z</time></trkpt><trkpt lat="44.1841541" lon="12.1318852"><ele>30.333333333333336</ele><time>2026-04-03T10:33:46.171Z</time></trkpt><trkpt lat="44.1841231" lon="12.1319874"><ele>30.166666666666668</ele><time>2026-04-03T10:33:47.172Z</time></trkpt><trkpt lat="44.1840955" lon="12.1320791"><ele>30.0</ele><time>2026-04-03T10:33:48.173Z</time></trkpt><trkpt lat="44.1840693" lon="12.1321673"><ele>30.0</ele><time>2026-04-03T10:33:49.171Z</time></trkpt><trkpt lat="44.1840435" lon="12.1322553"><ele>30.0</ele><time>2026-04-03T10:33:50.172Z</time></trkpt><trkpt lat="44.1840163" lon="12.1323488"><ele>30.0</ele><time>2026-04-03T10:33:51.173Z</time></trkpt><trkpt lat="44.1839872" lon="12.1324478"><ele>30.0</ele><time>2026-04-03T10:33:52.171Z</time></trkpt><trkpt lat="44.1839565" lon="12.1325532"><ele>30.0</ele><time>2026-04-03T10:33:53.171Z</time></trkpt><trkpt lat="44.183925" lon="12.1326639"><ele>30.0</ele><time>2026-04-03T10:33:54.171Z</time></trkpt><trkpt lat="44.1838901" lon="12.1327857"><ele>30.0</ele><time>2026-04-03T10:33:55.171Z</time></trkpt><trkpt lat="44.1838554" lon="12.132906"><ele>30.0</ele><time>2026-04-03T10:33:56.172Z</time></trkpt><trkpt lat="44.1838179" lon="12.1330319"><ele>30.0</ele><time>2026-04-03T10:33:57.172Z</time></trkpt><trkpt lat="44.1837772" lon="12.1331617"><ele>30.0</ele><time>2026-04-03T10:33:58.172Z</time></trkpt><trkpt lat="44.183732" lon="12.1332913"><ele>30.0</ele><time>2026-04-03T10:33:59.172Z</time></trkpt><trkpt lat="44.183681" lon="12.1334313"><ele>30.0</ele><time>2026-04-03T10:34:00.171Z</time></trkpt><trkpt lat="44.183631" lon="12.133562"><ele>30.0</ele><time>2026-04-03T10:34:01.171Z</time></trkpt><trkpt lat="44.1835782" lon="12.1336964"><ele>30.0</ele><time>2026-04-03T10:34:02.171Z</time></trkpt><trkpt lat="44.1835249" lon="12.1338282"><ele>30.0</ele><time>2026-04-03T10:34:03.172Z</time></trkpt><trkpt lat="44.1834731" lon="12.1339545"><ele>30.0</ele><time>2026-04-03T10:34:04.171Z</time></trkpt><trkpt lat="44.1834227" lon="12.1340766"><ele>29.833333333333332</ele><time>2026-04-03T10:34:05.171Z</time></trkpt><trkpt lat="44.1833738" lon="12.1341958"><ele>29.666666666666664</ele><time>2026-04-03T10:34:06.173Z</time></trkpt><trkpt lat="44.1833271" lon="12.1343087"><ele>29.5</ele><time>2026-04-03T10:34:07.171Z</time></trkpt><trkpt lat="44.1832821" lon="12.1344184"><ele>29.333333333333332</ele><time>2026-04-03T10:34:08.172Z</time></trkpt><trkpt lat="44.1832434" lon="12.1345131"><ele>29.166666666666664</ele><time>2026-04-03T10:34:09.171Z</time></trkpt><trkpt lat="44.1832105" lon="12.1346033"><ele>29.0</ele><time>2026-04-03T10:34:10.172Z</time></trkpt><trkpt lat="44.183187" lon="12.134693"><ele>29.2</ele><time>2026-04-03T10:34:11.171Z</time></trkpt><trkpt lat="44.1831764" lon="12.1348586"><ele>29.4</ele><time>2026-04-03T10:34:13.171Z</time></trkpt><trkpt lat="44.1831573" lon="12.1350298"><ele>29.6</ele><time>2026-04-03T10:34:15.172Z</time></trkpt><trkpt lat="44.1831278" lon="12.1351206"><ele>29.8</ele><time>2026-04-03T10:34:16.171Z</time></trkpt><trkpt lat="44.1830797" lon="12.1351996"><ele>30.0</ele><time>2026-04-03T10:34:17.171Z</time></trkpt><trkpt lat="44.1830166" lon="12.135265"><ele>30.0</ele><time>2026-04-03T10:34:18.172Z</time></trkpt><trkpt lat="44.1829464" lon="12.135337"><ele>30.0</ele><time>2026-04-03T10:34:19.171Z</time></trkpt><trkpt lat="44.182882" lon="12.1354213"><ele>30.0</ele><time>2026-04-03T10:34:20.171Z</time></trkpt><trkpt lat="44.1828196" lon="12.1355253"><ele>30.0</ele><time>2026-04-03T10:34:21.172Z</time></trkpt><trkpt lat="44.1827568" lon="12.1356468"><ele>30.0</ele><time>2026-04-03T10:34:22.173Z</time></trkpt><trkpt lat="44.1826944" lon="12.1357804"><ele>29.75</ele><time>2026-04-03T10:34:23.172Z</time></trkpt><trkpt lat="44.1826302" lon="12.1359295"><ele>29.5</ele><time>2026-04-03T10:34:24.172Z</time></trkpt><trkpt lat="44.1825644" lon="12.1360908"><ele>29.25</ele><time>2026-04-03T10:34:25.171Z</time></trkpt><trkpt lat="44.1824962" lon="12.1362615"><ele>29.0</ele><time>2026-04-03T10:34:26.171Z</time></trkpt><trkpt lat="44.1824234" lon="12.1364448"><ele>29.0</ele><time>2026-04-03T10:34:27.172Z</time></trkpt><trkpt lat="44.1823545" lon="12.1366182"><ele>29.0</ele><time>2026-04-03T10:34:28.171Z</time></trkpt><trkpt lat="44.1822866" lon="12.1367881"><ele>29.0</ele><time>2026-04-03T10:34:29.172Z</time></trkpt><trkpt lat="44.1822185" lon="12.1369576"><ele>29.0</ele><time>2026-04-03T10:34:30.173Z</time></trkpt><trkpt lat="44.18215" lon="12.1371256"><ele>29.0</ele><time>2026-04-03T10:34:31.172Z</time></trkpt><trkpt lat="44.1820824" lon="12.1372909"><ele>29.0</ele><time>2026-04-03T10:34:32.171Z</time></trkpt><trkpt lat="44.1820149" lon="12.1374561"><ele>29.0</ele><time>2026-04-03T10:34:33.171Z</time></trkpt><trkpt lat="44.181948" lon="12.1376205"><ele>29.0</ele><time>2026-04-03T10:34:34.172Z</time></trkpt><trkpt lat="44.1818757" lon="12.1377975"><ele>28.75</ele><time>2026-04-03T10:34:35.171Z</time></trkpt><trkpt lat="44.1818064" lon="12.1379658"><ele>28.5</ele><time>2026-04-03T10:34:36.171Z</time></trkpt><trkpt lat="44.1817376" lon="12.1381317"><ele>28.25</ele><time>2026-04-03T10:34:37.171Z</time></trkpt><trkpt lat="44.1816681" lon="12.1383009"><ele>28.0</ele><time>2026-04-03T10:34:38.172Z</time></trkpt><trkpt lat="44.1816037" lon="12.1384698"><ele>28.0</ele><time>2026-04-03T10:34:39.173Z</time></trkpt><trkpt lat="44.1815523" lon="12.1386383"><ele>28.0</ele><time>2026-04-03T10:34:40.171Z</time></trkpt><trkpt lat="44.1815174" lon="12.1387938"><ele>28.0</ele><time>2026-04-03T10:34:41.171Z</time></trkpt><trkpt lat="44.1814931" lon="12.1389298"><ele>28.0</ele><time>2026-04-03T10:34:42.171Z</time></trkpt><trkpt lat="44.1814654" lon="12.1390675"><ele>27.799999999999997</ele><time>2026-04-03T10:34:43.171Z</time></trkpt><trkpt lat="44.1814338" lon="12.1391962"><ele>27.599999999999998</ele><time>2026-04-03T10:34:44.172Z</time></trkpt><trkpt lat="44.1814011" lon="12.1393313"><ele>27.400000000000002</ele><time>2026-04-03T10:34:45.171Z</time></trkpt><trkpt lat="44.1813692" lon="12.1394729"><ele>27.200000000000003</ele><time>2026-04-03T10:34:46.173Z</time></trkpt><trkpt lat="44.1813352" lon="12.1396221"><ele>27.0</ele><time>2026-04-03T10:34:47.171Z</time></trkpt><trkpt lat="44.1812854" lon="12.1397759"><ele>27.0</ele><time>2026-04-03T10:34:48.172Z</time></trkpt><trkpt lat="44.1812172" lon="12.139914"><ele>27.0</ele><time>2026-04-03T10:34:49.171Z</time></trkpt><trkpt lat="44.1811313" lon="12.1400475"><ele>27.0</ele><time>2026-04-03T10:34:50.171Z</time></trkpt><trkpt lat="44.1810362" lon="12.1401891"><ele>27.0</ele><time>2026-04-03T10:34:51.172Z</time></trkpt><trkpt lat="44.1809452" lon="12.1403333"><ele>27.0</ele><time>2026-04-03T10:34:52.171Z</time></trkpt><trkpt lat="44.1808515" lon="12.1404901"><ele>27.0</ele><time>2026-04-03T10:34:53.172Z</time></trkpt><trkpt lat="44.1807577" lon="12.1406528"><ele>27.0</ele><time>2026-04-03T10:34:54.171Z</time></trkpt><trkpt lat="44.1806603" lon="12.1408272"><ele>26.333333333333336</ele><time>2026-04-03T10:34:55.173Z</time></trkpt><trkpt lat="44.1805633" lon="12.1410094"><ele>25.666666666666668</ele><time>2026-04-03T10:34:56.171Z</time></trkpt><trkpt lat="44.1804689" lon="12.141199"><ele>25.0</ele><time>2026-04-03T10:34:57.172Z</time></trkpt><trkpt lat="44.1803754" lon="12.1413988"><ele>24.666666666666668</ele><time>2026-04-03T10:34:58.172Z</time></trkpt><trkpt lat="44.1802821" lon="12.1416117"><ele>24.333333333333336</ele><time>2026-04-03T10:34:59.171Z</time></trkpt><trkpt lat="44.1801927" lon="12.1418233"><ele>24.0</ele><time>2026-04-03T10:35:00.171Z</time></trkpt><trkpt lat="44.1801062" lon="12.1420323"><ele>24.0</ele><time>2026-04-03T10:35:01.171Z</time></trkpt><trkpt lat="44.1800149" lon="12.1422543"><ele>24.0</ele><time>2026-04-03T10:35:02.171Z</time></trkpt><trkpt lat="44.1799289" lon="12.1424643"><ele>24.0</ele><time>2026-04-03T10:35:03.172Z</time></trkpt><trkpt lat="44.1798377" lon="12.1426861"><ele>24.666666666666664</ele><time>2026-04-03T10:35:04.171Z</time></trkpt><trkpt lat="44.1797538" lon="12.1428901"><ele>25.333333333333332</ele><time>2026-04-03T10:35:05.171Z</time></trkpt><trkpt lat="44.1796679" lon="12.1430978"><ele>26.0</ele><time>2026-04-03T10:35:06.172Z</time></trkpt><trkpt lat="44.1795816" lon="12.1433057"><ele>26.0</ele><time>2026-04-03T10:35:07.172Z</time></trkpt><trkpt lat="44.1794996" lon="12.1435028"><ele>26.0</ele><time>2026-04-03T10:35:08.172Z</time></trkpt><trkpt lat="44.1794217" lon="12.1436903"><ele>26.0</ele><time>2026-04-03T10:35:09.171Z</time></trkpt><trkpt lat="44.1793421" lon="12.1438806"><ele>26.0</ele><time>2026-04-03T10:35:10.171Z</time></trkpt><trkpt lat="44.1792629" lon="12.1440694"><ele>26.0</ele><time>2026-04-03T10:35:11.172Z</time></trkpt><trkpt lat="44.1791863" lon="12.1442518"><ele>26.0</ele><time>2026-04-03T10:35:12.172Z</time></trkpt><trkpt lat="44.1791109" lon="12.144431"><ele>26.0</ele><time>2026-04-03T10:35:13.172Z</time></trkpt><trkpt lat="44.1790381" lon="12.144605"><ele>26.0</ele><time>2026-04-03T10:35:14.172Z</time></trkpt><trkpt lat="44.1789641" lon="12.1447828"><ele>26.0</ele><time>2026-04-03T10:35:15.171Z</time></trkpt><trkpt lat="44.1788953" lon="12.1449488"><ele>26.0</ele><time>2026-04-03T10:35:16.172Z</time></trkpt><trkpt lat="44.1788297" lon="12.1451075"><ele>25.5</ele><time>2026-04-03T10:35:17.172Z</time></trkpt><trkpt lat="44.1787681" lon="12.1452559"><ele>25.0</ele><time>2026-04-03T10:35:18.172Z</time></trkpt><trkpt lat="44.1787061" lon="12.1454049"><ele>24.5</ele><time>2026-04-03T10:35:19.172Z</time></trkpt><trkpt lat="44.1786454" lon="12.1455513"><ele>24.0</ele><time>2026-04-03T10:35:20.171Z</time></trkpt><trkpt lat="44.178588" lon="12.145689"><ele>24.5</ele><time>2026-04-03T10:35:21.171Z</time></trkpt><trkpt lat="44.1785283" lon="12.1458322"><ele>25.0</ele><time>2026-04-03T10:35:22.171Z</time></trkpt><trkpt lat="44.1784671" lon="12.1459796"><ele>25.5</ele><time>2026-04-03T10:35:23.171Z</time></trkpt><trkpt lat="44.1784046" lon="12.1461299"><ele>26.0</ele><time>2026-04-03T10:35:24.171Z</time></trkpt><trkpt lat="44.1783434" lon="12.1462764"><ele>26.0</ele><time>2026-04-03T10:35:25.171Z</time></trkpt><trkpt lat="44.178279" lon="12.1464283"><ele>26.0</ele><time>2026-04-03T10:35:26.172Z</time></trkpt><trkpt lat="44.178215" lon="12.1465798"><ele>26.0</ele><time>2026-04-03T10:35:27.172Z</time></trkpt><trkpt lat="44.1781473" lon="12.1467416"><ele>26.0</ele><time>2026-04-03T10:35:28.172Z</time></trkpt><trkpt lat="44.1780797" lon="12.1469031"><ele>26.0</ele><time>2026-04-03T10:35:29.172Z</time></trkpt><trkpt lat="44.1780121" lon="12.1470625"><ele>26.0</ele><time>2026-04-03T10:35:30.171Z</time></trkpt><trkpt lat="44.1779394" lon="12.1472332"><ele>26.0</ele><time>2026-04-03T10:35:31.172Z</time></trkpt><trkpt lat="44.1778717" lon="12.1473951"><ele>26.0</ele><time>2026-04-03T10:35:32.171Z</time></trkpt><trkpt lat="44.1778036" lon="12.1475593"><ele>26.5</ele><time>2026-04-03T10:35:33.171Z</time></trkpt><trkpt lat="44.1777357" lon="12.1477244"><ele>27.0</ele><time>2026-04-03T10:35:34.172Z</time></trkpt><trkpt lat="44.1776724" lon="12.1478771"><ele>27.5</ele><time>2026-04-03T10:35:35.171Z</time></trkpt><trkpt lat="44.1776134" lon="12.1480186"><ele>28.0</ele><time>2026-04-03T10:35:36.171Z</time></trkpt><trkpt lat="44.1775621" lon="12.1481411"><ele>27.799999999999997</ele><time>2026-04-03T10:35:37.172Z</time></trkpt><trkpt lat="44.1775201" lon="12.148241"><ele>27.599999999999998</ele><time>2026-04-03T10:35:38.17Z</time></trkpt><trkpt lat="44.1774678" lon="12.1483662"><ele>27.400000000000002</ele><time>2026-04-03T10:35:40.171Z</time></trkpt><trkpt lat="44.1774322" lon="12.1484513"><ele>27.200000000000003</ele><time>2026-04-03T10:35:42.17Z</time></trkpt><trkpt lat="44.1773869" lon="12.1485595"><ele>27.0</ele><time>2026-04-03T10:35:44.171Z</time></trkpt><trkpt lat="44.177324" lon="12.1487043"><ele>26.833333333333332</ele><time>2026-04-03T10:35:46.17Z</time></trkpt><trkpt lat="44.1772847" lon="12.148794"><ele>26.666666666666664</ele><time>2026-04-03T10:35:47.17Z</time></trkpt><trkpt lat="44.1772446" lon="12.1488864"><ele>26.5</ele><time>2026-04-03T10:35:48.171Z</time></trkpt><trkpt lat="44.1771997" lon="12.1489921"><ele>26.333333333333332</ele><time>2026-04-03T10:35:49.171Z</time></trkpt><trkpt lat="44.1771527" lon="12.1491045"><ele>26.166666666666664</ele><time>2026-04-03T10:35:50.17Z</time></trkpt><trkpt lat="44.1771028" lon="12.1492255"><ele>26.0</ele><time>2026-04-03T10:35:51.171Z</time></trkpt><trkpt lat="44.1770539" lon="12.1493454"><ele>26.0</ele><time>2026-04-03T10:35:52.171Z</time></trkpt><trkpt lat="44.1770058" lon="12.1494641"><ele>26.0</ele><time>2026-04-03T10:35:53.17Z</time></trkpt><trkpt lat="44.176959" lon="12.1495802"><ele>26.0</ele><time>2026-04-03T10:35:54.171Z</time></trkpt><trkpt lat="44.1769086" lon="12.1497039"><ele>26.0</ele><time>2026-04-03T10:35:55.17Z</time></trkpt><trkpt lat="44.1768592" lon="12.1498246"><ele>26.0</ele><time>2026-04-03T10:35:56.171Z</time></trkpt><trkpt lat="44.1768053" lon="12.1499551"><ele>26.0</ele><time>2026-04-03T10:35:57.17Z</time></trkpt><trkpt lat="44.1767493" lon="12.1500904"><ele>26.0</ele><time>2026-04-03T10:35:58.171Z</time></trkpt><trkpt lat="44.1766887" lon="12.1502372"><ele>26.0</ele><time>2026-04-03T10:35:59.17Z</time></trkpt><trkpt lat="44.1766246" lon="12.1503927"><ele>26.0</ele><time>2026-04-03T10:36:00.172Z</time></trkpt><trkpt lat="44.1765624" lon="12.1505427"><ele>26.0</ele><time>2026-04-03T10:36:01.17Z</time></trkpt><trkpt lat="44.1764975" lon="12.1506966"><ele>26.0</ele><time>2026-04-03T10:36:02.17Z</time></trkpt><trkpt lat="44.1764346" lon="12.1508445"><ele>26.0</ele><time>2026-04-03T10:36:03.171Z</time></trkpt><trkpt lat="44.1763708" lon="12.1509964"><ele>26.0</ele><time>2026-04-03T10:36:04.17Z</time></trkpt><trkpt lat="44.1763079" lon="12.151146"><ele>25.75</ele><time>2026-04-03T10:36:05.171Z</time></trkpt><trkpt lat="44.1762413" lon="12.1513049"><ele>25.5</ele><time>2026-04-03T10:36:06.17Z</time></trkpt><trkpt lat="44.1761742" lon="12.1514662"><ele>25.25</ele><time>2026-04-03T10:36:07.171Z</time></trkpt><trkpt lat="44.1761029" lon="12.1516383"><ele>25.0</ele><time>2026-04-03T10:36:08.17Z</time></trkpt><trkpt lat="44.1760346" lon="12.1518028"><ele>25.0</ele><time>2026-04-03T10:36:09.171Z</time></trkpt><trkpt lat="44.1759612" lon="12.1519799"><ele>25.0</ele><time>2026-04-03T10:36:10.171Z</time></trkpt><trkpt lat="44.1758859" lon="12.1521609"><ele>25.0</ele><time>2026-04-03T10:36:11.171Z</time></trkpt><trkpt lat="44.1758124" lon="12.1523375"><ele>25.0</ele><time>2026-04-03T10:36:12.17Z</time></trkpt><trkpt lat="44.1757353" lon="12.1525219"><ele>25.0</ele><time>2026-04-03T10:36:13.172Z</time></trkpt><trkpt lat="44.1756557" lon="12.152713"><ele>25.0</ele><time>2026-04-03T10:36:14.171Z</time></trkpt><trkpt lat="44.1755747" lon="12.1529064"><ele>25.0</ele><time>2026-04-03T10:36:15.17Z</time></trkpt><trkpt lat="44.1754932" lon="12.1531015"><ele>25.333333333333336</ele><time>2026-04-03T10:36:16.171Z</time></trkpt><trkpt lat="44.1754136" lon="12.153292"><ele>25.666666666666664</ele><time>2026-04-03T10:36:17.17Z</time></trkpt><trkpt lat="44.1753337" lon="12.1534838"><ele>26.0</ele><time>2026-04-03T10:36:18.17Z</time></trkpt><trkpt lat="44.1752539" lon="12.1536746"><ele>26.0</ele><time>2026-04-03T10:36:19.172Z</time></trkpt><trkpt lat="44.1751782" lon="12.1538561"><ele>26.0</ele><time>2026-04-03T10:36:20.172Z</time></trkpt><trkpt lat="44.1751037" lon="12.154035"><ele>26.0</ele><time>2026-04-03T10:36:21.172Z</time></trkpt><trkpt lat="44.1750304" lon="12.154211"><ele>26.0</ele><time>2026-04-03T10:36:22.17Z</time></trkpt><trkpt lat="44.1749573" lon="12.1543865"><ele>26.0</ele><time>2026-04-03T10:36:23.17Z</time></trkpt><trkpt lat="44.1748841" lon="12.1545624"><ele>26.0</ele><time>2026-04-03T10:36:24.171Z</time></trkpt><trkpt lat="44.1748108" lon="12.1547383"><ele>26.0</ele><time>2026-04-03T10:36:25.17Z</time></trkpt><trkpt lat="44.1747363" lon="12.1549182"><ele>26.0</ele><time>2026-04-03T10:36:26.171Z</time></trkpt><trkpt lat="44.1746594" lon="12.1551036"><ele>26.0</ele><time>2026-04-03T10:36:27.172Z</time></trkpt><trkpt lat="44.1745837" lon="12.1552853"><ele>26.0</ele><time>2026-04-03T10:36:28.17Z</time></trkpt><trkpt lat="44.1745083" lon="12.1554644"><ele>26.0</ele><time>2026-04-03T10:36:29.17Z</time></trkpt><trkpt lat="44.1744295" lon="12.1556503"><ele>26.0</ele><time>2026-04-03T10:36:30.171Z</time></trkpt><trkpt lat="44.1743546" lon="12.1558282"><ele>26.0</ele><time>2026-04-03T10:36:31.171Z</time></trkpt><trkpt lat="44.1742753" lon="12.1560177"><ele>26.0</ele><time>2026-04-03T10:36:32.17Z</time></trkpt><trkpt lat="44.1742031" lon="12.1561909"><ele>26.0</ele><time>2026-04-03T10:36:33.172Z</time></trkpt><trkpt lat="44.1741314" lon="12.1563618"><ele>26.0</ele><time>2026-04-03T10:36:34.17Z</time></trkpt><trkpt lat="44.1740596" lon="12.1565351"><ele>26.0</ele><time>2026-04-03T10:36:35.17Z</time></trkpt><trkpt lat="44.1739918" lon="12.1566984"><ele>26.0</ele><time>2026-04-03T10:36:36.171Z</time></trkpt><trkpt lat="44.1739233" lon="12.1568637"><ele>26.0</ele><time>2026-04-03T10:36:37.171Z</time></trkpt><trkpt lat="44.1738562" lon="12.1570259"><ele>25.5</ele><time>2026-04-03T10:36:38.171Z</time></trkpt><trkpt lat="44.1737876" lon="12.1571909"><ele>25.0</ele><time>2026-04-03T10:36:39.171Z</time></trkpt><trkpt lat="44.1737162" lon="12.1573639"><ele>24.5</ele><time>2026-04-03T10:36:40.17Z</time></trkpt><trkpt lat="44.1736464" lon="12.1575335"><ele>24.0</ele><time>2026-04-03T10:36:41.17Z</time></trkpt><trkpt lat="44.1735761" lon="12.1577033"><ele>24.0</ele><time>2026-04-03T10:36:42.17Z</time></trkpt><trkpt lat="44.1735061" lon="12.1578712"><ele>24.0</ele><time>2026-04-03T10:36:43.17Z</time></trkpt><trkpt lat="44.1734367" lon="12.1580378"><ele>24.0</ele><time>2026-04-03T10:36:44.171Z</time></trkpt><trkpt lat="44.1733722" lon="12.1581926"><ele>24.0</ele><time>2026-04-03T10:36:45.17Z</time></trkpt><trkpt lat="44.173306" lon="12.1583512"><ele>24.75</ele><time>2026-04-03T10:36:46.17Z</time></trkpt><trkpt lat="44.1732412" lon="12.158506"><ele>25.5</ele><time>2026-04-03T10:36:47.171Z</time></trkpt><trkpt lat="44.1731767" lon="12.1586603"><ele>26.25</ele><time>2026-04-03T10:36:48.17Z</time></trkpt><trkpt lat="44.1731173" lon="12.1588036"><ele>27.0</ele><time>2026-04-03T10:36:49.171Z</time></trkpt><trkpt lat="44.1730583" lon="12.1589471"><ele>27.25</ele><time>2026-04-03T10:36:50.17Z</time></trkpt><trkpt lat="44.1729963" lon="12.1590974"><ele>27.5</ele><time>2026-04-03T10:36:51.171Z</time></trkpt><trkpt lat="44.1729387" lon="12.1592392"><ele>27.75</ele><time>2026-04-03T10:36:52.17Z</time></trkpt><trkpt lat="44.1728797" lon="12.159385"><ele>28.0</ele><time>2026-04-03T10:36:53.172Z</time></trkpt><trkpt lat="44.1728195" lon="12.1595362"><ele>28.0</ele><time>2026-04-03T10:36:54.17Z</time></trkpt><trkpt lat="44.1727612" lon="12.1596863"><ele>28.0</ele><time>2026-04-03T10:36:55.171Z</time></trkpt><trkpt lat="44.1727033" lon="12.1598377"><ele>28.0</ele><time>2026-04-03T10:36:56.17Z</time></trkpt><trkpt lat="44.1726485" lon="12.1599838"><ele>28.0</ele><time>2026-04-03T10:36:57.171Z</time></trkpt><trkpt lat="44.1725993" lon="12.1601188"><ele>28.0</ele><time>2026-04-03T10:36:58.17Z</time></trkpt><trkpt lat="44.172553" lon="12.1602482"><ele>27.999999999999996</ele><time>2026-04-03T10:36:59.171Z</time></trkpt><trkpt lat="44.1725158" lon="12.1603517"><ele>27.999999999999996</ele><time>2026-04-03T10:37:00.17Z</time></trkpt><trkpt lat="44.1724843" lon="12.1604377"><ele>28.0</ele><time>2026-04-03T10:37:01.171Z</time></trkpt><trkpt lat="44.1724238" lon="12.1605784"><ele>28.0</ele><time>2026-04-03T10:37:03.171Z</time></trkpt><trkpt lat="44.1723416" lon="12.1607128"><ele>28.0</ele><time>2026-04-03T10:37:05.171Z</time></trkpt><trkpt lat="44.1722866" lon="12.1607787"><ele>28.0</ele><time>2026-04-03T10:37:06.171Z</time></trkpt><trkpt lat="44.1722249" lon="12.1608438"><ele>28.0</ele><time>2026-04-03T10:37:07.172Z</time></trkpt><trkpt lat="44.1721703" lon="12.1609119"><ele>28.0</ele><time>2026-04-03T10:37:08.171Z</time></trkpt><trkpt lat="44.1721332" lon="12.1609932"><ele>28.0</ele><time>2026-04-03T10:37:09.17Z</time></trkpt><trkpt lat="44.1721173" lon="12.1610903"><ele>28.0</ele><time>2026-04-03T10:37:10.171Z</time></trkpt><trkpt lat="44.1721262" lon="12.1611839"><ele>28.0</ele><time>2026-04-03T10:37:11.17Z</time></trkpt><trkpt lat="44.1721616" lon="12.1612767"><ele>28.000000000000004</ele><time>2026-04-03T10:37:12.171Z</time></trkpt><trkpt lat="44.1722152" lon="12.1613424"><ele>28.0</ele><time>2026-04-03T10:37:13.17Z</time></trkpt><trkpt lat="44.1722868" lon="12.1613801"><ele>28.0</ele><time>2026-04-03T10:37:14.17Z</time></trkpt><trkpt lat="44.1723711" lon="12.1613885"><ele>28.0</ele><time>2026-04-03T10:37:15.171Z</time></trkpt><trkpt lat="44.1724579" lon="12.1613796"><ele>28.000000000000004</ele><time>2026-04-03T10:37:16.17Z</time></trkpt><trkpt lat="44.1725565" lon="12.1613746"><ele>28.0</ele><time>2026-04-03T10:37:17.171Z</time></trkpt><trkpt lat="44.1726583" lon="12.1613887"><ele>27.25</ele><time>2026-04-03T10:37:18.171Z</time></trkpt><trkpt lat="44.1727684" lon="12.1614245"><ele>26.5</ele><time>2026-04-03T10:37:19.17Z</time></trkpt><trkpt lat="44.1728836" lon="12.1614721"><ele>25.75</ele><time>2026-04-03T10:37:20.171Z</time></trkpt><trkpt lat="44.1730037" lon="12.1615243"><ele>25.0</ele><time>2026-04-03T10:37:21.171Z</time></trkpt><trkpt lat="44.1731304" lon="12.1615796"><ele>25.0</ele><time>2026-04-03T10:37:22.17Z</time></trkpt><trkpt lat="44.1732685" lon="12.1616414"><ele>25.0</ele><time>2026-04-03T10:37:23.171Z</time></trkpt><trkpt lat="44.1734017" lon="12.1617013"><ele>25.0</ele><time>2026-04-03T10:37:24.17Z</time></trkpt><trkpt lat="44.1735447" lon="12.161767"><ele>25.0</ele><time>2026-04-03T10:37:25.17Z</time></trkpt><trkpt lat="44.1736864" lon="12.1618333"><ele>25.0</ele><time>2026-04-03T10:37:26.17Z</time></trkpt><trkpt lat="44.1738307" lon="12.1619018"><ele>25.0</ele><time>2026-04-03T10:37:27.172Z</time></trkpt><trkpt lat="44.1739782" lon="12.1619621"><ele>25.0</ele><time>2026-04-03T10:37:28.17Z</time></trkpt><trkpt lat="44.174127" lon="12.1620221"><ele>24.666666666666668</ele><time>2026-04-03T10:37:29.17Z</time></trkpt><trkpt lat="44.1742756" lon="12.1620836"><ele>24.333333333333336</ele><time>2026-04-03T10:37:30.171Z</time></trkpt><trkpt lat="44.1744327" lon="12.1621514"><ele>24.0</ele><time>2026-04-03T10:37:31.17Z</time></trkpt><trkpt lat="44.1745797" lon="12.1622159"><ele>24.0</ele><time>2026-04-03T10:37:32.171Z</time></trkpt><trkpt lat="44.1747287" lon="12.1622823"><ele>24.0</ele><time>2026-04-03T10:37:33.171Z</time></trkpt><trkpt lat="44.1748805" lon="12.1623506"><ele>24.0</ele><time>2026-04-03T10:37:34.171Z</time></trkpt><trkpt lat="44.1750334" lon="12.1624197"><ele>24.666666666666664</ele><time>2026-04-03T10:37:35.17Z</time></trkpt><trkpt lat="44.1751838" lon="12.1624891"><ele>25.333333333333332</ele><time>2026-04-03T10:37:36.17Z</time></trkpt><trkpt lat="44.1753384" lon="12.1625604"><ele>26.0</ele><time>2026-04-03T10:37:37.171Z</time></trkpt><trkpt lat="44.1754878" lon="12.1626299"><ele>26.0</ele><time>2026-04-03T10:37:38.17Z</time></trkpt><trkpt lat="44.175641" lon="12.1627023"><ele>26.0</ele><time>2026-04-03T10:37:39.171Z</time></trkpt><trkpt lat="44.1757946" lon="12.1627762"><ele>26.0</ele><time>2026-04-03T10:37:40.172Z</time></trkpt><trkpt lat="44.1759435" lon="12.16285"><ele>26.333333333333332</ele><time>2026-04-03T10:37:41.171Z</time></trkpt><trkpt lat="44.1760962" lon="12.1629271"><ele>26.666666666666664</ele><time>2026-04-03T10:37:42.171Z</time></trkpt><trkpt lat="44.176241" lon="12.1630021"><ele>27.0</ele><time>2026-04-03T10:37:43.17Z</time></trkpt><trkpt lat="44.1763924" lon="12.1630812"><ele>27.0</ele><time>2026-04-03T10:37:44.171Z</time></trkpt><trkpt lat="44.1765385" lon="12.1631582"><ele>27.0</ele><time>2026-04-03T10:37:45.17Z</time></trkpt><trkpt lat="44.1766831" lon="12.1632355"><ele>27.0</ele><time>2026-04-03T10:37:46.171Z</time></trkpt><trkpt lat="44.1768331" lon="12.1633152"><ele>27.333333333333336</ele><time>2026-04-03T10:37:47.171Z</time></trkpt><trkpt lat="44.1769736" lon="12.1633892"><ele>27.666666666666668</ele><time>2026-04-03T10:37:48.17Z</time></trkpt><trkpt lat="44.1771219" lon="12.1634671"><ele>28.0</ele><time>2026-04-03T10:37:49.171Z</time></trkpt><trkpt lat="44.1772669" lon="12.1635437"><ele>27.0</ele><time>2026-04-03T10:37:50.171Z</time></trkpt><trkpt lat="44.1774085" lon="12.1636183"><ele>26.0</ele><time>2026-04-03T10:37:51.17Z</time></trkpt><trkpt lat="44.1775591" lon="12.163698"><ele>25.0</ele><time>2026-04-03T10:37:52.171Z</time></trkpt><trkpt lat="44.1777069" lon="12.1637712"><ele>25.0</ele><time>2026-04-03T10:37:53.17Z</time></trkpt><trkpt lat="44.1778574" lon="12.1638359"><ele>25.0</ele><time>2026-04-03T10:37:54.17Z</time></trkpt><trkpt lat="44.1780148" lon="12.1638886"><ele>25.0</ele><time>2026-04-03T10:37:55.171Z</time></trkpt><trkpt lat="44.1781697" lon="12.1639265"><ele>24.666666666666668</ele><time>2026-04-03T10:37:56.17Z</time></trkpt><trkpt lat="44.1783258" lon="12.163956"><ele>24.333333333333336</ele><time>2026-04-03T10:37:57.171Z</time></trkpt><trkpt lat="44.1784862" lon="12.1639811"><ele>24.0</ele><time>2026-04-03T10:37:58.17Z</time></trkpt><trkpt lat="44.1786454" lon="12.1640038"><ele>24.0</ele><time>2026-04-03T10:37:59.171Z</time></trkpt><trkpt lat="44.1788089" lon="12.1640255"><ele>24.0</ele><time>2026-04-03T10:38:00.171Z</time></trkpt><trkpt lat="44.1789736" lon="12.1640476"><ele>24.0</ele><time>2026-04-03T10:38:01.17Z</time></trkpt><trkpt lat="44.179141" lon="12.1640701"><ele>24.666666666666664</ele><time>2026-04-03T10:38:02.171Z</time></trkpt><trkpt lat="44.1793113" lon="12.1640922"><ele>25.333333333333332</ele><time>2026-04-03T10:38:03.171Z</time></trkpt><trkpt lat="44.1794832" lon="12.1641134"><ele>26.0</ele><time>2026-04-03T10:38:04.171Z</time></trkpt><trkpt lat="44.1796582" lon="12.1641363"><ele>26.0</ele><time>2026-04-03T10:38:05.17Z</time></trkpt><trkpt lat="44.1798292" lon="12.1641623"><ele>26.0</ele><time>2026-04-03T10:38:06.172Z</time></trkpt><trkpt lat="44.1799994" lon="12.1641956"><ele>26.0</ele><time>2026-04-03T10:38:07.17Z</time></trkpt><trkpt lat="44.1801659" lon="12.1642469"><ele>25.666666666666664</ele><time>2026-04-03T10:38:08.171Z</time></trkpt><trkpt lat="44.1803312" lon="12.1643183"><ele>25.333333333333336</ele><time>2026-04-03T10:38:09.171Z</time></trkpt><trkpt lat="44.1804871" lon="12.1644068"><ele>25.0</ele><time>2026-04-03T10:38:10.17Z</time></trkpt><trkpt lat="44.180642" lon="12.1645194"><ele>24.666666666666668</ele><time>2026-04-03T10:38:11.171Z</time></trkpt><trkpt lat="44.1807864" lon="12.1646507"><ele>24.333333333333336</ele><time>2026-04-03T10:38:12.171Z</time></trkpt><trkpt lat="44.1809169" lon="12.1647958"><ele>24.0</ele><time>2026-04-03T10:38:13.17Z</time></trkpt><trkpt lat="44.1810455" lon="12.1649671"><ele>24.0</ele><time>2026-04-03T10:38:14.17Z</time></trkpt><trkpt lat="44.1811606" lon="12.165151"><ele>24.0</ele><time>2026-04-03T10:38:15.17Z</time></trkpt><trkpt lat="44.1812735" lon="12.1653477"><ele>24.0</ele><time>2026-04-03T10:38:16.17Z</time></trkpt><trkpt lat="44.1813795" lon="12.1655393"><ele>23.666666666666668</ele><time>2026-04-03T10:38:17.171Z</time></trkpt><trkpt lat="44.1814892" lon="12.1657371"><ele>23.333333333333336</ele><time>2026-04-03T10:38:18.17Z</time></trkpt><trkpt lat="44.1816019" lon="12.1659417"><ele>23.0</ele><time>2026-04-03T10:38:19.17Z</time></trkpt><trkpt lat="44.1817097" lon="12.1661382"><ele>23.0</ele><time>2026-04-03T10:38:20.171Z</time></trkpt><trkpt lat="44.1818213" lon="12.1663397"><ele>23.0</ele><time>2026-04-03T10:38:21.17Z</time></trkpt><trkpt lat="44.1819308" lon="12.1665358"><ele>23.0</ele><time>2026-04-03T10:38:22.17Z</time></trkpt><trkpt lat="44.18204" lon="12.1667294"><ele>23.333333333333336</ele><time>2026-04-03T10:38:23.171Z</time></trkpt><trkpt lat="44.1821579" lon="12.1669369"><ele>23.666666666666668</ele><time>2026-04-03T10:38:24.171Z</time></trkpt><trkpt lat="44.1822722" lon="12.1671256"><ele>24.0</ele><time>2026-04-03T10:38:25.17Z</time></trkpt><trkpt lat="44.1823991" lon="12.1673054"><ele>23.666666666666668</ele><time>2026-04-03T10:38:26.171Z</time></trkpt><trkpt lat="44.1825377" lon="12.1674748"><ele>23.333333333333336</ele><time>2026-04-03T10:38:27.17Z</time></trkpt><trkpt lat="44.1826721" lon="12.1676329"><ele>23.0</ele><time>2026-04-03T10:38:28.171Z</time></trkpt><trkpt lat="44.1828054" lon="12.1677934"><ele>23.0</ele><time>2026-04-03T10:38:29.171Z</time></trkpt><trkpt lat="44.1829403" lon="12.1679651"><ele>23.0</ele><time>2026-04-03T10:38:30.171Z</time></trkpt><trkpt lat="44.1830719" lon="12.16814"><ele>23.0</ele><time>2026-04-03T10:38:31.17Z</time></trkpt><trkpt lat="44.1832076" lon="12.1683224"><ele>22.666666666666668</ele><time>2026-04-03T10:38:32.17Z</time></trkpt><trkpt lat="44.1833348" lon="12.1684938"><ele>22.333333333333332</ele><time>2026-04-03T10:38:33.171Z</time></trkpt><trkpt lat="44.1834594" lon="12.1686611"><ele>22.0</ele><time>2026-04-03T10:38:34.171Z</time></trkpt><trkpt lat="44.1835897" lon="12.1688369"><ele>22.0</ele><time>2026-04-03T10:38:35.17Z</time></trkpt><trkpt lat="44.1837082" lon="12.168997"><ele>22.0</ele><time>2026-04-03T10:38:36.171Z</time></trkpt><trkpt lat="44.1838176" lon="12.1691462"><ele>22.0</ele><time>2026-04-03T10:38:37.17Z</time></trkpt><trkpt lat="44.183917" lon="12.1692826"><ele>22.0</ele><time>2026-04-03T10:38:38.171Z</time></trkpt><trkpt lat="44.1840028" lon="12.1694012"><ele>22.0</ele><time>2026-04-03T10:38:39.171Z</time></trkpt><trkpt lat="44.1840813" lon="12.1695101"><ele>22.0</ele><time>2026-04-03T10:38:40.171Z</time></trkpt><trkpt lat="44.1841485" lon="12.1696036"><ele>22.0</ele><time>2026-04-03T10:38:41.171Z</time></trkpt><trkpt lat="44.1842104" lon="12.1696896"><ele>22.0</ele><time>2026-04-03T10:38:42.17Z</time></trkpt><trkpt lat="44.1842783" lon="12.1697812"><ele>22.0</ele><time>2026-04-03T10:38:43.171Z</time></trkpt><trkpt lat="44.1843486" lon="12.1698758"><ele>22.0</ele><time>2026-04-03T10:38:44.17Z</time></trkpt><trkpt lat="44.1844254" lon="12.169979"><ele>22.0</ele><time>2026-04-03T10:38:45.171Z</time></trkpt><trkpt lat="44.1845087" lon="12.1700907"><ele>22.0</ele><time>2026-04-03T10:38:46.17Z</time></trkpt><trkpt lat="44.1845966" lon="12.1702088"><ele>22.0</ele><time>2026-04-03T10:38:47.171Z</time></trkpt><trkpt lat="44.1846911" lon="12.1703359"><ele>22.0</ele><time>2026-04-03T10:38:48.17Z</time></trkpt><trkpt lat="44.1847915" lon="12.1704708"><ele>22.0</ele><time>2026-04-03T10:38:49.171Z</time></trkpt><trkpt lat="44.1848969" lon="12.1706129"><ele>22.0</ele><time>2026-04-03T10:38:50.171Z</time></trkpt><trkpt lat="44.1850082" lon="12.1707625"><ele>22.0</ele><time>2026-04-03T10:38:51.171Z</time></trkpt><trkpt lat="44.1851198" lon="12.1709131"><ele>22.0</ele><time>2026-04-03T10:38:52.171Z</time></trkpt><trkpt lat="44.1852363" lon="12.1710705"><ele>22.0</ele><time>2026-04-03T10:38:53.17Z</time></trkpt><trkpt lat="44.1853572" lon="12.1712339"><ele>22.0</ele><time>2026-04-03T10:38:54.17Z</time></trkpt><trkpt lat="44.1854793" lon="12.1713995"><ele>21.666666666666664</ele><time>2026-04-03T10:38:55.171Z</time></trkpt><trkpt lat="44.1856101" lon="12.1715761"><ele>21.333333333333332</ele><time>2026-04-03T10:38:56.17Z</time></trkpt><trkpt lat="44.1857418" lon="12.171753"><ele>21.0</ele><time>2026-04-03T10:38:57.17Z</time></trkpt><trkpt lat="44.1858702" lon="12.1719255"><ele>21.0</ele><time>2026-04-03T10:38:58.171Z</time></trkpt><trkpt lat="44.1859995" lon="12.1720996"><ele>21.0</ele><time>2026-04-03T10:38:59.172Z</time></trkpt><trkpt lat="44.1861293" lon="12.1722744"><ele>21.0</ele><time>2026-04-03T10:39:00.171Z</time></trkpt><trkpt lat="44.1862522" lon="12.1724405"><ele>21.333333333333332</ele><time>2026-04-03T10:39:01.171Z</time></trkpt><trkpt lat="44.1863759" lon="12.172608"><ele>21.666666666666664</ele><time>2026-04-03T10:39:02.172Z</time></trkpt><trkpt lat="44.1865035" lon="12.1727807"><ele>22.0</ele><time>2026-04-03T10:39:03.17Z</time></trkpt><trkpt lat="44.1866295" lon="12.1729498"><ele>22.0</ele><time>2026-04-03T10:39:04.17Z</time></trkpt><trkpt lat="44.1867542" lon="12.1731166"><ele>22.0</ele><time>2026-04-03T10:39:05.171Z</time></trkpt><trkpt lat="44.1868784" lon="12.1732829"><ele>22.0</ele><time>2026-04-03T10:39:06.17Z</time></trkpt><trkpt lat="44.1870053" lon="12.1734536"><ele>22.0</ele><time>2026-04-03T10:39:07.172Z</time></trkpt><trkpt lat="44.1871261" lon="12.1736175"><ele>22.0</ele><time>2026-04-03T10:39:08.172Z</time></trkpt><trkpt lat="44.1872478" lon="12.1737825"><ele>22.0</ele><time>2026-04-03T10:39:09.17Z</time></trkpt><trkpt lat="44.1873684" lon="12.1739462"><ele>22.0</ele><time>2026-04-03T10:39:10.17Z</time></trkpt><trkpt lat="44.1874866" lon="12.1741064"><ele>22.0</ele><time>2026-04-03T10:39:11.171Z</time></trkpt><trkpt lat="44.1876015" lon="12.1742639"><ele>22.0</ele><time>2026-04-03T10:39:12.17Z</time></trkpt><trkpt lat="44.18771" lon="12.1744125"><ele>22.0</ele><time>2026-04-03T10:39:13.17Z</time></trkpt><trkpt lat="44.1878129" lon="12.1745546"><ele>22.0</ele><time>2026-04-03T10:39:14.171Z</time></trkpt><trkpt lat="44.1879117" lon="12.1746893"><ele>22.0</ele><time>2026-04-03T10:39:15.171Z</time></trkpt><trkpt lat="44.1880028" lon="12.1748141"><ele>22.0</ele><time>2026-04-03T10:39:16.17Z</time></trkpt><trkpt lat="44.1880828" lon="12.1749218"><ele>22.0</ele><time>2026-04-03T10:39:17.17Z</time></trkpt><trkpt lat="44.1881527" lon="12.1750147"><ele>22.0</ele><time>2026-04-03T10:39:18.172Z</time></trkpt><trkpt lat="44.1882083" lon="12.1750912"><ele>22.0</ele><time>2026-04-03T10:39:19.172Z</time></trkpt><trkpt lat="44.1882372" lon="12.1752102"><ele>22.0</ele><time>2026-04-03T10:39:21.17Z</time></trkpt><trkpt lat="44.1881774" lon="12.1753236"><ele>22.0</ele><time>2026-04-03T10:39:23.17Z</time></trkpt><trkpt lat="44.1881304" lon="12.1753976"><ele>22.0</ele><time>2026-04-03T10:39:24.171Z</time></trkpt><trkpt lat="44.1880777" lon="12.1754853"><ele>22.0</ele><time>2026-04-03T10:39:25.171Z</time></trkpt><trkpt lat="44.1880177" lon="12.1755883"><ele>22.0</ele><time>2026-04-03T10:39:26.17Z</time></trkpt><trkpt lat="44.1879508" lon="12.1757054"><ele>22.0</ele><time>2026-04-03T10:39:27.17Z</time></trkpt><trkpt lat="44.1878768" lon="12.1758368"><ele>22.0</ele><time>2026-04-03T10:39:28.171Z</time></trkpt><trkpt lat="44.1877979" lon="12.1759764"><ele>22.0</ele><time>2026-04-03T10:39:29.17Z</time></trkpt><trkpt lat="44.187716" lon="12.1761201"><ele>22.0</ele><time>2026-04-03T10:39:30.171Z</time></trkpt><trkpt lat="44.1876253" lon="12.176279"><ele>22.0</ele><time>2026-04-03T10:39:31.17Z</time></trkpt><trkpt lat="44.1875373" lon="12.1764332"><ele>22.0</ele><time>2026-04-03T10:39:32.171Z</time></trkpt><trkpt lat="44.1874435" lon="12.176598"><ele>22.0</ele><time>2026-04-03T10:39:33.171Z</time></trkpt><trkpt lat="44.1873508" lon="12.1767603"><ele>22.0</ele><time>2026-04-03T10:39:34.171Z</time></trkpt><trkpt lat="44.1872534" lon="12.1769309"><ele>22.0</ele><time>2026-04-03T10:39:35.17Z</time></trkpt><trkpt lat="44.1871538" lon="12.177104"><ele>22.0</ele><time>2026-04-03T10:39:36.171Z</time></trkpt><trkpt lat="44.1870587" lon="12.1772706"><ele>22.0</ele><time>2026-04-03T10:39:37.17Z</time></trkpt><trkpt lat="44.1869615" lon="12.1774413"><ele>22.0</ele><time>2026-04-03T10:39:38.17Z</time></trkpt><trkpt lat="44.1868593" lon="12.1776222"><ele>22.0</ele><time>2026-04-03T10:39:39.171Z</time></trkpt><trkpt lat="44.1867647" lon="12.1777902"><ele>22.0</ele><time>2026-04-03T10:39:40.17Z</time></trkpt><trkpt lat="44.1866702" lon="12.1779574"><ele>22.0</ele><time>2026-04-03T10:39:41.171Z</time></trkpt><trkpt lat="44.1865747" lon="12.1781232"><ele>22.5</ele><time>2026-04-03T10:39:42.171Z</time></trkpt><trkpt lat="44.186482" lon="12.1782782"><ele>23.0</ele><time>2026-04-03T10:39:43.17Z</time></trkpt><trkpt lat="44.1863818" lon="12.1784379"><ele>23.5</ele><time>2026-04-03T10:39:44.172Z</time></trkpt><trkpt lat="44.1862822" lon="12.1785883"><ele>24.0</ele><time>2026-04-03T10:39:45.17Z</time></trkpt><trkpt lat="44.1861802" lon="12.1787378"><ele>24.0</ele><time>2026-04-03T10:39:46.171Z</time></trkpt><trkpt lat="44.1860736" lon="12.1788927"><ele>24.0</ele><time>2026-04-03T10:39:47.17Z</time></trkpt><trkpt lat="44.1859678" lon="12.179047"><ele>24.0</ele><time>2026-04-03T10:39:48.171Z</time></trkpt><trkpt lat="44.1858617" lon="12.1792029"><ele>24.0</ele><time>2026-04-03T10:39:49.17Z</time></trkpt><trkpt lat="44.1857513" lon="12.1793637"><ele>24.0</ele><time>2026-04-03T10:39:50.17Z</time></trkpt><trkpt lat="44.1856425" lon="12.1795243"><ele>24.0</ele><time>2026-04-03T10:39:51.169Z</time></trkpt><trkpt lat="44.1855305" lon="12.179689"><ele>24.0</ele><time>2026-04-03T10:39:52.17Z</time></trkpt><trkpt lat="44.1854184" lon="12.1798546"><ele>24.0</ele><time>2026-04-03T10:39:53.17Z</time></trkpt><trkpt lat="44.1853039" lon="12.1800249"><ele>24.0</ele><time>2026-04-03T10:39:54.17Z</time></trkpt><trkpt lat="44.1851878" lon="12.1801981"><ele>24.0</ele><time>2026-04-03T10:39:55.17Z</time></trkpt><trkpt lat="44.1850741" lon="12.1803655"><ele>24.0</ele><time>2026-04-03T10:39:56.169Z</time></trkpt><trkpt lat="44.1849602" lon="12.180534"><ele>24.0</ele><time>2026-04-03T10:39:57.169Z</time></trkpt><trkpt lat="44.1848469" lon="12.1806986"><ele>24.333333333333336</ele><time>2026-04-03T10:39:58.169Z</time></trkpt><trkpt lat="44.1847353" lon="12.1808589"><ele>24.666666666666668</ele><time>2026-04-03T10:39:59.17Z</time></trkpt><trkpt lat="44.1846183" lon="12.1810264"><ele>25.0</ele><time>2026-04-03T10:40:00.169Z</time></trkpt><trkpt lat="44.1845079" lon="12.181183"><ele>25.0</ele><time>2026-04-03T10:40:01.17Z</time></trkpt><trkpt lat="44.1843943" lon="12.1813424"><ele>25.0</ele><time>2026-04-03T10:40:02.17Z</time></trkpt><trkpt lat="44.1842802" lon="12.1815013"><ele>25.0</ele><time>2026-04-03T10:40:03.169Z</time></trkpt><trkpt lat="44.184172" lon="12.1816522"><ele>25.0</ele><time>2026-04-03T10:40:04.169Z</time></trkpt><trkpt lat="44.1840627" lon="12.1818046"><ele>25.0</ele><time>2026-04-03T10:40:05.17Z</time></trkpt><trkpt lat="44.1839504" lon="12.1819571"><ele>25.0</ele><time>2026-04-03T10:40:06.17Z</time></trkpt><trkpt lat="44.1838376" lon="12.1820998"><ele>24.75</ele><time>2026-04-03T10:40:07.169Z</time></trkpt><trkpt lat="44.183719" lon="12.1822374"><ele>24.5</ele><time>2026-04-03T10:40:08.169Z</time></trkpt><trkpt lat="44.1836055" lon="12.1823548"><ele>24.25</ele><time>2026-04-03T10:40:09.17Z</time></trkpt><trkpt lat="44.1834948" lon="12.1824591"><ele>24.0</ele><time>2026-04-03T10:40:10.17Z</time></trkpt><trkpt lat="44.1833953" lon="12.1825503"><ele>24.0</ele><time>2026-04-03T10:40:11.17Z</time></trkpt><trkpt lat="44.1833245" lon="12.1826243"><ele>24.0</ele><time>2026-04-03T10:40:12.171Z</time></trkpt><trkpt lat="44.1832745" lon="12.182761"><ele>24.0</ele><time>2026-04-03T10:40:14.169Z</time></trkpt><trkpt lat="44.1833329" lon="12.1828892"><ele>24.0</ele><time>2026-04-03T10:40:16.171Z</time></trkpt><trkpt lat="44.1833869" lon="12.1829561"><ele>24.0</ele><time>2026-04-03T10:40:17.17Z</time></trkpt><trkpt lat="44.1834515" lon="12.1830325"><ele>24.0</ele><time>2026-04-03T10:40:18.169Z</time></trkpt><trkpt lat="44.1835266" lon="12.183123"><ele>24.0</ele><time>2026-04-03T10:40:19.169Z</time></trkpt><trkpt lat="44.1836088" lon="12.1832219"><ele>24.0</ele><time>2026-04-03T10:40:20.17Z</time></trkpt><trkpt lat="44.183695" lon="12.1833252"><ele>24.0</ele><time>2026-04-03T10:40:21.169Z</time></trkpt><trkpt lat="44.183788" lon="12.1834349"><ele>24.0</ele><time>2026-04-03T10:40:22.169Z</time></trkpt><trkpt lat="44.1838847" lon="12.183554"><ele>24.0</ele><time>2026-04-03T10:40:23.169Z</time></trkpt><trkpt lat="44.1839803" lon="12.1836794"><ele>24.0</ele><time>2026-04-03T10:40:24.17Z</time></trkpt><trkpt lat="44.1840716" lon="12.1838047"><ele>24.0</ele><time>2026-04-03T10:40:25.17Z</time></trkpt><trkpt lat="44.1841628" lon="12.1839364"><ele>24.0</ele><time>2026-04-03T10:40:26.169Z</time></trkpt><trkpt lat="44.1842504" lon="12.184067"><ele>24.0</ele><time>2026-04-03T10:40:27.169Z</time></trkpt><trkpt lat="44.184335" lon="12.1841972"><ele>24.0</ele><time>2026-04-03T10:40:28.169Z</time></trkpt><trkpt lat="44.1844197" lon="12.1843287"><ele>24.0</ele><time>2026-04-03T10:40:29.17Z</time></trkpt><trkpt lat="44.1845046" lon="12.1844575"><ele>24.0</ele><time>2026-04-03T10:40:30.169Z</time></trkpt><trkpt lat="44.1845906" lon="12.1845853"><ele>24.0</ele><time>2026-04-03T10:40:31.17Z</time></trkpt><trkpt lat="44.1846817" lon="12.1847167"><ele>24.0</ele><time>2026-04-03T10:40:32.169Z</time></trkpt><trkpt lat="44.1847733" lon="12.1848456"><ele>24.0</ele><time>2026-04-03T10:40:33.17Z</time></trkpt><trkpt lat="44.1848622" lon="12.1849689"><ele>24.0</ele><time>2026-04-03T10:40:34.17Z</time></trkpt><trkpt lat="44.1849526" lon="12.1850963"><ele>23.799999999999997</ele><time>2026-04-03T10:40:35.169Z</time></trkpt><trkpt lat="44.1850258" lon="12.185207"><ele>23.599999999999998</ele><time>2026-04-03T10:40:36.17Z</time></trkpt><trkpt lat="44.1850784" lon="12.185318"><ele>23.4</ele><time>2026-04-03T10:40:37.17Z</time></trkpt><trkpt lat="44.1851039" lon="12.1854295"><ele>23.2</ele><time>2026-04-03T10:40:38.169Z</time></trkpt><trkpt lat="44.1851116" lon="12.1855414"><ele>23.0</ele><time>2026-04-03T10:40:39.169Z</time></trkpt><trkpt lat="44.18511" lon="12.1856597"><ele>23.28571428571429</ele><time>2026-04-03T10:40:40.17Z</time></trkpt><trkpt lat="44.1851072" lon="12.1857659"><ele>23.57142857142857</ele><time>2026-04-03T10:40:41.171Z</time></trkpt><trkpt lat="44.1851048" lon="12.1858657"><ele>23.857142857142858</ele><time>2026-04-03T10:40:42.169Z</time></trkpt><trkpt lat="44.1851098" lon="12.1859654"><ele>24.142857142857146</ele><time>2026-04-03T10:40:43.17Z</time></trkpt><trkpt lat="44.1851243" lon="12.186057"><ele>24.42857142857143</ele><time>2026-04-03T10:40:44.169Z</time></trkpt><trkpt lat="44.1851509" lon="12.1861392"><ele>24.714285714285715</ele><time>2026-04-03T10:40:45.169Z</time></trkpt><trkpt lat="44.1851894" lon="12.18621"><ele>25.0</ele><time>2026-04-03T10:40:46.169Z</time></trkpt><trkpt lat="44.1852839" lon="12.1863261"><ele>25.000000000000004</ele><time>2026-04-03T10:40:48.17Z</time></trkpt><trkpt lat="44.1853353" lon="12.1863873"><ele>25.0</ele><time>2026-04-03T10:40:49.17Z</time></trkpt><trkpt lat="44.1853948" lon="12.1864597"><ele>25.0</ele><time>2026-04-03T10:40:50.17Z</time></trkpt><trkpt lat="44.1854645" lon="12.1865449"><ele>25.0</ele><time>2026-04-03T10:40:51.17Z</time></trkpt><trkpt lat="44.1855409" lon="12.1866364"><ele>25.000000000000004</ele><time>2026-04-03T10:40:52.169Z</time></trkpt><trkpt lat="44.1856214" lon="12.1867359"><ele>25.0</ele><time>2026-04-03T10:40:53.17Z</time></trkpt><trkpt lat="44.1857012" lon="12.1868349"><ele>25.0</ele><time>2026-04-03T10:40:54.17Z</time></trkpt><trkpt lat="44.1857791" lon="12.186931"><ele>25.0</ele><time>2026-04-03T10:40:55.17Z</time></trkpt><trkpt lat="44.1858558" lon="12.1870262"><ele>25.0</ele><time>2026-04-03T10:40:56.171Z</time></trkpt><trkpt lat="44.1859299" lon="12.1871175"><ele>25.0</ele><time>2026-04-03T10:40:57.169Z</time></trkpt><trkpt lat="44.1860064" lon="12.1872114"><ele>25.0</ele><time>2026-04-03T10:40:58.169Z</time></trkpt><trkpt lat="44.1860877" lon="12.1873078"><ele>25.0</ele><time>2026-04-03T10:40:59.17Z</time></trkpt><trkpt lat="44.1861679" lon="12.1874009"><ele>25.0</ele><time>2026-04-03T10:41:00.169Z</time></trkpt><trkpt lat="44.1862547" lon="12.1875023"><ele>25.0</ele><time>2026-04-03T10:41:01.169Z</time></trkpt><trkpt lat="44.1863419" lon="12.1876062"><ele>25.0</ele><time>2026-04-03T10:41:02.17Z</time></trkpt><trkpt lat="44.1864316" lon="12.1877149"><ele>24.75</ele><time>2026-04-03T10:41:03.17Z</time></trkpt><trkpt lat="44.1865224" lon="12.187825"><ele>24.5</ele><time>2026-04-03T10:41:04.171Z</time></trkpt><trkpt lat="44.1866132" lon="12.1879349"><ele>24.25</ele><time>2026-04-03T10:41:05.169Z</time></trkpt><trkpt lat="44.1867045" lon="12.188046"><ele>24.0</ele><time>2026-04-03T10:41:06.17Z</time></trkpt><trkpt lat="44.1867951" lon="12.1881553"><ele>24.5</ele><time>2026-04-03T10:41:07.169Z</time></trkpt><trkpt lat="44.186881" lon="12.188258"><ele>25.0</ele><time>2026-04-03T10:41:08.169Z</time></trkpt><trkpt lat="44.1869677" lon="12.18836"><ele>25.5</ele><time>2026-04-03T10:41:09.171Z</time></trkpt><trkpt lat="44.1870572" lon="12.1884633"><ele>26.0</ele><time>2026-04-03T10:41:10.17Z</time></trkpt><trkpt lat="44.1871445" lon="12.1885655"><ele>26.0</ele><time>2026-04-03T10:41:11.169Z</time></trkpt><trkpt lat="44.1872366" lon="12.1886748"><ele>26.0</ele><time>2026-04-03T10:41:12.17Z</time></trkpt><trkpt lat="44.1873251" lon="12.1887802"><ele>26.0</ele><time>2026-04-03T10:41:13.17Z</time></trkpt><trkpt lat="44.1874029" lon="12.1888738"><ele>26.0</ele><time>2026-04-03T10:41:14.169Z</time></trkpt><trkpt lat="44.1874691" lon="12.1889572"><ele>26.0</ele><time>2026-04-03T10:41:15.169Z</time></trkpt><trkpt lat="44.1875173" lon="12.1890807"><ele>25.666666666666664</ele><time>2026-04-03T10:41:17.169Z</time></trkpt><trkpt lat="44.1874684" lon="12.1891444"><ele>25.333333333333332</ele><time>2026-04-03T10:41:19.17Z</time></trkpt><trkpt lat="44.1873567" lon="12.1891479"><ele>25.0</ele><time>2026-04-03T10:41:21.169Z</time></trkpt><trkpt lat="44.1872803" lon="12.1891425"><ele>24.666666666666664</ele><time>2026-04-03T10:41:22.17Z</time></trkpt><trkpt lat="44.1871899" lon="12.1891398"><ele>24.333333333333332</ele><time>2026-04-03T10:41:23.169Z</time></trkpt><trkpt lat="44.1870917" lon="12.1891434"><ele>24.0</ele><time>2026-04-03T10:41:24.17Z</time></trkpt><trkpt lat="44.1869808" lon="12.1891566"><ele>24.0</ele><time>2026-04-03T10:41:25.17Z</time></trkpt><trkpt lat="44.1868653" lon="12.1891793"><ele>24.0</ele><time>2026-04-03T10:41:26.17Z</time></trkpt><trkpt lat="44.1867471" lon="12.1892158"><ele>24.0</ele><time>2026-04-03T10:41:27.169Z</time></trkpt><trkpt lat="44.1866212" lon="12.1892781"><ele>24.0</ele><time>2026-04-03T10:41:28.17Z</time></trkpt><trkpt lat="44.1865039" lon="12.1893606"><ele>24.0</ele><time>2026-04-03T10:41:29.17Z</time></trkpt><trkpt lat="44.186381" lon="12.1894579"><ele>24.0</ele><time>2026-04-03T10:41:30.169Z</time></trkpt><trkpt lat="44.1862511" lon="12.1895657"><ele>24.0</ele><time>2026-04-03T10:41:31.169Z</time></trkpt><trkpt lat="44.1861222" lon="12.1896732"><ele>24.0</ele><time>2026-04-03T10:41:32.17Z</time></trkpt><trkpt lat="44.1859874" lon="12.1897855"><ele>24.0</ele><time>2026-04-03T10:41:33.17Z</time></trkpt><trkpt lat="44.1858503" lon="12.1899028"><ele>24.0</ele><time>2026-04-03T10:41:34.17Z</time></trkpt><trkpt lat="44.1857122" lon="12.1900216"><ele>24.0</ele><time>2026-04-03T10:41:35.17Z</time></trkpt><trkpt lat="44.1855657" lon="12.1901461"><ele>24.0</ele><time>2026-04-03T10:41:36.169Z</time></trkpt><trkpt lat="44.185416" lon="12.1902689"><ele>24.0</ele><time>2026-04-03T10:41:37.169Z</time></trkpt><trkpt lat="44.1852693" lon="12.1903839"><ele>24.0</ele><time>2026-04-03T10:41:38.17Z</time></trkpt><trkpt lat="44.1851094" lon="12.1905084"><ele>24.0</ele><time>2026-04-03T10:41:39.169Z</time></trkpt><trkpt lat="44.1849582" lon="12.1906283"><ele>24.0</ele><time>2026-04-03T10:41:40.169Z</time></trkpt><trkpt lat="44.1848019" lon="12.190756"><ele>24.0</ele><time>2026-04-03T10:41:41.169Z</time></trkpt><trkpt lat="44.1846494" lon="12.1908853"><ele>24.0</ele><time>2026-04-03T10:41:42.169Z</time></trkpt><trkpt lat="44.1845063" lon="12.1910131"><ele>24.0</ele><time>2026-04-03T10:41:43.17Z</time></trkpt><trkpt lat="44.1843582" lon="12.191153"><ele>24.0</ele><time>2026-04-03T10:41:44.17Z</time></trkpt><trkpt lat="44.1842216" lon="12.191283"><ele>24.0</ele><time>2026-04-03T10:41:45.169Z</time></trkpt><trkpt lat="44.1840846" lon="12.1914146"><ele>24.0</ele><time>2026-04-03T10:41:46.17Z</time></trkpt><trkpt lat="44.183946" lon="12.1915478"><ele>24.0</ele><time>2026-04-03T10:41:47.169Z</time></trkpt><trkpt lat="44.1838152" lon="12.1916711"><ele>23.666666666666668</ele><time>2026-04-03T10:41:48.169Z</time></trkpt><trkpt lat="44.1836841" lon="12.191797"><ele>23.333333333333336</ele><time>2026-04-03T10:41:49.169Z</time></trkpt><trkpt lat="44.1835572" lon="12.1919194"><ele>23.0</ele><time>2026-04-03T10:41:50.169Z</time></trkpt><trkpt lat="44.1834328" lon="12.19204"><ele>23.0</ele><time>2026-04-03T10:41:51.17Z</time></trkpt><trkpt lat="44.1833048" lon="12.1921653"><ele>23.0</ele><time>2026-04-03T10:41:52.17Z</time></trkpt><trkpt lat="44.183181" lon="12.1922886"><ele>23.0</ele><time>2026-04-03T10:41:53.17Z</time></trkpt><trkpt lat="44.1830712" lon="12.1924034"><ele>23.0</ele><time>2026-04-03T10:41:54.17Z</time></trkpt><trkpt lat="44.1829732" lon="12.1925106"><ele>23.75</ele><time>2026-04-03T10:41:55.169Z</time></trkpt><trkpt lat="44.1828855" lon="12.1926136"><ele>24.5</ele><time>2026-04-03T10:41:56.169Z</time></trkpt><trkpt lat="44.1828053" lon="12.1927209"><ele>25.25</ele><time>2026-04-03T10:41:57.17Z</time></trkpt><trkpt lat="44.1827236" lon="12.1928418"><ele>26.0</ele><time>2026-04-03T10:41:58.17Z</time></trkpt><trkpt lat="44.1826427" lon="12.1929771"><ele>26.0</ele><time>2026-04-03T10:41:59.169Z</time></trkpt><trkpt lat="44.1825623" lon="12.193123"><ele>26.0</ele><time>2026-04-03T10:42:00.169Z</time></trkpt><trkpt lat="44.1824782" lon="12.1932779"><ele>26.0</ele><time>2026-04-03T10:42:01.17Z</time></trkpt><trkpt lat="44.1823923" lon="12.1934362"><ele>26.0</ele><time>2026-04-03T10:42:02.169Z</time></trkpt><trkpt lat="44.1822974" lon="12.1936111"><ele>25.666666666666664</ele><time>2026-04-03T10:42:03.17Z</time></trkpt><trkpt lat="44.1822047" lon="12.1937813"><ele>25.333333333333336</ele><time>2026-04-03T10:42:04.17Z</time></trkpt><trkpt lat="44.1821073" lon="12.19396"><ele>25.0</ele><time>2026-04-03T10:42:05.169Z</time></trkpt><trkpt lat="44.1820053" lon="12.1941469"><ele>24.666666666666668</ele><time>2026-04-03T10:42:06.17Z</time></trkpt><trkpt lat="44.1819053" lon="12.19433"><ele>24.333333333333336</ele><time>2026-04-03T10:42:07.17Z</time></trkpt><trkpt lat="44.181801" lon="12.1945202"><ele>24.0</ele><time>2026-04-03T10:42:08.17Z</time></trkpt><trkpt lat="44.1816982" lon="12.1947067"><ele>25.0</ele><time>2026-04-03T10:42:09.169Z</time></trkpt><trkpt lat="44.1815948" lon="12.194892"><ele>26.0</ele><time>2026-04-03T10:42:10.169Z</time></trkpt><trkpt lat="44.1814858" lon="12.1950847"><ele>27.0</ele><time>2026-04-03T10:42:11.17Z</time></trkpt><trkpt lat="44.1813822" lon="12.1952662"><ele>27.0</ele><time>2026-04-03T10:42:12.17Z</time></trkpt><trkpt lat="44.1812757" lon="12.195456"><ele>27.0</ele><time>2026-04-03T10:42:13.169Z</time></trkpt><trkpt lat="44.1811754" lon="12.1956442"><ele>27.0</ele><time>2026-04-03T10:42:14.169Z</time></trkpt><trkpt lat="44.1810771" lon="12.1958404"><ele>27.0</ele><time>2026-04-03T10:42:15.17Z</time></trkpt><trkpt lat="44.180981" lon="12.1960479"><ele>27.0</ele><time>2026-04-03T10:42:16.17Z</time></trkpt><trkpt lat="44.1808935" lon="12.1962509"><ele>27.0</ele><time>2026-04-03T10:42:17.17Z</time></trkpt><trkpt lat="44.1808105" lon="12.1964574"><ele>27.0</ele><time>2026-04-03T10:42:18.17Z</time></trkpt><trkpt lat="44.1807308" lon="12.196664"><ele>27.0</ele><time>2026-04-03T10:42:19.17Z</time></trkpt><trkpt lat="44.1806548" lon="12.1968673"><ele>27.0</ele><time>2026-04-03T10:42:20.17Z</time></trkpt><trkpt lat="44.1805816" lon="12.197061"><ele>27.0</ele><time>2026-04-03T10:42:21.169Z</time></trkpt><trkpt lat="44.1805082" lon="12.1972486"><ele>27.0</ele><time>2026-04-03T10:42:22.169Z</time></trkpt><trkpt lat="44.1804314" lon="12.1974329"><ele>27.0</ele><time>2026-04-03T10:42:23.169Z</time></trkpt><trkpt lat="44.1803518" lon="12.1976122"><ele>27.25</ele><time>2026-04-03T10:42:24.169Z</time></trkpt><trkpt lat="44.1802687" lon="12.1977847"><ele>27.5</ele><time>2026-04-03T10:42:25.17Z</time></trkpt><trkpt lat="44.1801846" lon="12.1979454"><ele>27.75</ele><time>2026-04-03T10:42:26.17Z</time></trkpt><trkpt lat="44.1800917" lon="12.1981107"><ele>28.0</ele><time>2026-04-03T10:42:27.169Z</time></trkpt><trkpt lat="44.1800004" lon="12.1982628"><ele>28.0</ele><time>2026-04-03T10:42:28.171Z</time></trkpt><trkpt lat="44.1799063" lon="12.1984187"><ele>28.0</ele><time>2026-04-03T10:42:29.169Z</time></trkpt><trkpt lat="44.1798133" lon="12.1985727"><ele>28.0</ele><time>2026-04-03T10:42:30.17Z</time></trkpt><trkpt lat="44.1797212" lon="12.1987242"><ele>28.0</ele><time>2026-04-03T10:42:31.169Z</time></trkpt><trkpt lat="44.1796259" lon="12.1988809"><ele>28.0</ele><time>2026-04-03T10:42:32.17Z</time></trkpt><trkpt lat="44.1795347" lon="12.1990308"><ele>28.0</ele><time>2026-04-03T10:42:33.169Z</time></trkpt><trkpt lat="44.1794476" lon="12.1991726"><ele>28.0</ele><time>2026-04-03T10:42:34.169Z</time></trkpt><trkpt lat="44.1793584" lon="12.1993165"><ele>28.0</ele><time>2026-04-03T10:42:35.169Z</time></trkpt><trkpt lat="44.179277" lon="12.1994455"><ele>28.0</ele><time>2026-04-03T10:42:36.169Z</time></trkpt><trkpt lat="44.179197" lon="12.1995723"><ele>27.999999999999996</ele><time>2026-04-03T10:42:37.17Z</time></trkpt><trkpt lat="44.179125" lon="12.1996843"><ele>27.999999999999996</ele><time>2026-04-03T10:42:38.17Z</time></trkpt><trkpt lat="44.179067" lon="12.1997686"><ele>28.0</ele><time>2026-04-03T10:42:39.171Z</time></trkpt><trkpt lat="44.1790156" lon="12.1998377"><ele>28.0</ele><time>2026-04-03T10:42:40.17Z</time></trkpt><trkpt lat="44.1789164" lon="12.1999339"><ele>27.714285714285715</ele><time>2026-04-03T10:42:42.169Z</time></trkpt><trkpt lat="44.1788526" lon="12.1999689"><ele>27.42857142857143</ele><time>2026-04-03T10:42:43.17Z</time></trkpt><trkpt lat="44.1787848" lon="12.1999948"><ele>27.142857142857142</ele><time>2026-04-03T10:42:44.169Z</time></trkpt><trkpt lat="44.1787132" lon="12.2000122"><ele>26.857142857142858</ele><time>2026-04-03T10:42:45.169Z</time></trkpt><trkpt lat="44.1786424" lon="12.2000117"><ele>26.571428571428573</ele><time>2026-04-03T10:42:46.17Z</time></trkpt><trkpt lat="44.1785735" lon="12.1999925"><ele>26.285714285714285</ele><time>2026-04-03T10:42:47.169Z</time></trkpt><trkpt lat="44.178504" lon="12.1999736"><ele>26.0</ele><time>2026-04-03T10:42:48.169Z</time></trkpt><trkpt lat="44.1784397" lon="12.1999807"><ele>25.999999999999996</ele><time>2026-04-03T10:42:49.17Z</time></trkpt><trkpt lat="44.1783452" lon="12.2000896"><ele>26.0</ele><time>2026-04-03T10:42:51.17Z</time></trkpt><trkpt lat="44.1783177" lon="12.2001762"><ele>26.0</ele><time>2026-04-03T10:42:52.169Z</time></trkpt><trkpt lat="44.1782896" lon="12.2002722"><ele>26.0</ele><time>2026-04-03T10:42:53.169Z</time></trkpt><trkpt lat="44.1782531" lon="12.200371"><ele>25.999999999999996</ele><time>2026-04-03T10:42:54.17Z</time></trkpt><trkpt lat="44.1782019" lon="12.2004712"><ele>26.0</ele><time>2026-04-03T10:42:55.169Z</time></trkpt><trkpt lat="44.1781348" lon="12.2005738"><ele>26.0</ele><time>2026-04-03T10:42:56.171Z</time></trkpt><trkpt lat="44.1780574" lon="12.2006649"><ele>26.0</ele><time>2026-04-03T10:42:57.17Z</time></trkpt><trkpt lat="44.177971" lon="12.2007383"><ele>26.0</ele><time>2026-04-03T10:42:58.17Z</time></trkpt><trkpt lat="44.1778712" lon="12.2007983"><ele>26.0</ele><time>2026-04-03T10:42:59.17Z</time></trkpt><trkpt lat="44.177769" lon="12.20085"><ele>26.0</ele><time>2026-04-03T10:43:00.169Z</time></trkpt><trkpt lat="44.1776588" lon="12.2009032"><ele>26.0</ele><time>2026-04-03T10:43:01.171Z</time></trkpt><trkpt lat="44.1775411" lon="12.2009598"><ele>26.0</ele><time>2026-04-03T10:43:02.169Z</time></trkpt><trkpt lat="44.1774211" lon="12.2010175"><ele>26.0</ele><time>2026-04-03T10:43:03.17Z</time></trkpt><trkpt lat="44.1772935" lon="12.2010794"><ele>26.0</ele><time>2026-04-03T10:43:04.169Z</time></trkpt><trkpt lat="44.1771697" lon="12.2011397"><ele>26.25</ele><time>2026-04-03T10:43:05.169Z</time></trkpt><trkpt lat="44.1770434" lon="12.2012018"><ele>26.5</ele><time>2026-04-03T10:43:06.17Z</time></trkpt><trkpt lat="44.1769049" lon="12.2012706"><ele>26.75</ele><time>2026-04-03T10:43:07.169Z</time></trkpt><trkpt lat="44.1767744" lon="12.2013359"><ele>27.0</ele><time>2026-04-03T10:43:08.169Z</time></trkpt><trkpt lat="44.176637" lon="12.2014041"><ele>26.75</ele><time>2026-04-03T10:43:09.169Z</time></trkpt><trkpt lat="44.1765004" lon="12.2014709"><ele>26.5</ele><time>2026-04-03T10:43:10.169Z</time></trkpt><trkpt lat="44.1763639" lon="12.2015371"><ele>26.25</ele><time>2026-04-03T10:43:11.17Z</time></trkpt><trkpt lat="44.1762226" lon="12.2016063"><ele>26.0</ele><time>2026-04-03T10:43:12.171Z</time></trkpt><trkpt lat="44.1760881" lon="12.2016715"><ele>26.0</ele><time>2026-04-03T10:43:13.169Z</time></trkpt><trkpt lat="44.1759561" lon="12.2017362"><ele>26.0</ele><time>2026-04-03T10:43:14.169Z</time></trkpt><trkpt lat="44.175821" lon="12.2018037"><ele>26.0</ele><time>2026-04-03T10:43:15.17Z</time></trkpt><trkpt lat="44.1756873" lon="12.2018721"><ele>26.0</ele><time>2026-04-03T10:43:16.17Z</time></trkpt><trkpt lat="44.1755577" lon="12.2019391"><ele>26.5</ele><time>2026-04-03T10:43:17.17Z</time></trkpt><trkpt lat="44.1754272" lon="12.2020067"><ele>27.0</ele><time>2026-04-03T10:43:18.17Z</time></trkpt><trkpt lat="44.175297" lon="12.2020716"><ele>27.5</ele><time>2026-04-03T10:43:19.17Z</time></trkpt><trkpt lat="44.1751625" lon="12.2021379"><ele>28.0</ele><time>2026-04-03T10:43:20.169Z</time></trkpt><trkpt lat="44.1750276" lon="12.2022044"><ele>28.0</ele><time>2026-04-03T10:43:21.17Z</time></trkpt><trkpt lat="44.1748928" lon="12.202272"><ele>28.0</ele><time>2026-04-03T10:43:22.169Z</time></trkpt><trkpt lat="44.1747555" lon="12.2023409"><ele>28.0</ele><time>2026-04-03T10:43:23.17Z</time></trkpt><trkpt lat="44.1746234" lon="12.2024066"><ele>28.0</ele><time>2026-04-03T10:43:24.17Z</time></trkpt><trkpt lat="44.1744907" lon="12.2024728"><ele>28.0</ele><time>2026-04-03T10:43:25.171Z</time></trkpt><trkpt lat="44.1743565" lon="12.2025405"><ele>28.0</ele><time>2026-04-03T10:43:26.169Z</time></trkpt><trkpt lat="44.1742271" lon="12.2026059"><ele>28.0</ele><time>2026-04-03T10:43:27.17Z</time></trkpt><trkpt lat="44.1740938" lon="12.2026725"><ele>28.0</ele><time>2026-04-03T10:43:28.17Z</time></trkpt><trkpt lat="44.1739636" lon="12.2027356"><ele>28.0</ele><time>2026-04-03T10:43:29.169Z</time></trkpt><trkpt lat="44.1738346" lon="12.202799"><ele>28.0</ele><time>2026-04-03T10:43:30.169Z</time></trkpt><trkpt lat="44.173704" lon="12.2028637"><ele>28.0</ele><time>2026-04-03T10:43:31.17Z</time></trkpt><trkpt lat="44.1735758" lon="12.2029276"><ele>28.0</ele><time>2026-04-03T10:43:32.169Z</time></trkpt><trkpt lat="44.173447" lon="12.202992"><ele>28.0</ele><time>2026-04-03T10:43:33.169Z</time></trkpt><trkpt lat="44.1733194" lon="12.2030564"><ele>28.0</ele><time>2026-04-03T10:43:34.17Z</time></trkpt><trkpt lat="44.173192" lon="12.203121"><ele>28.0</ele><time>2026-04-03T10:43:35.169Z</time></trkpt><trkpt lat="44.1730628" lon="12.2031865"><ele>28.0</ele><time>2026-04-03T10:43:36.169Z</time></trkpt><trkpt lat="44.172935" lon="12.2032509"><ele>28.25</ele><time>2026-04-03T10:43:37.17Z</time></trkpt><trkpt lat="44.1728063" lon="12.2033159"><ele>28.5</ele><time>2026-04-03T10:43:38.169Z</time></trkpt><trkpt lat="44.1726743" lon="12.2033816"><ele>28.75</ele><time>2026-04-03T10:43:39.169Z</time></trkpt><trkpt lat="44.1725463" lon="12.2034442"><ele>29.0</ele><time>2026-04-03T10:43:40.17Z</time></trkpt><trkpt lat="44.1724197" lon="12.2035066"><ele>29.0</ele><time>2026-04-03T10:43:41.17Z</time></trkpt><trkpt lat="44.1722868" lon="12.2035719"><ele>29.0</ele><time>2026-04-03T10:43:42.169Z</time></trkpt><trkpt lat="44.1721558" lon="12.2036365"><ele>29.0</ele><time>2026-04-03T10:43:43.169Z</time></trkpt><trkpt lat="44.1720181" lon="12.203704"><ele>29.0</ele><time>2026-04-03T10:43:44.169Z</time></trkpt><trkpt lat="44.171881" lon="12.2037726"><ele>29.0</ele><time>2026-04-03T10:43:45.17Z</time></trkpt><trkpt lat="44.1717432" lon="12.2038422"><ele>29.0</ele><time>2026-04-03T10:43:46.17Z</time></trkpt><trkpt lat="44.1716031" lon="12.2039135"><ele>29.0</ele><time>2026-04-03T10:43:47.169Z</time></trkpt><trkpt lat="44.1714691" lon="12.2039812"><ele>29.0</ele><time>2026-04-03T10:43:48.17Z</time></trkpt><trkpt lat="44.1713348" lon="12.204048"><ele>29.25</ele><time>2026-04-03T10:43:49.17Z</time></trkpt><trkpt lat="44.1712023" lon="12.2041131"><ele>29.5</ele><time>2026-04-03T10:43:50.169Z</time></trkpt><trkpt lat="44.1710752" lon="12.2041752"><ele>29.75</ele><time>2026-04-03T10:43:51.169Z</time></trkpt><trkpt lat="44.1709453" lon="12.2042388"><ele>30.0</ele><time>2026-04-03T10:43:52.17Z</time></trkpt><trkpt lat="44.1708197" lon="12.2043011"><ele>30.0</ele><time>2026-04-03T10:43:53.169Z</time></trkpt><trkpt lat="44.1706998" lon="12.2043617"><ele>30.0</ele><time>2026-04-03T10:43:54.17Z</time></trkpt><trkpt lat="44.1705791" lon="12.2044243"><ele>30.0</ele><time>2026-04-03T10:43:55.169Z</time></trkpt><trkpt lat="44.1704709" lon="12.2044807"><ele>30.0</ele><time>2026-04-03T10:43:56.169Z</time></trkpt><trkpt lat="44.1703715" lon="12.204527"><ele>30.0</ele><time>2026-04-03T10:43:57.17Z</time></trkpt><trkpt lat="44.1702783" lon="12.204553"><ele>30.0</ele><time>2026-04-03T10:43:58.169Z</time></trkpt><trkpt lat="44.1701891" lon="12.204559"><ele>30.0</ele><time>2026-04-03T10:43:59.169Z</time></trkpt><trkpt lat="44.1700996" lon="12.2045503"><ele>30.0</ele><time>2026-04-03T10:44:00.17Z</time></trkpt><trkpt lat="44.170016" lon="12.2045437"><ele>30.0</ele><time>2026-04-03T10:44:01.169Z</time></trkpt><trkpt lat="44.1699333" lon="12.2045536"><ele>30.0</ele><time>2026-04-03T10:44:02.17Z</time></trkpt><trkpt lat="44.1698559" lon="12.2045869"><ele>30.0</ele><time>2026-04-03T10:44:03.17Z</time></trkpt><trkpt lat="44.1697914" lon="12.2046505"><ele>30.0</ele><time>2026-04-03T10:44:04.169Z</time></trkpt><trkpt lat="44.1697439" lon="12.2047408"><ele>30.0</ele><time>2026-04-03T10:44:05.169Z</time></trkpt><trkpt lat="44.1697209" lon="12.2048468"><ele>30.0</ele><time>2026-04-03T10:44:06.169Z</time></trkpt><trkpt lat="44.1697246" lon="12.2049606"><ele>30.0</ele><time>2026-04-03T10:44:07.169Z</time></trkpt><trkpt lat="44.1697578" lon="12.2050711"><ele>30.0</ele><time>2026-04-03T10:44:08.169Z</time></trkpt><trkpt lat="44.1698156" lon="12.2051607"><ele>29.8</ele><time>2026-04-03T10:44:09.17Z</time></trkpt><trkpt lat="44.1698927" lon="12.2052209"><ele>29.6</ele><time>2026-04-03T10:44:10.171Z</time></trkpt><trkpt lat="44.169985" lon="12.2052601"><ele>29.4</ele><time>2026-04-03T10:44:11.17Z</time></trkpt><trkpt lat="44.1700775" lon="12.2052935"><ele>29.2</ele><time>2026-04-03T10:44:12.169Z</time></trkpt><trkpt lat="44.1701749" lon="12.2053438"><ele>29.0</ele><time>2026-04-03T10:44:13.17Z</time></trkpt><trkpt lat="44.1702706" lon="12.2054207"><ele>29.0</ele><time>2026-04-03T10:44:14.17Z</time></trkpt><trkpt lat="44.1703528" lon="12.2055209"><ele>29.0</ele><time>2026-04-03T10:44:15.169Z</time></trkpt><trkpt lat="44.170434" lon="12.2056499"><ele>29.0</ele><time>2026-04-03T10:44:16.169Z</time></trkpt><trkpt lat="44.1705126" lon="12.205787"><ele>29.0</ele><time>2026-04-03T10:44:17.17Z</time></trkpt><trkpt lat="44.1705945" lon="12.2059326"><ele>28.75</ele><time>2026-04-03T10:44:18.17Z</time></trkpt><trkpt lat="44.1706834" lon="12.2060895"><ele>28.5</ele><time>2026-04-03T10:44:19.169Z</time></trkpt><trkpt lat="44.1707735" lon="12.2062457"><ele>28.25</ele><time>2026-04-03T10:44:20.17Z</time></trkpt><trkpt lat="44.1708656" lon="12.206405"><ele>28.0</ele><time>2026-04-03T10:44:21.17Z</time></trkpt><trkpt lat="44.1709608" lon="12.2065695"><ele>28.0</ele><time>2026-04-03T10:44:22.169Z</time></trkpt><trkpt lat="44.1710581" lon="12.2067383"><ele>28.0</ele><time>2026-04-03T10:44:23.169Z</time></trkpt><trkpt lat="44.1711581" lon="12.2069139"><ele>28.0</ele><time>2026-04-03T10:44:24.169Z</time></trkpt><trkpt lat="44.1712559" lon="12.2070881"><ele>28.0</ele><time>2026-04-03T10:44:25.17Z</time></trkpt><trkpt lat="44.1713553" lon="12.2072661"><ele>28.0</ele><time>2026-04-03T10:44:26.17Z</time></trkpt><trkpt lat="44.1714547" lon="12.207453"><ele>28.0</ele><time>2026-04-03T10:44:27.169Z</time></trkpt><trkpt lat="44.1715467" lon="12.2076354"><ele>28.0</ele><time>2026-04-03T10:44:28.168Z</time></trkpt><trkpt lat="44.1716368" lon="12.2078234"><ele>28.0</ele><time>2026-04-03T10:44:29.169Z</time></trkpt><trkpt lat="44.1717278" lon="12.2080114"><ele>28.0</ele><time>2026-04-03T10:44:30.169Z</time></trkpt><trkpt lat="44.1718208" lon="12.2081909"><ele>28.0</ele><time>2026-04-03T10:44:31.168Z</time></trkpt><trkpt lat="44.1719214" lon="12.2083676"><ele>28.0</ele><time>2026-04-03T10:44:32.168Z</time></trkpt><trkpt lat="44.1720249" lon="12.2085279"><ele>28.0</ele><time>2026-04-03T10:44:33.169Z</time></trkpt><trkpt lat="44.1721348" lon="12.2086769"><ele>28.0</ele><time>2026-04-03T10:44:34.168Z</time></trkpt><trkpt lat="44.1722624" lon="12.2088271"><ele>28.0</ele><time>2026-04-03T10:44:35.168Z</time></trkpt><trkpt lat="44.1723921" lon="12.2089606"><ele>28.0</ele><time>2026-04-03T10:44:36.168Z</time></trkpt><trkpt lat="44.1725275" lon="12.209085"><ele>27.333333333333336</ele><time>2026-04-03T10:44:37.169Z</time></trkpt><trkpt lat="44.1726714" lon="12.2091997"><ele>26.666666666666664</ele><time>2026-04-03T10:44:38.168Z</time></trkpt><trkpt lat="44.1728199" lon="12.2093028"><ele>26.0</ele><time>2026-04-03T10:44:39.169Z</time></trkpt><trkpt lat="44.1729806" lon="12.2093969"><ele>26.0</ele><time>2026-04-03T10:44:40.168Z</time></trkpt><trkpt lat="44.1731422" lon="12.2094796"><ele>26.0</ele><time>2026-04-03T10:44:41.169Z</time></trkpt><trkpt lat="44.1733043" lon="12.2095569"><ele>26.0</ele><time>2026-04-03T10:44:42.168Z</time></trkpt><trkpt lat="44.1734702" lon="12.2096346"><ele>25.666666666666664</ele><time>2026-04-03T10:44:43.169Z</time></trkpt><trkpt lat="44.1736342" lon="12.2097168"><ele>25.333333333333336</ele><time>2026-04-03T10:44:44.168Z</time></trkpt><trkpt lat="44.1737948" lon="12.2098071"><ele>25.0</ele><time>2026-04-03T10:44:45.168Z</time></trkpt><trkpt lat="44.1739465" lon="12.2099041"><ele>25.0</ele><time>2026-04-03T10:44:46.168Z</time></trkpt><trkpt lat="44.1740952" lon="12.2100086"><ele>25.0</ele><time>2026-04-03T10:44:47.169Z</time></trkpt><trkpt lat="44.1742372" lon="12.2101188"><ele>25.0</ele><time>2026-04-03T10:44:48.168Z</time></trkpt><trkpt lat="44.1743646" lon="12.2102431"><ele>25.0</ele><time>2026-04-03T10:44:49.168Z</time></trkpt><trkpt lat="44.1744662" lon="12.2103834"><ele>25.0</ele><time>2026-04-03T10:44:50.169Z</time></trkpt><trkpt lat="44.1745526" lon="12.2105447"><ele>25.0</ele><time>2026-04-03T10:44:51.168Z</time></trkpt><trkpt lat="44.1746252" lon="12.2106974"><ele>25.0</ele><time>2026-04-03T10:44:52.168Z</time></trkpt><trkpt lat="44.1747006" lon="12.2108422"><ele>25.0</ele><time>2026-04-03T10:44:53.169Z</time></trkpt><trkpt lat="44.1747849" lon="12.2109778"><ele>25.0</ele><time>2026-04-03T10:44:54.169Z</time></trkpt><trkpt lat="44.1748789" lon="12.2110951"><ele>25.0</ele><time>2026-04-03T10:44:55.168Z</time></trkpt><trkpt lat="44.1749875" lon="12.2112086"><ele>25.0</ele><time>2026-04-03T10:44:56.168Z</time></trkpt><trkpt lat="44.1750958" lon="12.2113081"><ele>25.0</ele><time>2026-04-03T10:44:57.169Z</time></trkpt><trkpt lat="44.1752082" lon="12.2114073"><ele>25.0</ele><time>2026-04-03T10:44:58.169Z</time></trkpt><trkpt lat="44.1753187" lon="12.2115106"><ele>25.0</ele><time>2026-04-03T10:44:59.169Z</time></trkpt><trkpt lat="44.1754147" lon="12.2116235"><ele>25.0</ele><time>2026-04-03T10:45:00.168Z</time></trkpt><trkpt lat="44.1754971" lon="12.2117524"><ele>25.0</ele><time>2026-04-03T10:45:01.169Z</time></trkpt><trkpt lat="44.1755677" lon="12.211893"><ele>25.0</ele><time>2026-04-03T10:45:02.168Z</time></trkpt><trkpt lat="44.1756319" lon="12.2120439"><ele>25.0</ele><time>2026-04-03T10:45:03.168Z</time></trkpt><trkpt lat="44.1756944" lon="12.2122012"><ele>25.0</ele><time>2026-04-03T10:45:04.169Z</time></trkpt><trkpt lat="44.1757538" lon="12.2123609"><ele>25.0</ele><time>2026-04-03T10:45:05.169Z</time></trkpt><trkpt lat="44.1758125" lon="12.2125331"><ele>25.0</ele><time>2026-04-03T10:45:06.168Z</time></trkpt><trkpt lat="44.1758696" lon="12.2127127"><ele>25.0</ele><time>2026-04-03T10:45:07.168Z</time></trkpt><trkpt lat="44.1759268" lon="12.2129026"><ele>25.0</ele><time>2026-04-03T10:45:08.168Z</time></trkpt><trkpt lat="44.1759805" lon="12.2130895"><ele>24.666666666666668</ele><time>2026-04-03T10:45:09.169Z</time></trkpt><trkpt lat="44.1760355" lon="12.2132902"><ele>24.333333333333336</ele><time>2026-04-03T10:45:10.169Z</time></trkpt><trkpt lat="44.1760856" lon="12.2134899"><ele>24.0</ele><time>2026-04-03T10:45:11.168Z</time></trkpt><trkpt lat="44.1761335" lon="12.2137056"><ele>24.0</ele><time>2026-04-03T10:45:12.168Z</time></trkpt><trkpt lat="44.1761747" lon="12.2139201"><ele>24.0</ele><time>2026-04-03T10:45:13.169Z</time></trkpt><trkpt lat="44.1762095" lon="12.2141391"><ele>24.0</ele><time>2026-04-03T10:45:14.168Z</time></trkpt><trkpt lat="44.1762376" lon="12.2143692"><ele>23.666666666666668</ele><time>2026-04-03T10:45:15.169Z</time></trkpt><trkpt lat="44.1762556" lon="12.2145874"><ele>23.333333333333336</ele><time>2026-04-03T10:45:16.168Z</time></trkpt><trkpt lat="44.1762655" lon="12.2148074"><ele>23.0</ele><time>2026-04-03T10:45:17.17Z</time></trkpt><trkpt lat="44.1762681" lon="12.2150314"><ele>23.666666666666668</ele><time>2026-04-03T10:45:18.17Z</time></trkpt><trkpt lat="44.176263" lon="12.2152484"><ele>24.333333333333336</ele><time>2026-04-03T10:45:19.168Z</time></trkpt><trkpt lat="44.1762517" lon="12.2154624"><ele>25.0</ele><time>2026-04-03T10:45:20.168Z</time></trkpt><trkpt lat="44.1762378" lon="12.2156655"><ele>25.0</ele><time>2026-04-03T10:45:21.169Z</time></trkpt><trkpt lat="44.1762224" lon="12.2158583"><ele>25.0</ele><time>2026-04-03T10:45:22.168Z</time></trkpt><trkpt lat="44.1762088" lon="12.2160407"><ele>25.0</ele><time>2026-04-03T10:45:23.169Z</time></trkpt><trkpt lat="44.1761964" lon="12.2162072"><ele>25.0</ele><time>2026-04-03T10:45:24.17Z</time></trkpt><trkpt lat="44.1761833" lon="12.2163672"><ele>25.000000000000004</ele><time>2026-04-03T10:45:25.169Z</time></trkpt><trkpt lat="44.1761606" lon="12.2165042"><ele>25.0</ele><time>2026-04-03T10:45:26.168Z</time></trkpt><trkpt lat="44.1761211" lon="12.2166175"><ele>25.0</ele><time>2026-04-03T10:45:27.168Z</time></trkpt><trkpt lat="44.1760694" lon="12.2167097"><ele>25.0</ele><time>2026-04-03T10:45:28.169Z</time></trkpt><trkpt lat="44.1760178" lon="12.2167753"><ele>25.000000000000004</ele><time>2026-04-03T10:45:29.169Z</time></trkpt><trkpt lat="44.1759378" lon="12.2168484"><ele>25.0</ele><time>2026-04-03T10:45:31.168Z</time></trkpt><trkpt lat="44.1758655" lon="12.2168971"><ele>25.0</ele><time>2026-04-03T10:45:33.168Z</time></trkpt><trkpt lat="44.1757469" lon="12.2169797"><ele>25.0</ele><time>2026-04-03T10:45:35.169Z</time></trkpt><trkpt lat="44.1756705" lon="12.2170392"><ele>25.0</ele><time>2026-04-03T10:45:36.168Z</time></trkpt><trkpt lat="44.1755939" lon="12.2171165"><ele>25.0</ele><time>2026-04-03T10:45:37.168Z</time></trkpt><trkpt lat="44.1755236" lon="12.2172147"><ele>25.0</ele><time>2026-04-03T10:45:38.169Z</time></trkpt><trkpt lat="44.175464" lon="12.2173345"><ele>25.0</ele><time>2026-04-03T10:45:39.168Z</time></trkpt><trkpt lat="44.1754193" lon="12.2174727"><ele>25.0</ele><time>2026-04-03T10:45:40.169Z</time></trkpt><trkpt lat="44.1753956" lon="12.2176182"><ele>25.0</ele><time>2026-04-03T10:45:41.169Z</time></trkpt><trkpt lat="44.1753891" lon="12.2177719"><ele>25.0</ele><time>2026-04-03T10:45:42.168Z</time></trkpt><trkpt lat="44.1753899" lon="12.2179311"><ele>25.0</ele><time>2026-04-03T10:45:43.169Z</time></trkpt><trkpt lat="44.1753928" lon="12.218098"><ele>25.0</ele><time>2026-04-03T10:45:44.17Z</time></trkpt><trkpt lat="44.1753951" lon="12.218268"><ele>25.0</ele><time>2026-04-03T10:45:45.168Z</time></trkpt><trkpt lat="44.1753962" lon="12.2184434"><ele>25.0</ele><time>2026-04-03T10:45:46.168Z</time></trkpt><trkpt lat="44.1753958" lon="12.2186253"><ele>25.0</ele><time>2026-04-03T10:45:47.169Z</time></trkpt><trkpt lat="44.1753944" lon="12.2188104"><ele>25.0</ele><time>2026-04-03T10:45:48.168Z</time></trkpt><trkpt lat="44.175393" lon="12.2189938"><ele>25.0</ele><time>2026-04-03T10:45:49.168Z</time></trkpt><trkpt lat="44.175392" lon="12.219178"><ele>25.0</ele><time>2026-04-03T10:45:50.169Z</time></trkpt><trkpt lat="44.1753909" lon="12.2193579"><ele>25.0</ele><time>2026-04-03T10:45:51.17Z</time></trkpt><trkpt lat="44.175378" lon="12.2195377"><ele>25.0</ele><time>2026-04-03T10:45:52.168Z</time></trkpt><trkpt lat="44.1753489" lon="12.2197119"><ele>25.0</ele><time>2026-04-03T10:45:53.169Z</time></trkpt><trkpt lat="44.1753062" lon="12.2198819"><ele>25.0</ele><time>2026-04-03T10:45:54.17Z</time></trkpt><trkpt lat="44.175257" lon="12.2200602"><ele>25.0</ele><time>2026-04-03T10:45:55.168Z</time></trkpt><trkpt lat="44.1752072" lon="12.2202341"><ele>25.25</ele><time>2026-04-03T10:45:56.168Z</time></trkpt><trkpt lat="44.1751573" lon="12.2204096"><ele>25.5</ele><time>2026-04-03T10:45:57.169Z</time></trkpt><trkpt lat="44.1751057" lon="12.22059"><ele>25.75</ele><time>2026-04-03T10:45:58.168Z</time></trkpt><trkpt lat="44.1750546" lon="12.2207665"><ele>26.0</ele><time>2026-04-03T10:45:59.17Z</time></trkpt><trkpt lat="44.1750002" lon="12.2209529"><ele>26.0</ele><time>2026-04-03T10:46:00.168Z</time></trkpt><trkpt lat="44.1749457" lon="12.221136"><ele>26.0</ele><time>2026-04-03T10:46:01.168Z</time></trkpt><trkpt lat="44.1748913" lon="12.2213169"><ele>26.0</ele><time>2026-04-03T10:46:02.168Z</time></trkpt><trkpt lat="44.1748357" lon="12.2214971"><ele>26.0</ele><time>2026-04-03T10:46:03.168Z</time></trkpt><trkpt lat="44.1747831" lon="12.2216636"><ele>25.5</ele><time>2026-04-03T10:46:04.168Z</time></trkpt><trkpt lat="44.1747285" lon="12.2218304"><ele>25.0</ele><time>2026-04-03T10:46:05.169Z</time></trkpt><trkpt lat="44.1746756" lon="12.2219906"><ele>24.5</ele><time>2026-04-03T10:46:06.168Z</time></trkpt><trkpt lat="44.1746245" lon="12.2221396"><ele>24.0</ele><time>2026-04-03T10:46:07.168Z</time></trkpt><trkpt lat="44.1745792" lon="12.2222682"><ele>23.857142857142854</ele><time>2026-04-03T10:46:08.168Z</time></trkpt><trkpt lat="44.1745393" lon="12.2223754"><ele>23.714285714285715</ele><time>2026-04-03T10:46:09.168Z</time></trkpt><trkpt lat="44.1745011" lon="12.2224603"><ele>23.57142857142857</ele><time>2026-04-03T10:46:10.168Z</time></trkpt><trkpt lat="44.1744553" lon="12.2225311"><ele>23.428571428571427</ele><time>2026-04-03T10:46:11.169Z</time></trkpt><trkpt lat="44.1744077" lon="12.2225971"><ele>23.285714285714285</ele><time>2026-04-03T10:46:12.169Z</time></trkpt><trkpt lat="44.1743646" lon="12.2226719"><ele>23.142857142857142</ele><time>2026-04-03T10:46:13.168Z</time></trkpt><trkpt lat="44.1743356" lon="12.2227644"><ele>23.0</ele><time>2026-04-03T10:46:14.169Z</time></trkpt><trkpt lat="44.1743194" lon="12.222869"><ele>23.0</ele><time>2026-04-03T10:46:15.169Z</time></trkpt><trkpt lat="44.1743031" lon="12.2229874"><ele>23.0</ele><time>2026-04-03T10:46:16.169Z</time></trkpt><trkpt lat="44.1742768" lon="12.2231103"><ele>23.0</ele><time>2026-04-03T10:46:17.168Z</time></trkpt><trkpt lat="44.1742372" lon="12.2232416"><ele>23.0</ele><time>2026-04-03T10:46:18.168Z</time></trkpt><trkpt lat="44.17419" lon="12.2233797"><ele>23.0</ele><time>2026-04-03T10:46:19.168Z</time></trkpt><trkpt lat="44.1741404" lon="12.2235193"><ele>23.25</ele><time>2026-04-03T10:46:20.168Z</time></trkpt><trkpt lat="44.1740898" lon="12.2236638"><ele>23.5</ele><time>2026-04-03T10:46:21.168Z</time></trkpt><trkpt lat="44.1740376" lon="12.2238157"><ele>23.75</ele><time>2026-04-03T10:46:22.168Z</time></trkpt><trkpt lat="44.1739865" lon="12.2239639"><ele>24.0</ele><time>2026-04-03T10:46:23.169Z</time></trkpt><trkpt lat="44.1739332" lon="12.2241172"><ele>24.5</ele><time>2026-04-03T10:46:24.169Z</time></trkpt><trkpt lat="44.1738792" lon="12.2242681"><ele>25.0</ele><time>2026-04-03T10:46:25.168Z</time></trkpt><trkpt lat="44.1738235" lon="12.2244219"><ele>25.5</ele><time>2026-04-03T10:46:26.168Z</time></trkpt><trkpt lat="44.1737665" lon="12.2245825"><ele>26.0</ele><time>2026-04-03T10:46:27.169Z</time></trkpt><trkpt lat="44.1737131" lon="12.2247381"><ele>26.25</ele><time>2026-04-03T10:46:28.169Z</time></trkpt><trkpt lat="44.1736591" lon="12.2248983"><ele>26.5</ele><time>2026-04-03T10:46:29.169Z</time></trkpt><trkpt lat="44.1736026" lon="12.2250643"><ele>26.75</ele><time>2026-04-03T10:46:30.168Z</time></trkpt><trkpt lat="44.1735459" lon="12.2252309"><ele>27.0</ele><time>2026-04-03T10:46:31.169Z</time></trkpt><trkpt lat="44.173487" lon="12.2254036"><ele>27.0</ele><time>2026-04-03T10:46:32.17Z</time></trkpt><trkpt lat="44.1734302" lon="12.225568"><ele>27.0</ele><time>2026-04-03T10:46:33.169Z</time></trkpt><trkpt lat="44.1733717" lon="12.2257353"><ele>27.0</ele><time>2026-04-03T10:46:34.17Z</time></trkpt><trkpt lat="44.1733107" lon="12.2259069"><ele>27.0</ele><time>2026-04-03T10:46:35.169Z</time></trkpt><trkpt lat="44.1732507" lon="12.2260751"><ele>27.0</ele><time>2026-04-03T10:46:36.168Z</time></trkpt><trkpt lat="44.1731929" lon="12.2262377"><ele>27.0</ele><time>2026-04-03T10:46:37.169Z</time></trkpt><trkpt lat="44.1731352" lon="12.2264039"><ele>27.0</ele><time>2026-04-03T10:46:38.168Z</time></trkpt><trkpt lat="44.1730791" lon="12.2265669"><ele>27.0</ele><time>2026-04-03T10:46:39.168Z</time></trkpt><trkpt lat="44.1730204" lon="12.2267365"><ele>27.0</ele><time>2026-04-03T10:46:40.17Z</time></trkpt><trkpt lat="44.1729624" lon="12.2269045"><ele>27.0</ele><time>2026-04-03T10:46:41.169Z</time></trkpt><trkpt lat="44.1729049" lon="12.2270696"><ele>27.0</ele><time>2026-04-03T10:46:42.168Z</time></trkpt><trkpt lat="44.1728447" lon="12.2272423"><ele>27.0</ele><time>2026-04-03T10:46:43.168Z</time></trkpt><trkpt lat="44.1727849" lon="12.2274137"><ele>27.0</ele><time>2026-04-03T10:46:44.168Z</time></trkpt><trkpt lat="44.1727237" lon="12.2275873"><ele>27.0</ele><time>2026-04-03T10:46:45.169Z</time></trkpt><trkpt lat="44.1726633" lon="12.2277582"><ele>27.0</ele><time>2026-04-03T10:46:46.168Z</time></trkpt><trkpt lat="44.1726046" lon="12.2279251"><ele>27.0</ele><time>2026-04-03T10:46:47.169Z</time></trkpt><trkpt lat="44.1725451" lon="12.2280945"><ele>27.0</ele><time>2026-04-03T10:46:48.17Z</time></trkpt><trkpt lat="44.1724869" lon="12.2282583"><ele>27.0</ele><time>2026-04-03T10:46:49.168Z</time></trkpt><trkpt lat="44.1724283" lon="12.2284237"><ele>27.0</ele><time>2026-04-03T10:46:50.168Z</time></trkpt><trkpt lat="44.172368" lon="12.2285953"><ele>27.0</ele><time>2026-04-03T10:46:51.17Z</time></trkpt><trkpt lat="44.1723065" lon="12.2287706"><ele>27.0</ele><time>2026-04-03T10:46:52.169Z</time></trkpt><trkpt lat="44.1722458" lon="12.2289449"><ele>27.0</ele><time>2026-04-03T10:46:53.17Z</time></trkpt><trkpt lat="44.1721842" lon="12.2291226"><ele>27.0</ele><time>2026-04-03T10:46:54.169Z</time></trkpt><trkpt lat="44.1721213" lon="12.2293037"><ele>27.0</ele><time>2026-04-03T10:46:55.169Z</time></trkpt><trkpt lat="44.1720529" lon="12.2295018"><ele>27.0</ele><time>2026-04-03T10:46:56.168Z</time></trkpt><trkpt lat="44.1719873" lon="12.2296914"><ele>27.0</ele><time>2026-04-03T10:46:57.17Z</time></trkpt><trkpt lat="44.1719206" lon="12.2298848"><ele>27.0</ele><time>2026-04-03T10:46:58.169Z</time></trkpt><trkpt lat="44.1718522" lon="12.2300814"><ele>26.666666666666664</ele><time>2026-04-03T10:46:59.169Z</time></trkpt><trkpt lat="44.17178" lon="12.230285"><ele>26.333333333333332</ele><time>2026-04-03T10:47:00.169Z</time></trkpt><trkpt lat="44.1717072" lon="12.2304808"><ele>26.0</ele><time>2026-04-03T10:47:01.168Z</time></trkpt><trkpt lat="44.1716299" lon="12.2306754"><ele>26.0</ele><time>2026-04-03T10:47:02.168Z</time></trkpt><trkpt lat="44.1715506" lon="12.23086"><ele>26.0</ele><time>2026-04-03T10:47:03.169Z</time></trkpt><trkpt lat="44.1714614" lon="12.2310506"><ele>26.0</ele><time>2026-04-03T10:47:04.168Z</time></trkpt><trkpt lat="44.1713723" lon="12.2312264"><ele>26.0</ele><time>2026-04-03T10:47:05.169Z</time></trkpt><trkpt lat="44.171278" lon="12.2314003"><ele>26.0</ele><time>2026-04-03T10:47:06.168Z</time></trkpt><trkpt lat="44.1711775" lon="12.2315736"><ele>26.0</ele><time>2026-04-03T10:47:07.169Z</time></trkpt><trkpt lat="44.1710767" lon="12.2317343"><ele>26.0</ele><time>2026-04-03T10:47:08.169Z</time></trkpt><trkpt lat="44.1709698" lon="12.2318907"><ele>26.0</ele><time>2026-04-03T10:47:09.168Z</time></trkpt><trkpt lat="44.1708573" lon="12.232046"><ele>26.0</ele><time>2026-04-03T10:47:10.168Z</time></trkpt><trkpt lat="44.1707483" lon="12.232192"><ele>26.0</ele><time>2026-04-03T10:47:11.168Z</time></trkpt><trkpt lat="44.1706323" lon="12.2323469"><ele>26.0</ele><time>2026-04-03T10:47:12.168Z</time></trkpt><trkpt lat="44.170525" lon="12.2324899"><ele>26.0</ele><time>2026-04-03T10:47:13.169Z</time></trkpt><trkpt lat="44.1704206" lon="12.23263"><ele>26.0</ele><time>2026-04-03T10:47:14.168Z</time></trkpt><trkpt lat="44.1703141" lon="12.2327703"><ele>26.0</ele><time>2026-04-03T10:47:15.17Z</time></trkpt><trkpt lat="44.1702078" lon="12.2329093"><ele>26.0</ele><time>2026-04-03T10:47:16.168Z</time></trkpt><trkpt lat="44.1701029" lon="12.2330469"><ele>26.0</ele><time>2026-04-03T10:47:17.168Z</time></trkpt><trkpt lat="44.1699956" lon="12.233188"><ele>26.0</ele><time>2026-04-03T10:47:18.17Z</time></trkpt><trkpt lat="44.1698893" lon="12.2333271"><ele>26.0</ele><time>2026-04-03T10:47:19.168Z</time></trkpt><trkpt lat="44.1697798" lon="12.2334727"><ele>26.0</ele><time>2026-04-03T10:47:20.168Z</time></trkpt><trkpt lat="44.1696726" lon="12.2336166"><ele>26.0</ele><time>2026-04-03T10:47:21.17Z</time></trkpt><trkpt lat="44.1695674" lon="12.2337613"><ele>26.0</ele><time>2026-04-03T10:47:22.169Z</time></trkpt><trkpt lat="44.1694621" lon="12.2339097"><ele>26.0</ele><time>2026-04-03T10:47:23.168Z</time></trkpt><trkpt lat="44.1693654" lon="12.234055"><ele>26.0</ele><time>2026-04-03T10:47:24.168Z</time></trkpt><trkpt lat="44.1692745" lon="12.2342045"><ele>26.0</ele><time>2026-04-03T10:47:25.168Z</time></trkpt><trkpt lat="44.1691899" lon="12.234354"><ele>26.0</ele><time>2026-04-03T10:47:26.168Z</time></trkpt><trkpt lat="44.1691085" lon="12.2345132"><ele>26.0</ele><time>2026-04-03T10:47:27.169Z</time></trkpt><trkpt lat="44.1690335" lon="12.2346792"><ele>26.0</ele><time>2026-04-03T10:47:28.169Z</time></trkpt><trkpt lat="44.1689628" lon="12.234857"><ele>26.0</ele><time>2026-04-03T10:47:29.168Z</time></trkpt><trkpt lat="44.1688972" lon="12.2350451"><ele>26.0</ele><time>2026-04-03T10:47:30.17Z</time></trkpt><trkpt lat="44.1688387" lon="12.2352463"><ele>26.0</ele><time>2026-04-03T10:47:31.17Z</time></trkpt><trkpt lat="44.1687901" lon="12.2354505"><ele>26.0</ele><time>2026-04-03T10:47:32.169Z</time></trkpt><trkpt lat="44.1687482" lon="12.2356637"><ele>26.0</ele><time>2026-04-03T10:47:33.169Z</time></trkpt><trkpt lat="44.1687114" lon="12.2358855"><ele>26.0</ele><time>2026-04-03T10:47:34.169Z</time></trkpt><trkpt lat="44.168679" lon="12.2361145"><ele>26.0</ele><time>2026-04-03T10:47:35.168Z</time></trkpt><trkpt lat="44.1686488" lon="12.2363453"><ele>24.666666666666664</ele><time>2026-04-03T10:47:36.168Z</time></trkpt><trkpt lat="44.1686199" lon="12.2365736"><ele>23.333333333333332</ele><time>2026-04-03T10:47:37.169Z</time></trkpt><trkpt lat="44.168591" lon="12.2368017"><ele>22.0</ele><time>2026-04-03T10:47:38.169Z</time></trkpt><trkpt lat="44.1685624" lon="12.2370321"><ele>22.0</ele><time>2026-04-03T10:47:39.169Z</time></trkpt><trkpt lat="44.168536" lon="12.2372461"><ele>22.0</ele><time>2026-04-03T10:47:40.168Z</time></trkpt><trkpt lat="44.1685092" lon="12.2374669"><ele>22.0</ele><time>2026-04-03T10:47:41.168Z</time></trkpt><trkpt lat="44.168482" lon="12.2376854"><ele>22.0</ele><time>2026-04-03T10:47:42.168Z</time></trkpt><trkpt lat="44.1684554" lon="12.2378977"><ele>22.0</ele><time>2026-04-03T10:47:43.169Z</time></trkpt><trkpt lat="44.1684296" lon="12.2381157"><ele>22.0</ele><time>2026-04-03T10:47:44.169Z</time></trkpt><trkpt lat="44.1684031" lon="12.2383315"><ele>22.666666666666664</ele><time>2026-04-03T10:47:45.168Z</time></trkpt><trkpt lat="44.1683762" lon="12.238553"><ele>23.333333333333332</ele><time>2026-04-03T10:47:46.169Z</time></trkpt><trkpt lat="44.1683481" lon="12.2387776"><ele>24.0</ele><time>2026-04-03T10:47:47.17Z</time></trkpt><trkpt lat="44.16832" lon="12.2390035"><ele>24.333333333333336</ele><time>2026-04-03T10:47:48.169Z</time></trkpt><trkpt lat="44.1682913" lon="12.2392227"><ele>24.666666666666668</ele><time>2026-04-03T10:47:49.168Z</time></trkpt><trkpt lat="44.1682622" lon="12.2394381"><ele>25.0</ele><time>2026-04-03T10:47:50.168Z</time></trkpt><trkpt lat="44.1682303" lon="12.2396494"><ele>25.333333333333336</ele><time>2026-04-03T10:47:51.169Z</time></trkpt><trkpt lat="44.1681933" lon="12.2398583"><ele>25.666666666666664</ele><time>2026-04-03T10:47:52.168Z</time></trkpt><trkpt lat="44.1681509" lon="12.2400609"><ele>26.0</ele><time>2026-04-03T10:47:53.169Z</time></trkpt><trkpt lat="44.1681043" lon="12.2402546"><ele>25.75</ele><time>2026-04-03T10:47:54.169Z</time></trkpt><trkpt lat="44.1680523" lon="12.2404454"><ele>25.5</ele><time>2026-04-03T10:47:55.168Z</time></trkpt><trkpt lat="44.1679943" lon="12.2406294"><ele>25.25</ele><time>2026-04-03T10:47:56.169Z</time></trkpt><trkpt lat="44.1679327" lon="12.2408007"><ele>25.0</ele><time>2026-04-03T10:47:57.168Z</time></trkpt><trkpt lat="44.1678663" lon="12.240966"><ele>25.0</ele><time>2026-04-03T10:47:58.168Z</time></trkpt><trkpt lat="44.1678007" lon="12.2411161"><ele>25.0</ele><time>2026-04-03T10:47:59.169Z</time></trkpt><trkpt lat="44.1677392" lon="12.2412452"><ele>25.0</ele><time>2026-04-03T10:48:00.168Z</time></trkpt><trkpt lat="44.1676744" lon="12.2413475"><ele>25.0</ele><time>2026-04-03T10:48:01.168Z</time></trkpt><trkpt lat="44.1676024" lon="12.2414204"><ele>25.0</ele><time>2026-04-03T10:48:02.169Z</time></trkpt><trkpt lat="44.1675169" lon="12.2414697"><ele>25.166666666666668</ele><time>2026-04-03T10:48:03.168Z</time></trkpt><trkpt lat="44.1674325" lon="12.2415056"><ele>25.333333333333336</ele><time>2026-04-03T10:48:04.169Z</time></trkpt><trkpt lat="44.1673474" lon="12.2415537"><ele>25.5</ele><time>2026-04-03T10:48:05.168Z</time></trkpt><trkpt lat="44.1672759" lon="12.2416282"><ele>25.666666666666664</ele><time>2026-04-03T10:48:06.168Z</time></trkpt><trkpt lat="44.1672265" lon="12.2417256"><ele>25.833333333333332</ele><time>2026-04-03T10:48:07.168Z</time></trkpt><trkpt lat="44.1671869" lon="12.2418408"><ele>26.0</ele><time>2026-04-03T10:48:08.169Z</time></trkpt><trkpt lat="44.167142" lon="12.2419523"><ele>26.0</ele><time>2026-04-03T10:48:09.169Z</time></trkpt><trkpt lat="44.1670819" lon="12.2420535"><ele>26.0</ele><time>2026-04-03T10:48:10.168Z</time></trkpt><trkpt lat="44.1670039" lon="12.2421423"><ele>26.0</ele><time>2026-04-03T10:48:11.169Z</time></trkpt><trkpt lat="44.1669127" lon="12.242222"><ele>26.0</ele><time>2026-04-03T10:48:12.17Z</time></trkpt><trkpt lat="44.1668121" lon="12.242297"><ele>26.0</ele><time>2026-04-03T10:48:13.169Z</time></trkpt><trkpt lat="44.1667003" lon="12.2423704"><ele>26.25</ele><time>2026-04-03T10:48:14.169Z</time></trkpt><trkpt lat="44.1665833" lon="12.2424386"><ele>26.5</ele><time>2026-04-03T10:48:15.169Z</time></trkpt><trkpt lat="44.1664565" lon="12.2425019"><ele>26.75</ele><time>2026-04-03T10:48:16.169Z</time></trkpt><trkpt lat="44.1663233" lon="12.2425598"><ele>27.0</ele><time>2026-04-03T10:48:17.169Z</time></trkpt><trkpt lat="44.1661852" lon="12.2426096"><ele>26.75</ele><time>2026-04-03T10:48:18.169Z</time></trkpt><trkpt lat="44.1660384" lon="12.2426514"><ele>26.5</ele><time>2026-04-03T10:48:19.168Z</time></trkpt><trkpt lat="44.1658948" lon="12.2426799"><ele>26.25</ele><time>2026-04-03T10:48:20.17Z</time></trkpt><trkpt lat="44.1657466" lon="12.2426986"><ele>26.0</ele><time>2026-04-03T10:48:21.168Z</time></trkpt><trkpt lat="44.1655969" lon="12.2427085"><ele>26.0</ele><time>2026-04-03T10:48:22.168Z</time></trkpt><trkpt lat="44.1654412" lon="12.2427116"><ele>26.0</ele><time>2026-04-03T10:48:23.168Z</time></trkpt><trkpt lat="44.1652834" lon="12.2427115"><ele>26.0</ele><time>2026-04-03T10:48:24.169Z</time></trkpt><trkpt lat="44.1651299" lon="12.2427118"><ele>26.0</ele><time>2026-04-03T10:48:25.168Z</time></trkpt><trkpt lat="44.1649802" lon="12.2427115"><ele>26.0</ele><time>2026-04-03T10:48:26.169Z</time></trkpt><trkpt lat="44.1648281" lon="12.2427095"><ele>26.0</ele><time>2026-04-03T10:48:27.169Z</time></trkpt><trkpt lat="44.1646857" lon="12.2427059"><ele>26.0</ele><time>2026-04-03T10:48:28.168Z</time></trkpt><trkpt lat="44.1645474" lon="12.2427007"><ele>26.25</ele><time>2026-04-03T10:48:29.169Z</time></trkpt><trkpt lat="44.1644122" lon="12.2426964"><ele>26.5</ele><time>2026-04-03T10:48:30.168Z</time></trkpt><trkpt lat="44.1642801" lon="12.2426921"><ele>26.75</ele><time>2026-04-03T10:48:31.168Z</time></trkpt><trkpt lat="44.164152" lon="12.2426873"><ele>27.0</ele><time>2026-04-03T10:48:32.169Z</time></trkpt><trkpt lat="44.1640327" lon="12.2426817"><ele>27.0</ele><time>2026-04-03T10:48:33.168Z</time></trkpt><trkpt lat="44.1639208" lon="12.242676"><ele>27.000000000000004</ele><time>2026-04-03T10:48:34.169Z</time></trkpt><trkpt lat="44.1638176" lon="12.2426658"><ele>27.000000000000004</ele><time>2026-04-03T10:48:35.169Z</time></trkpt><trkpt lat="44.1637327" lon="12.2426433"><ele>27.0</ele><time>2026-04-03T10:48:36.169Z</time></trkpt><trkpt lat="44.1636565" lon="12.242603"><ele>27.0</ele><time>2026-04-03T10:48:37.169Z</time></trkpt><trkpt lat="44.1635941" lon="12.2425457"><ele>27.0</ele><time>2026-04-03T10:48:38.168Z</time></trkpt><trkpt lat="44.1635363" lon="12.2424746"><ele>27.0</ele><time>2026-04-03T10:48:39.17Z</time></trkpt><trkpt lat="44.1634757" lon="12.2424087"><ele>27.0</ele><time>2026-04-03T10:48:40.169Z</time></trkpt><trkpt lat="44.1634068" lon="12.242359"><ele>27.0</ele><time>2026-04-03T10:48:41.17Z</time></trkpt><trkpt lat="44.16333" lon="12.2423344"><ele>27.0</ele><time>2026-04-03T10:48:42.168Z</time></trkpt><trkpt lat="44.1632456" lon="12.2423438"><ele>27.0</ele><time>2026-04-03T10:48:43.168Z</time></trkpt><trkpt lat="44.1631713" lon="12.2423855"><ele>27.0</ele><time>2026-04-03T10:48:44.17Z</time></trkpt><trkpt lat="44.1631123" lon="12.2424556"><ele>27.0</ele><time>2026-04-03T10:48:45.169Z</time></trkpt><trkpt lat="44.1630785" lon="12.2425489"><ele>27.0</ele><time>2026-04-03T10:48:46.168Z</time></trkpt><trkpt lat="44.1630783" lon="12.2426474"><ele>27.0</ele><time>2026-04-03T10:48:47.168Z</time></trkpt><trkpt lat="44.1631123" lon="12.2427446"><ele>27.0</ele><time>2026-04-03T10:48:48.168Z</time></trkpt><trkpt lat="44.1631649" lon="12.2428321"><ele>27.0</ele><time>2026-04-03T10:48:49.169Z</time></trkpt><trkpt lat="44.1632208" lon="12.2429306"><ele>27.0</ele><time>2026-04-03T10:48:50.169Z</time></trkpt><trkpt lat="44.1632681" lon="12.2430509"><ele>27.000000000000004</ele><time>2026-04-03T10:48:51.168Z</time></trkpt><trkpt lat="44.1632971" lon="12.2431836"><ele>27.000000000000004</ele><time>2026-04-03T10:48:52.169Z</time></trkpt><trkpt lat="44.1633147" lon="12.2433326"><ele>27.0</ele><time>2026-04-03T10:48:53.168Z</time></trkpt><trkpt lat="44.1633319" lon="12.2434948"><ele>27.0</ele><time>2026-04-03T10:48:54.169Z</time></trkpt><trkpt lat="44.1633552" lon="12.2436612"><ele>27.25</ele><time>2026-04-03T10:48:55.168Z</time></trkpt><trkpt lat="44.1633859" lon="12.2438315"><ele>27.5</ele><time>2026-04-03T10:48:56.169Z</time></trkpt><trkpt lat="44.1634217" lon="12.2440007"><ele>27.75</ele><time>2026-04-03T10:48:57.169Z</time></trkpt><trkpt lat="44.1634619" lon="12.2441665"><ele>28.0</ele><time>2026-04-03T10:48:58.168Z</time></trkpt><trkpt lat="44.1635041" lon="12.2443249"><ele>28.0</ele><time>2026-04-03T10:48:59.169Z</time></trkpt><trkpt lat="44.1635445" lon="12.2444662"><ele>27.999999999999996</ele><time>2026-04-03T10:49:00.169Z</time></trkpt><trkpt lat="44.1635842" lon="12.2445971"><ele>27.999999999999996</ele><time>2026-04-03T10:49:01.168Z</time></trkpt><trkpt lat="44.1636248" lon="12.2447251"><ele>28.0</ele><time>2026-04-03T10:49:02.168Z</time></trkpt><trkpt lat="44.1636648" lon="12.2448461"><ele>28.0</ele><time>2026-04-03T10:49:03.168Z</time></trkpt><trkpt lat="44.1637073" lon="12.2449711"><ele>28.2</ele><time>2026-04-03T10:49:04.169Z</time></trkpt><trkpt lat="44.1637508" lon="12.2450955"><ele>28.4</ele><time>2026-04-03T10:49:05.168Z</time></trkpt><trkpt lat="44.1637984" lon="12.2452247"><ele>28.599999999999998</ele><time>2026-04-03T10:49:06.169Z</time></trkpt><trkpt lat="44.1638488" lon="12.2453542"><ele>28.799999999999997</ele><time>2026-04-03T10:49:07.168Z</time></trkpt><trkpt lat="44.1639018" lon="12.2454854"><ele>29.0</ele><time>2026-04-03T10:49:08.17Z</time></trkpt><trkpt lat="44.1639588" lon="12.2456197"><ele>28.5</ele><time>2026-04-03T10:49:09.169Z</time></trkpt><trkpt lat="44.1640184" lon="12.2457511"><ele>28.0</ele><time>2026-04-03T10:49:10.169Z</time></trkpt><trkpt lat="44.1640839" lon="12.2458858"><ele>27.5</ele><time>2026-04-03T10:49:11.168Z</time></trkpt><trkpt lat="44.1641578" lon="12.2460287"><ele>27.0</ele><time>2026-04-03T10:49:12.168Z</time></trkpt><trkpt lat="44.1642303" lon="12.2461638"><ele>27.0</ele><time>2026-04-03T10:49:13.167Z</time></trkpt><trkpt lat="44.1643084" lon="12.2463071"><ele>27.0</ele><time>2026-04-03T10:49:14.169Z</time></trkpt><trkpt lat="44.1643889" lon="12.2464541"><ele>27.0</ele><time>2026-04-03T10:49:15.168Z</time></trkpt><trkpt lat="44.1644702" lon="12.2466021"><ele>27.0</ele><time>2026-04-03T10:49:16.168Z</time></trkpt><trkpt lat="44.1645529" lon="12.2467534"><ele>27.0</ele><time>2026-04-03T10:49:17.168Z</time></trkpt><trkpt lat="44.1646326" lon="12.2469003"><ele>27.0</ele><time>2026-04-03T10:49:18.167Z</time></trkpt><trkpt lat="44.1647131" lon="12.2470513"><ele>27.0</ele><time>2026-04-03T10:49:19.168Z</time></trkpt><trkpt lat="44.1647939" lon="12.2472035"><ele>27.0</ele><time>2026-04-03T10:49:20.168Z</time></trkpt><trkpt lat="44.1648748" lon="12.2473568"><ele>26.75</ele><time>2026-04-03T10:49:21.168Z</time></trkpt><trkpt lat="44.1649578" lon="12.2475149"><ele>26.5</ele><time>2026-04-03T10:49:22.167Z</time></trkpt><trkpt lat="44.1650406" lon="12.2476712"><ele>26.25</ele><time>2026-04-03T10:49:23.167Z</time></trkpt><trkpt lat="44.1651255" lon="12.2478322"><ele>26.0</ele><time>2026-04-03T10:49:24.167Z</time></trkpt><trkpt lat="44.1652085" lon="12.24799"><ele>26.25</ele><time>2026-04-03T10:49:25.167Z</time></trkpt><trkpt lat="44.1652948" lon="12.2481522"><ele>26.5</ele><time>2026-04-03T10:49:26.167Z</time></trkpt><trkpt lat="44.1653833" lon="12.2483185"><ele>26.75</ele><time>2026-04-03T10:49:27.169Z</time></trkpt><trkpt lat="44.165473" lon="12.2484872"><ele>27.0</ele><time>2026-04-03T10:49:28.168Z</time></trkpt><trkpt lat="44.1655628" lon="12.2486553"><ele>27.0</ele><time>2026-04-03T10:49:29.168Z</time></trkpt><trkpt lat="44.1656532" lon="12.2488253"><ele>27.0</ele><time>2026-04-03T10:49:30.168Z</time></trkpt><trkpt lat="44.1657446" lon="12.2489979"><ele>27.0</ele><time>2026-04-03T10:49:31.168Z</time></trkpt><trkpt lat="44.165835" lon="12.2491702"><ele>27.0</ele><time>2026-04-03T10:49:32.167Z</time></trkpt><trkpt lat="44.1659251" lon="12.2493421"><ele>27.0</ele><time>2026-04-03T10:49:33.168Z</time></trkpt><trkpt lat="44.1660136" lon="12.2495086"><ele>27.0</ele><time>2026-04-03T10:49:34.167Z</time></trkpt><trkpt lat="44.1661011" lon="12.2496709"><ele>27.0</ele><time>2026-04-03T10:49:35.167Z</time></trkpt><trkpt lat="44.1661926" lon="12.2498408"><ele>27.0</ele><time>2026-04-03T10:49:36.168Z</time></trkpt><trkpt lat="44.166275" lon="12.2499963"><ele>27.0</ele><time>2026-04-03T10:49:37.169Z</time></trkpt><trkpt lat="44.1663573" lon="12.2501537"><ele>27.0</ele><time>2026-04-03T10:49:38.167Z</time></trkpt><trkpt lat="44.1664391" lon="12.2503135"><ele>27.0</ele><time>2026-04-03T10:49:39.169Z</time></trkpt><trkpt lat="44.1665141" lon="12.2504613"><ele>27.0</ele><time>2026-04-03T10:49:40.167Z</time></trkpt><trkpt lat="44.1665861" lon="12.2506151"><ele>27.0</ele><time>2026-04-03T10:49:41.168Z</time></trkpt><trkpt lat="44.1666548" lon="12.2507723"><ele>27.0</ele><time>2026-04-03T10:49:42.167Z</time></trkpt><trkpt lat="44.1667219" lon="12.2509392"><ele>27.0</ele><time>2026-04-03T10:49:43.168Z</time></trkpt><trkpt lat="44.1667878" lon="12.2511196"><ele>27.0</ele><time>2026-04-03T10:49:44.167Z</time></trkpt><trkpt lat="44.1668441" lon="12.2512998"><ele>27.0</ele><time>2026-04-03T10:49:45.168Z</time></trkpt><trkpt lat="44.1668957" lon="12.2514859"><ele>27.0</ele><time>2026-04-03T10:49:46.167Z</time></trkpt><trkpt lat="44.1669444" lon="12.2516928"><ele>27.0</ele><time>2026-04-03T10:49:47.167Z</time></trkpt><trkpt lat="44.1669828" lon="12.2518922"><ele>26.666666666666664</ele><time>2026-04-03T10:49:48.168Z</time></trkpt><trkpt lat="44.1670149" lon="12.2521017"><ele>26.333333333333332</ele><time>2026-04-03T10:49:49.167Z</time></trkpt><trkpt lat="44.1670416" lon="12.2523125"><ele>26.0</ele><time>2026-04-03T10:49:50.168Z</time></trkpt><trkpt lat="44.1670655" lon="12.2525149"><ele>26.0</ele><time>2026-04-03T10:49:51.167Z</time></trkpt><trkpt lat="44.1670912" lon="12.2527273"><ele>26.0</ele><time>2026-04-03T10:49:52.168Z</time></trkpt><trkpt lat="44.1671153" lon="12.2529241"><ele>26.0</ele><time>2026-04-03T10:49:53.167Z</time></trkpt><trkpt lat="44.1671389" lon="12.2531168"><ele>26.0</ele><time>2026-04-03T10:49:54.168Z</time></trkpt><trkpt lat="44.1671642" lon="12.2533249"><ele>26.0</ele><time>2026-04-03T10:49:55.167Z</time></trkpt><trkpt lat="44.1671877" lon="12.253518"><ele>26.0</ele><time>2026-04-03T10:49:56.167Z</time></trkpt><trkpt lat="44.1672127" lon="12.2537218"><ele>26.0</ele><time>2026-04-03T10:49:57.169Z</time></trkpt><trkpt lat="44.1672371" lon="12.2539214"><ele>26.0</ele><time>2026-04-03T10:49:58.168Z</time></trkpt><trkpt lat="44.1672627" lon="12.2541232"><ele>26.0</ele><time>2026-04-03T10:49:59.167Z</time></trkpt><trkpt lat="44.16729" lon="12.2543343"><ele>26.0</ele><time>2026-04-03T10:50:00.168Z</time></trkpt><trkpt lat="44.1673162" lon="12.2545413"><ele>26.0</ele><time>2026-04-03T10:50:01.167Z</time></trkpt><trkpt lat="44.1673426" lon="12.2547526"><ele>25.666666666666664</ele><time>2026-04-03T10:50:02.168Z</time></trkpt><trkpt lat="44.1673686" lon="12.2549638"><ele>25.333333333333336</ele><time>2026-04-03T10:50:03.167Z</time></trkpt><trkpt lat="44.1673935" lon="12.2551706"><ele>25.0</ele><time>2026-04-03T10:50:04.167Z</time></trkpt><trkpt lat="44.1674178" lon="12.2553764"><ele>25.0</ele><time>2026-04-03T10:50:05.167Z</time></trkpt><trkpt lat="44.1674418" lon="12.2555778"><ele>25.0</ele><time>2026-04-03T10:50:06.168Z</time></trkpt><trkpt lat="44.1674665" lon="12.2557838"><ele>25.0</ele><time>2026-04-03T10:50:07.168Z</time></trkpt><trkpt lat="44.1674927" lon="12.2559938"><ele>25.0</ele><time>2026-04-03T10:50:08.169Z</time></trkpt><trkpt lat="44.1675191" lon="12.2561954"><ele>25.0</ele><time>2026-04-03T10:50:09.167Z</time></trkpt><trkpt lat="44.1675465" lon="12.2564037"><ele>25.0</ele><time>2026-04-03T10:50:10.167Z</time></trkpt><trkpt lat="44.1675733" lon="12.2566121"><ele>25.0</ele><time>2026-04-03T10:50:11.168Z</time></trkpt><trkpt lat="44.1676005" lon="12.256828"><ele>25.0</ele><time>2026-04-03T10:50:12.167Z</time></trkpt><trkpt lat="44.167626" lon="12.257036"><ele>25.0</ele><time>2026-04-03T10:50:13.167Z</time></trkpt><trkpt lat="44.1676513" lon="12.257248"><ele>25.0</ele><time>2026-04-03T10:50:14.168Z</time></trkpt><trkpt lat="44.1676764" lon="12.2574587"><ele>24.666666666666668</ele><time>2026-04-03T10:50:15.167Z</time></trkpt><trkpt lat="44.1677022" lon="12.2576796"><ele>24.333333333333336</ele><time>2026-04-03T10:50:16.168Z</time></trkpt><trkpt lat="44.1677277" lon="12.257899"><ele>24.0</ele><time>2026-04-03T10:50:17.168Z</time></trkpt><trkpt lat="44.1677508" lon="12.2581191"><ele>23.666666666666668</ele><time>2026-04-03T10:50:18.167Z</time></trkpt><trkpt lat="44.1677714" lon="12.2583465"><ele>23.333333333333336</ele><time>2026-04-03T10:50:19.167Z</time></trkpt><trkpt lat="44.1677901" lon="12.2585693"><ele>23.0</ele><time>2026-04-03T10:50:20.168Z</time></trkpt><trkpt lat="44.1678067" lon="12.2587865"><ele>23.0</ele><time>2026-04-03T10:50:21.167Z</time></trkpt><trkpt lat="44.1678223" lon="12.2590071"><ele>23.0</ele><time>2026-04-03T10:50:22.167Z</time></trkpt><trkpt lat="44.167837" lon="12.2592334"><ele>23.0</ele><time>2026-04-03T10:50:23.168Z</time></trkpt><trkpt lat="44.167851" lon="12.2594624"><ele>23.0</ele><time>2026-04-03T10:50:24.168Z</time></trkpt><trkpt lat="44.1678637" lon="12.2596912"><ele>23.0</ele><time>2026-04-03T10:50:25.167Z</time></trkpt><trkpt lat="44.167876" lon="12.2599148"><ele>23.0</ele><time>2026-04-03T10:50:26.167Z</time></trkpt><trkpt lat="44.1678883" lon="12.2601463"><ele>23.666666666666668</ele><time>2026-04-03T10:50:27.167Z</time></trkpt><trkpt lat="44.1679002" lon="12.2603775"><ele>24.333333333333336</ele><time>2026-04-03T10:50:28.168Z</time></trkpt><trkpt lat="44.1679121" lon="12.2606151"><ele>25.0</ele><time>2026-04-03T10:50:29.167Z</time></trkpt><trkpt lat="44.1679241" lon="12.2608474"><ele>25.0</ele><time>2026-04-03T10:50:30.168Z</time></trkpt><trkpt lat="44.1679362" lon="12.2610772"><ele>25.0</ele><time>2026-04-03T10:50:31.167Z</time></trkpt><trkpt lat="44.1679493" lon="12.261317"><ele>25.0</ele><time>2026-04-03T10:50:32.167Z</time></trkpt><trkpt lat="44.1679621" lon="12.2615472"><ele>25.0</ele><time>2026-04-03T10:50:33.167Z</time></trkpt><trkpt lat="44.1679743" lon="12.2617703"><ele>25.0</ele><time>2026-04-03T10:50:34.168Z</time></trkpt><trkpt lat="44.1679872" lon="12.2620053"><ele>25.0</ele><time>2026-04-03T10:50:35.167Z</time></trkpt><trkpt lat="44.1679978" lon="12.2622182"><ele>24.666666666666668</ele><time>2026-04-03T10:50:36.167Z</time></trkpt><trkpt lat="44.1680076" lon="12.2624347"><ele>24.333333333333336</ele><time>2026-04-03T10:50:37.168Z</time></trkpt><trkpt lat="44.1680163" lon="12.2626444"><ele>24.0</ele><time>2026-04-03T10:50:38.167Z</time></trkpt><trkpt lat="44.1680251" lon="12.2628516"><ele>24.0</ele><time>2026-04-03T10:50:39.167Z</time></trkpt><trkpt lat="44.1680348" lon="12.2630575"><ele>24.0</ele><time>2026-04-03T10:50:40.167Z</time></trkpt><trkpt lat="44.1680452" lon="12.2632649"><ele>24.0</ele><time>2026-04-03T10:50:41.168Z</time></trkpt><trkpt lat="44.1680556" lon="12.263469"><ele>24.0</ele><time>2026-04-03T10:50:42.167Z</time></trkpt><trkpt lat="44.1680663" lon="12.2636838"><ele>23.333333333333332</ele><time>2026-04-03T10:50:43.168Z</time></trkpt><trkpt lat="44.168077" lon="12.2638923"><ele>22.666666666666664</ele><time>2026-04-03T10:50:44.167Z</time></trkpt><trkpt lat="44.1680885" lon="12.2641061"><ele>22.0</ele><time>2026-04-03T10:50:45.167Z</time></trkpt><trkpt lat="44.1681005" lon="12.2643269"><ele>21.333333333333332</ele><time>2026-04-03T10:50:46.167Z</time></trkpt><trkpt lat="44.1681121" lon="12.2645443"><ele>20.666666666666668</ele><time>2026-04-03T10:50:47.168Z</time></trkpt><trkpt lat="44.1681251" lon="12.2647807"><ele>20.0</ele><time>2026-04-03T10:50:48.168Z</time></trkpt><trkpt lat="44.1681376" lon="12.2650059"><ele>20.0</ele><time>2026-04-03T10:50:49.167Z</time></trkpt><trkpt lat="44.1681508" lon="12.2652426"><ele>20.0</ele><time>2026-04-03T10:50:50.168Z</time></trkpt><trkpt lat="44.168163" lon="12.2654805"><ele>20.0</ele><time>2026-04-03T10:50:51.167Z</time></trkpt><trkpt lat="44.1681745" lon="12.265707"><ele>20.333333333333336</ele><time>2026-04-03T10:50:52.167Z</time></trkpt><trkpt lat="44.1681855" lon="12.2659305"><ele>20.666666666666668</ele><time>2026-04-03T10:50:53.169Z</time></trkpt><trkpt lat="44.1681964" lon="12.26615"><ele>21.0</ele><time>2026-04-03T10:50:54.167Z</time></trkpt><trkpt lat="44.1682075" lon="12.2663657"><ele>20.666666666666668</ele><time>2026-04-03T10:50:55.168Z</time></trkpt><trkpt lat="44.1682193" lon="12.2665847"><ele>20.333333333333336</ele><time>2026-04-03T10:50:56.168Z</time></trkpt><trkpt lat="44.1682304" lon="12.2667969"><ele>20.0</ele><time>2026-04-03T10:50:57.168Z</time></trkpt><trkpt lat="44.1682418" lon="12.2670059"><ele>20.0</ele><time>2026-04-03T10:50:58.167Z</time></trkpt><trkpt lat="44.1682538" lon="12.267229"><ele>20.0</ele><time>2026-04-03T10:50:59.167Z</time></trkpt><trkpt lat="44.1682656" lon="12.2674398"><ele>20.0</ele><time>2026-04-03T10:51:00.168Z</time></trkpt><trkpt lat="44.1682778" lon="12.2676504"><ele>19.666666666666668</ele><time>2026-04-03T10:51:01.168Z</time></trkpt><trkpt lat="44.1682895" lon="12.2678635"><ele>19.333333333333332</ele><time>2026-04-03T10:51:02.169Z</time></trkpt><trkpt lat="44.1683001" lon="12.2680682"><ele>19.0</ele><time>2026-04-03T10:51:03.167Z</time></trkpt><trkpt lat="44.1683105" lon="12.2682772"><ele>19.0</ele><time>2026-04-03T10:51:04.167Z</time></trkpt><trkpt lat="44.1683199" lon="12.268476"><ele>19.0</ele><time>2026-04-03T10:51:05.167Z</time></trkpt><trkpt lat="44.1683302" lon="12.2686821"><ele>19.0</ele><time>2026-04-03T10:51:06.168Z</time></trkpt><trkpt lat="44.1683406" lon="12.2688849"><ele>19.0</ele><time>2026-04-03T10:51:07.168Z</time></trkpt><trkpt lat="44.1683518" lon="12.2690857"><ele>18.75</ele><time>2026-04-03T10:51:08.167Z</time></trkpt><trkpt lat="44.168363" lon="12.2692884"><ele>18.5</ele><time>2026-04-03T10:51:09.168Z</time></trkpt><trkpt lat="44.1683745" lon="12.2694883"><ele>18.25</ele><time>2026-04-03T10:51:10.168Z</time></trkpt><trkpt lat="44.1683866" lon="12.2696879"><ele>18.0</ele><time>2026-04-03T10:51:11.167Z</time></trkpt><trkpt lat="44.1683982" lon="12.2698929"><ele>18.0</ele><time>2026-04-03T10:51:12.167Z</time></trkpt><trkpt lat="44.1684099" lon="12.2700959"><ele>18.0</ele><time>2026-04-03T10:51:13.167Z</time></trkpt><trkpt lat="44.1684208" lon="12.2702912"><ele>18.0</ele><time>2026-04-03T10:51:14.167Z</time></trkpt><trkpt lat="44.1684316" lon="12.2704914"><ele>18.0</ele><time>2026-04-03T10:51:15.168Z</time></trkpt><trkpt lat="44.1684412" lon="12.2706793"><ele>18.0</ele><time>2026-04-03T10:51:16.167Z</time></trkpt><trkpt lat="44.1684509" lon="12.2708673"><ele>18.0</ele><time>2026-04-03T10:51:17.167Z</time></trkpt><trkpt lat="44.1684603" lon="12.2710532"><ele>18.0</ele><time>2026-04-03T10:51:18.168Z</time></trkpt><trkpt lat="44.1684696" lon="12.2712298"><ele>18.0</ele><time>2026-04-03T10:51:19.167Z</time></trkpt><trkpt lat="44.1684786" lon="12.2713943"><ele>18.0</ele><time>2026-04-03T10:51:20.168Z</time></trkpt><trkpt lat="44.1684875" lon="12.2715449"><ele>18.0</ele><time>2026-04-03T10:51:21.167Z</time></trkpt><trkpt lat="44.1684957" lon="12.2716781"><ele>18.0</ele><time>2026-04-03T10:51:22.168Z</time></trkpt><trkpt lat="44.1684913" lon="12.2717927"><ele>18.0</ele><time>2026-04-03T10:51:23.167Z</time></trkpt><trkpt lat="44.1684613" lon="12.2718828"><ele>18.0</ele><time>2026-04-03T10:51:24.168Z</time></trkpt><trkpt lat="44.1684086" lon="12.2719369"><ele>18.0</ele><time>2026-04-03T10:51:25.167Z</time></trkpt><trkpt lat="44.1683381" lon="12.2719605"><ele>18.0</ele><time>2026-04-03T10:51:26.167Z</time></trkpt><trkpt lat="44.1682537" lon="12.271968"><ele>18.0</ele><time>2026-04-03T10:51:27.168Z</time></trkpt><trkpt lat="44.1681596" lon="12.2719729"><ele>18.0</ele><time>2026-04-03T10:51:28.168Z</time></trkpt><trkpt lat="44.1680604" lon="12.2719779"><ele>18.0</ele><time>2026-04-03T10:51:29.168Z</time></trkpt><trkpt lat="44.1679533" lon="12.2719839"><ele>18.0</ele><time>2026-04-03T10:51:30.167Z</time></trkpt><trkpt lat="44.1678356" lon="12.2719906"><ele>18.25</ele><time>2026-04-03T10:51:31.168Z</time></trkpt><trkpt lat="44.167715" lon="12.2719975"><ele>18.5</ele><time>2026-04-03T10:51:32.167Z</time></trkpt><trkpt lat="44.1675909" lon="12.2720048"><ele>18.75</ele><time>2026-04-03T10:51:33.167Z</time></trkpt><trkpt lat="44.16746" lon="12.2720127"><ele>19.0</ele><time>2026-04-03T10:51:34.168Z</time></trkpt><trkpt lat="44.1673238" lon="12.2720206"><ele>19.25</ele><time>2026-04-03T10:51:35.168Z</time></trkpt><trkpt lat="44.1671883" lon="12.2720271"><ele>19.5</ele><time>2026-04-03T10:51:36.168Z</time></trkpt><trkpt lat="44.1670566" lon="12.2720331"><ele>19.75</ele><time>2026-04-03T10:51:37.167Z</time></trkpt><trkpt lat="44.1669259" lon="12.2720403"><ele>20.0</ele><time>2026-04-03T10:51:38.167Z</time></trkpt><trkpt lat="44.1667935" lon="12.2720492"><ele>20.0</ele><time>2026-04-03T10:51:39.167Z</time></trkpt><trkpt lat="44.1666676" lon="12.2720609"><ele>20.0</ele><time>2026-04-03T10:51:40.168Z</time></trkpt><trkpt lat="44.166541" lon="12.2720761"><ele>20.0</ele><time>2026-04-03T10:51:41.167Z</time></trkpt><trkpt lat="44.1664131" lon="12.272092"><ele>20.0</ele><time>2026-04-03T10:51:42.167Z</time></trkpt><trkpt lat="44.1662908" lon="12.2721083"><ele>20.0</ele><time>2026-04-03T10:51:43.167Z</time></trkpt><trkpt lat="44.1661691" lon="12.2721244"><ele>20.0</ele><time>2026-04-03T10:51:44.168Z</time></trkpt><trkpt lat="44.1660516" lon="12.2721393"><ele>20.0</ele><time>2026-04-03T10:51:45.168Z</time></trkpt><trkpt lat="44.1659394" lon="12.2721519"><ele>20.0</ele><time>2026-04-03T10:51:46.167Z</time></trkpt><trkpt lat="44.1658284" lon="12.2721628"><ele>20.0</ele><time>2026-04-03T10:51:47.167Z</time></trkpt><trkpt lat="44.1657241" lon="12.2721735"><ele>20.0</ele><time>2026-04-03T10:51:48.168Z</time></trkpt><trkpt lat="44.1656241" lon="12.2721833"><ele>20.0</ele><time>2026-04-03T10:51:49.167Z</time></trkpt><trkpt lat="44.1655265" lon="12.272193"><ele>20.0</ele><time>2026-04-03T10:51:50.167Z</time></trkpt><trkpt lat="44.1654293" lon="12.2722023"><ele>20.0</ele><time>2026-04-03T10:51:51.169Z</time></trkpt><trkpt lat="44.1653257" lon="12.2722132"><ele>20.2</ele><time>2026-04-03T10:51:52.168Z</time></trkpt><trkpt lat="44.1652207" lon="12.2722276"><ele>20.4</ele><time>2026-04-03T10:51:53.168Z</time></trkpt><trkpt lat="44.1651164" lon="12.2722438"><ele>20.6</ele><time>2026-04-03T10:51:54.167Z</time></trkpt><trkpt lat="44.1650067" lon="12.2722628"><ele>20.8</ele><time>2026-04-03T10:51:55.168Z</time></trkpt><trkpt lat="44.1648946" lon="12.2722835"><ele>21.0</ele><time>2026-04-03T10:51:56.167Z</time></trkpt><trkpt lat="44.1647889" lon="12.2723031"><ele>21.4</ele><time>2026-04-03T10:51:57.168Z</time></trkpt><trkpt lat="44.1646862" lon="12.2723209"><ele>21.8</ele><time>2026-04-03T10:51:58.168Z</time></trkpt><trkpt lat="44.1645837" lon="12.2723369"><ele>22.2</ele><time>2026-04-03T10:51:59.168Z</time></trkpt><trkpt lat="44.1644804" lon="12.2723518"><ele>22.599999999999998</ele><time>2026-04-03T10:52:00.168Z</time></trkpt><trkpt lat="44.1643832" lon="12.2723664"><ele>23.0</ele><time>2026-04-03T10:52:01.168Z</time></trkpt><trkpt lat="44.1642895" lon="12.2723766"><ele>23.0</ele><time>2026-04-03T10:52:02.167Z</time></trkpt><trkpt lat="44.1641966" lon="12.272381"><ele>23.0</ele><time>2026-04-03T10:52:03.168Z</time></trkpt><trkpt lat="44.164105" lon="12.2723804"><ele>23.0</ele><time>2026-04-03T10:52:04.167Z</time></trkpt><trkpt lat="44.1640172" lon="12.2723787"><ele>23.0</ele><time>2026-04-03T10:52:05.168Z</time></trkpt><trkpt lat="44.1639288" lon="12.2723832"><ele>23.0</ele><time>2026-04-03T10:52:06.167Z</time></trkpt><trkpt lat="44.1638451" lon="12.2723904"><ele>23.0</ele><time>2026-04-03T10:52:07.167Z</time></trkpt><trkpt lat="44.1637626" lon="12.2723983"><ele>23.0</ele><time>2026-04-03T10:52:08.168Z</time></trkpt><trkpt lat="44.1636801" lon="12.2724049"><ele>23.0</ele><time>2026-04-03T10:52:09.167Z</time></trkpt><trkpt lat="44.1635966" lon="12.2724107"><ele>23.0</ele><time>2026-04-03T10:52:10.168Z</time></trkpt><trkpt lat="44.16351" lon="12.2724159"><ele>23.0</ele><time>2026-04-03T10:52:11.167Z</time></trkpt><trkpt lat="44.1634245" lon="12.2724191"><ele>23.0</ele><time>2026-04-03T10:52:12.169Z</time></trkpt><trkpt lat="44.1633407" lon="12.2724215"><ele>23.0</ele><time>2026-04-03T10:52:13.167Z</time></trkpt><trkpt lat="44.1632555" lon="12.2724268"><ele>22.799999999999997</ele><time>2026-04-03T10:52:14.169Z</time></trkpt><trkpt lat="44.1631702" lon="12.2724372"><ele>22.6</ele><time>2026-04-03T10:52:15.168Z</time></trkpt><trkpt lat="44.1630782" lon="12.2724517"><ele>22.4</ele><time>2026-04-03T10:52:16.167Z</time></trkpt><trkpt lat="44.1629835" lon="12.2724664"><ele>22.200000000000003</ele><time>2026-04-03T10:52:17.167Z</time></trkpt><trkpt lat="44.1628865" lon="12.2724782"><ele>22.0</ele><time>2026-04-03T10:52:18.169Z</time></trkpt><trkpt lat="44.1627831" lon="12.2724849"><ele>22.0</ele><time>2026-04-03T10:52:19.167Z</time></trkpt><trkpt lat="44.1626776" lon="12.272488"><ele>22.0</ele><time>2026-04-03T10:52:20.167Z</time></trkpt><trkpt lat="44.1625688" lon="12.2724903"><ele>22.0</ele><time>2026-04-03T10:52:21.168Z</time></trkpt><trkpt lat="44.1624626" lon="12.2724918"><ele>22.0</ele><time>2026-04-03T10:52:22.167Z</time></trkpt><trkpt lat="44.1623641" lon="12.272493"><ele>22.0</ele><time>2026-04-03T10:52:23.167Z</time></trkpt><trkpt lat="44.1622735" lon="12.272488"><ele>22.0</ele><time>2026-04-03T10:52:24.168Z</time></trkpt><trkpt lat="44.1622055" lon="12.2724825"><ele>22.0</ele><time>2026-04-03T10:52:25.167Z</time></trkpt><trkpt lat="44.1621326" lon="12.2724934"><ele>22.0</ele><time>2026-04-03T10:52:27.168Z</time></trkpt><trkpt lat="44.1621042" lon="12.2725738"><ele>22.0</ele><time>2026-04-03T10:52:29.167Z</time></trkpt><trkpt lat="44.1621065" lon="12.2727192"><ele>22.0</ele><time>2026-04-03T10:52:31.169Z</time></trkpt><trkpt lat="44.1621129" lon="12.2728146"><ele>22.0</ele><time>2026-04-03T10:52:32.167Z</time></trkpt><trkpt lat="44.1621195" lon="12.2729166"><ele>22.0</ele><time>2026-04-03T10:52:33.167Z</time></trkpt><trkpt lat="44.1621266" lon="12.2730177"><ele>22.0</ele><time>2026-04-03T10:52:34.168Z</time></trkpt><trkpt lat="44.1621326" lon="12.2731167"><ele>22.0</ele><time>2026-04-03T10:52:35.168Z</time></trkpt><trkpt lat="44.1621372" lon="12.2732075"><ele>22.0</ele><time>2026-04-03T10:52:36.168Z</time></trkpt></trkseg></trk></gpx>